PWSweather.com
Personal Weather Stations
Station Observations
NCOUTPOST
Sheer Clifftop Utah Mountain, Waynesville, NC 28785

Sheer Clifftop Utah MountainWaynesville, NC 28785

Lat: 35.548, Lon: -82.982

Elevation: 3500

Station Type: Davis VUE 6250

Latest ConditionsUpdated 9:35:08 PM EST Wednesday, Nov 26, 2014
Currently Today's Max Today's Min Today's Average
Temperature 36.4°F2.4°C 48.7°F9.3°C 33.9°F1.1°C 39.4°F4.1°C
Dew Point 20.5°F-6.4°C 42.0°F5.6°C 13.1°F-10.5°C 30.8°F-0.7°C
Winds 2.0 mph SE3.2 kmh SE 12.0 mph E19.3 kmh E - 1.5 mph 2.4 kmh
Wind Gusts 3.0 mph4.8 kmh 15.0 mph24.1 kmh - -
Humidity 52% 98% 32% 75%
Pressure 29.93 in1013.5 mb 29.97 in1014.9 mb 29.84 in1010.5 mb -
Hour Temp Dew Point Humidity Winds Wind Gusts Pressure Precip Precip Rate Daily Precip Total
09:35 PM 36.4°F2.4°C 20.5°F-6.4°C 52% 2.0 mph SE3.2 kmh SE 3.0 mph4.8 kmh 29.93 in1013.5 mb 0.00 in0.0 mm 0.00 in/hr0.0 mm/hr 0.23 in5.8 mm
09:34 PM 36.4°F2.4°C 20.5°F-6.4°C 52% 1.0 mph SE1.6 kmh SE 3.0 mph4.8 kmh 29.94 in1013.9 mb 0.00 in0.0 mm 0.00 in/hr0.0 mm/hr 0.23 in5.8 mm
09:33 PM 36.4°F2.4°C 20.0°F-6.7°C 51% 1.0 mph ESE1.6 kmh ESE 3.0 mph4.8 kmh 29.93 in1013.5 mb 0.00 in0.0 mm 0.00 in/hr0.0 mm/hr 0.23 in5.8 mm
09:32 PM 36.4°F2.4°C 20.0°F-6.7°C 51% 2.0 mph SE3.2 kmh SE 3.0 mph4.8 kmh 29.93 in1013.5 mb 0.00 in0.0 mm 0.00 in/hr0.0 mm/hr 0.23 in5.8 mm
09:31 PM 36.4°F2.4°C 20.0°F-6.7°C 51% 1.0 mph E1.6 kmh E 7.0 mph11.3 kmh 29.93 in1013.5 mb 0.00 in0.0 mm 0.00 in/hr0.0 mm/hr 0.23 in5.8 mm
09:30 PM 36.3°F2.4°C 19.5°F-6.9°C 50% 3.0 mph E4.8 kmh E 7.0 mph11.3 kmh 29.93 in1013.5 mb 0.00 in0.0 mm 0.00 in/hr0.0 mm/hr 0.23 in5.8 mm
09:28 PM 36.3°F2.4°C 19.5°F-6.9°C 50% 2.0 mph SE3.2 kmh SE 7.0 mph11.3 kmh 29.93 in1013.5 mb 0.00 in0.0 mm 0.00 in/hr0.0 mm/hr 0.23 in5.8 mm
09:27 PM 36.4°F2.4°C 19.6°F-6.9°C 50% 2.0 mph SSE3.2 kmh SSE 7.0 mph11.3 kmh 29.93 in1013.5 mb 0.00 in0.0 mm 0.00 in/hr0.0 mm/hr 0.23 in5.8 mm
09:26 PM 36.5°F2.5°C 19.6°F-6.9°C 50% 2.0 mph SSE3.2 kmh SSE 7.0 mph11.3 kmh 29.93 in1013.5 mb 0.00 in0.0 mm 0.00 in/hr0.0 mm/hr 0.23 in5.8 mm
09:25 PM 36.5°F2.5°C 19.6°F-6.9°C 50% 1.0 mph SSW1.6 kmh SSW 7.0 mph11.3 kmh 29.93 in1013.5 mb 0.00 in0.0 mm 0.00 in/hr0.0 mm/hr 0.23 in5.8 mm
09:24 PM 36.6°F2.6°C 19.7°F-6.8°C 50% 2.0 mph S3.2 kmh S 7.0 mph11.3 kmh 29.93 in1013.5 mb 0.00 in0.0 mm 0.00 in/hr0.0 mm/hr 0.23 in5.8 mm
09:23 PM 36.7°F2.6°C 19.4°F-7.0°C 49% 1.0 mph SE1.6 kmh SE 7.0 mph11.3 kmh 29.93 in1013.5 mb 0.00 in0.0 mm 0.00 in/hr0.0 mm/hr 0.23 in5.8 mm
09:22 PM 36.7°F2.6°C 19.4°F-7.0°C 49% 1.0 mph SSE1.6 kmh SSE 7.0 mph11.3 kmh 29.93 in1013.5 mb 0.00 in0.0 mm 0.00 in/hr0.0 mm/hr 0.23 in5.8 mm
09:21 PM 36.7°F2.6°C 19.4°F-7.0°C 49% 1.0 mph SE1.6 kmh SE 7.0 mph11.3 kmh 29.93 in1013.5 mb 0.00 in0.0 mm 0.00 in/hr0.0 mm/hr 0.23 in5.8 mm
09:20 PM 36.7°F2.6°C 19.4°F-7.0°C 49% 3.0 mph E4.8 kmh E 7.0 mph11.3 kmh 29.94 in1013.9 mb 0.00 in0.0 mm 0.00 in/hr0.0 mm/hr 0.23 in5.8 mm
09:19 PM 36.8°F2.7°C 19.5°F-6.9°C 49% 3.0 mph ESE4.8 kmh ESE 7.0 mph11.3 kmh 29.93 in1013.5 mb 0.00 in0.0 mm 0.00 in/hr0.0 mm/hr 0.23 in5.8 mm
09:18 PM 36.8°F2.7°C 19.5°F-6.9°C 49% 3.0 mph SE4.8 kmh SE 7.0 mph11.3 kmh 29.93 in1013.5 mb 0.00 in0.0 mm 0.00 in/hr0.0 mm/hr 0.23 in5.8 mm
09:17 PM 36.8°F2.7°C 19.5°F-6.9°C 49% 3.0 mph SE4.8 kmh SE 7.0 mph11.3 kmh 29.93 in1013.5 mb 0.00 in0.0 mm 0.00 in/hr0.0 mm/hr 0.23 in5.8 mm
09:16 PM 36.9°F2.7°C 19.1°F-7.2°C 48% 3.0 mph S4.8 kmh S 7.0 mph11.3 kmh 29.93 in1013.5 mb 0.00 in0.0 mm 0.00 in/hr0.0 mm/hr 0.23 in5.8 mm
09:15 PM 36.8°F2.7°C 19.5°F-6.9°C 49% 4.0 mph SSE6.4 kmh SSE 7.0 mph11.3 kmh 29.93 in1013.5 mb 0.00 in0.0 mm 0.00 in/hr0.0 mm/hr 0.23 in5.8 mm
09:14 PM 36.9°F2.7°C 19.5°F-6.9°C 49% 4.0 mph SSE6.4 kmh SSE 7.0 mph11.3 kmh 29.93 in1013.5 mb 0.00 in0.0 mm 0.00 in/hr0.0 mm/hr 0.23 in5.8 mm
09:13 PM 36.9°F2.7°C 19.1°F-7.2°C 48% 4.0 mph E6.4 kmh E 7.0 mph11.3 kmh 29.93 in1013.5 mb 0.00 in0.0 mm 0.00 in/hr0.0 mm/hr 0.23 in5.8 mm
09:12 PM 36.9°F2.7°C 19.1°F-7.2°C 48% 1.0 mph SE1.6 kmh SE 7.0 mph11.3 kmh 29.93 in1013.5 mb 0.00 in0.0 mm 0.00 in/hr0.0 mm/hr 0.23 in5.8 mm
09:11 PM 37.0°F2.8°C 19.2°F-7.1°C 48% 2.0 mph SE3.2 kmh SE 6.0 mph9.7 kmh 29.94 in1013.9 mb 0.00 in0.0 mm 0.00 in/hr0.0 mm/hr 0.23 in5.8 mm
09:09 PM 37.0°F2.8°C 19.2°F-7.1°C 48% 2.0 mph SE3.2 kmh SE 6.0 mph9.7 kmh 29.94 in1013.9 mb 0.00 in0.0 mm 0.00 in/hr0.0 mm/hr 0.23 in5.8 mm
09:08 PM 37.0°F2.8°C 19.2°F-7.1°C 48% 4.0 mph SE6.4 kmh SE 6.0 mph9.7 kmh 29.94 in1013.9 mb 0.00 in0.0 mm 0.00 in/hr0.0 mm/hr 0.23 in5.8 mm
09:07 PM 37.1°F2.8°C 19.2°F-7.1°C 48% 2.0 mph SE3.2 kmh SE 6.0 mph9.7 kmh 29.94 in1013.9 mb 0.00 in0.0 mm 0.00 in/hr0.0 mm/hr 0.23 in5.8 mm
09:06 PM 37.1°F2.8°C 19.2°F-7.1°C 48% 4.0 mph SE6.4 kmh SE 6.0 mph9.7 kmh 29.94 in1013.9 mb 0.00 in0.0 mm 0.00 in/hr0.0 mm/hr 0.23 in5.8 mm
09:05 PM 37.1°F2.8°C 19.2°F-7.1°C 48% 4.0 mph SSE6.4 kmh SSE 6.0 mph9.7 kmh 29.94 in1013.9 mb 0.00 in0.0 mm 0.00 in/hr0.0 mm/hr 0.23 in5.8 mm
09:04 PM 37.1°F2.8°C 19.2°F-7.1°C 48% 2.0 mph SSE3.2 kmh SSE 6.0 mph9.7 kmh 29.94 in1013.9 mb 0.00 in0.0 mm 0.00 in/hr0.0 mm/hr 0.23 in5.8 mm
09:03 PM 37.2°F2.9°C 19.3°F-7.1°C 48% 5.0 mph SE8.0 kmh SE 6.0 mph9.7 kmh 29.94 in1013.9 mb 0.00 in0.0 mm 0.00 in/hr0.0 mm/hr 0.23 in5.8 mm
09:02 PM 37.2°F2.9°C 18.8°F-7.3°C 47% 3.0 mph E4.8 kmh E 4.0 mph6.4 kmh 29.94 in1013.9 mb 0.00 in0.0 mm 0.00 in/hr0.0 mm/hr 0.23 in5.8 mm
09:01 PM 37.2°F2.9°C 19.3°F-7.1°C 48% 6.0 mph ESE9.7 kmh ESE 13.0 mph20.9 kmh 29.94 in1013.9 mb 0.00 in0.0 mm 0.00 in/hr0.0 mm/hr 0.23 in5.8 mm
09:00 PM 37.2°F2.9°C 19.3°F-7.1°C 48% 4.0 mph ESE6.4 kmh ESE 13.0 mph20.9 kmh 29.94 in1013.9 mb 0.00 in0.0 mm 0.00 in/hr0.0 mm/hr 0.23 in5.8 mm
08:59 PM 37.3°F2.9°C 19.4°F-7.0°C 48% 1.0 mph SE1.6 kmh SE 13.0 mph20.9 kmh 29.94 in1013.9 mb 0.00 in0.0 mm 0.00 in/hr0.0 mm/hr 0.23 in5.8 mm
08:58 PM 37.3°F2.9°C 18.9°F-7.3°C 47% 3.0 mph SE4.8 kmh SE 13.0 mph20.9 kmh 29.94 in1013.9 mb 0.00 in0.0 mm 0.00 in/hr0.0 mm/hr 0.23 in5.8 mm
08:57 PM 37.3°F2.9°C 18.9°F-7.3°C 47% 3.0 mph E4.8 kmh E 13.0 mph20.9 kmh 29.94 in1013.9 mb 0.00 in0.0 mm 0.00 in/hr0.0 mm/hr 0.23 in5.8 mm
08:56 PM 37.3°F2.9°C 18.9°F-7.3°C 47% 6.0 mph E9.7 kmh E 13.0 mph20.9 kmh 29.94 in1013.9 mb 0.00 in0.0 mm 0.00 in/hr0.0 mm/hr 0.23 in5.8 mm
08:55 PM 37.4°F3.0°C 19.5°F-6.9°C 48% 5.0 mph SE8.0 kmh SE 13.0 mph20.9 kmh 29.94 in1013.9 mb 0.00 in0.0 mm 0.00 in/hr0.0 mm/hr 0.23 in5.8 mm
08:54 PM 37.4°F3.0°C 19.5°F-6.9°C 48% 5.0 mph SE8.0 kmh SE 13.0 mph20.9 kmh 29.94 in1013.9 mb 0.00 in0.0 mm 0.00 in/hr0.0 mm/hr 0.23 in5.8 mm
08:53 PM 37.4°F3.0°C 19.5°F-6.9°C 48% 4.0 mph SE6.4 kmh SE 13.0 mph20.9 kmh 29.94 in1013.9 mb 0.00 in0.0 mm 0.00 in/hr0.0 mm/hr 0.23 in5.8 mm
08:52 PM 37.4°F3.0°C 19.5°F-6.9°C 48% 8.0 mph E12.9 kmh E 13.0 mph20.9 kmh 29.94 in1013.9 mb 0.00 in0.0 mm 0.00 in/hr0.0 mm/hr 0.23 in5.8 mm
08:51 PM 37.4°F3.0°C 19.5°F-6.9°C 48% 6.0 mph ESE9.7 kmh ESE 13.0 mph20.9 kmh 29.94 in1013.9 mb 0.00 in0.0 mm 0.00 in/hr0.0 mm/hr 0.23 in5.8 mm
08:49 PM 37.5°F3.1°C 19.1°F-7.2°C 47% 6.0 mph SE9.7 kmh SE 13.0 mph20.9 kmh 29.93 in1013.5 mb 0.00 in0.0 mm 0.00 in/hr0.0 mm/hr 0.23 in5.8 mm
08:48 PM 37.6°F3.1°C 20.2°F-6.6°C 49% 6.0 mph SE9.7 kmh SE 13.0 mph20.9 kmh 29.93 in1013.5 mb 0.00 in0.0 mm 0.00 in/hr0.0 mm/hr 0.23 in5.8 mm
08:47 PM 37.6°F3.1°C 19.7°F-6.8°C 48% 4.0 mph SE6.4 kmh SE 13.0 mph20.9 kmh 29.93 in1013.5 mb 0.00 in0.0 mm 0.00 in/hr0.0 mm/hr 0.23 in5.8 mm
08:46 PM 37.6°F3.1°C 18.7°F-7.4°C 46% 2.0 mph SE3.2 kmh SE 13.0 mph20.9 kmh 29.93 in1013.5 mb 0.00 in0.0 mm 0.00 in/hr0.0 mm/hr 0.23 in5.8 mm
08:44 PM 37.6°F3.1°C 18.7°F-7.4°C 46% 5.0 mph E8.0 kmh E 13.0 mph20.9 kmh 29.93 in1013.5 mb 0.00 in0.0 mm 0.00 in/hr0.0 mm/hr 0.23 in5.8 mm
08:43 PM 37.7°F3.2°C 19.3°F-7.1°C 47% 6.0 mph ESE9.7 kmh ESE 13.0 mph20.9 kmh 29.93 in1013.5 mb 0.00 in0.0 mm 0.00 in/hr0.0 mm/hr 0.23 in5.8 mm
08:42 PM 37.7°F3.2°C 19.3°F-7.1°C 47% 7.0 mph ESE11.3 kmh ESE 13.0 mph20.9 kmh 29.93 in1013.5 mb 0.00 in0.0 mm 0.00 in/hr0.0 mm/hr 0.23 in5.8 mm
08:41 PM 37.7°F3.2°C 19.8°F-6.8°C 48% 6.0 mph ESE9.7 kmh ESE 13.0 mph20.9 kmh 29.93 in1013.5 mb 0.00 in0.0 mm 0.00 in/hr0.0 mm/hr 0.23 in5.8 mm
08:40 PM 37.7°F3.2°C 19.3°F-7.1°C 47% 3.0 mph SE4.8 kmh SE 13.0 mph20.9 kmh 29.93 in1013.5 mb 0.00 in0.0 mm 0.00 in/hr0.0 mm/hr 0.23 in5.8 mm
08:39 PM 37.8°F3.2°C 18.9°F-7.3°C 46% 4.0 mph SE6.4 kmh SE 13.0 mph20.9 kmh 29.94 in1013.9 mb 0.00 in0.0 mm 0.00 in/hr0.0 mm/hr 0.23 in5.8 mm
08:38 PM 37.8°F3.2°C 18.9°F-7.3°C 46% 4.0 mph SE6.4 kmh SE 13.0 mph20.9 kmh 29.93 in1013.5 mb 0.00 in0.0 mm 0.00 in/hr0.0 mm/hr 0.23 in5.8 mm
08:37 PM 37.8°F3.2°C 18.9°F-7.3°C 46% 4.0 mph SE6.4 kmh SE 13.0 mph20.9 kmh 29.93 in1013.5 mb 0.00 in0.0 mm 0.00 in/hr0.0 mm/hr 0.23 in5.8 mm
08:36 PM 37.8°F3.2°C 18.4°F-7.6°C 45% 7.0 mph E11.3 kmh E 13.0 mph20.9 kmh 29.93 in1013.5 mb 0.00 in0.0 mm 0.00 in/hr0.0 mm/hr 0.23 in5.8 mm
08:35 PM 37.8°F3.2°C 18.9°F-7.3°C 46% 9.0 mph SE14.5 kmh SE 13.0 mph20.9 kmh 29.94 in1013.9 mb 0.00 in0.0 mm 0.00 in/hr0.0 mm/hr 0.23 in5.8 mm
08:34 PM 37.8°F3.2°C 18.9°F-7.3°C 46% 6.0 mph SE9.7 kmh SE 12.0 mph19.3 kmh 29.94 in1013.9 mb 0.00 in0.0 mm 0.00 in/hr0.0 mm/hr 0.23 in5.8 mm
08:33 PM 37.9°F3.3°C 19.5°F-6.9°C 47% 3.0 mph SE4.8 kmh SE 7.0 mph11.3 kmh 29.94 in1013.9 mb 0.00 in0.0 mm 0.00 in/hr0.0 mm/hr 0.23 in5.8 mm
08:32 PM 37.9°F3.3°C 19.0°F-7.2°C 46% 4.0 mph E6.4 kmh E 7.0 mph11.3 kmh 29.94 in1013.9 mb 0.00 in0.0 mm 0.00 in/hr0.0 mm/hr 0.23 in5.8 mm
08:31 PM 37.8°F3.2°C 18.9°F-7.3°C 46% 4.0 mph ESE6.4 kmh ESE 12.0 mph19.3 kmh 29.94 in1013.9 mb 0.00 in0.0 mm 0.00 in/hr0.0 mm/hr 0.23 in5.8 mm
08:30 PM 37.9°F3.3°C 19.5°F-6.9°C 47% 6.0 mph SE9.7 kmh SE 12.0 mph19.3 kmh 29.94 in1013.9 mb 0.00 in0.0 mm 0.00 in/hr0.0 mm/hr 0.23 in5.8 mm
08:29 PM 37.9°F3.3°C 19.0°F-7.2°C 46% 5.0 mph S8.0 kmh S 12.0 mph19.3 kmh 29.94 in1013.9 mb 0.00 in0.0 mm 0.00 in/hr0.0 mm/hr 0.23 in5.8 mm
08:28 PM 37.9°F3.3°C 19.0°F-7.2°C 46% 1.0 mph ESE1.6 kmh ESE 12.0 mph19.3 kmh 29.94 in1013.9 mb 0.00 in0.0 mm 0.00 in/hr0.0 mm/hr 0.23 in5.8 mm
08:27 PM 37.9°F3.3°C 18.5°F-7.5°C 45% 3.0 mph SSE4.8 kmh SSE 12.0 mph19.3 kmh 29.94 in1013.9 mb 0.00 in0.0 mm 0.00 in/hr0.0 mm/hr 0.23 in5.8 mm
08:26 PM 37.9°F3.3°C 19.0°F-7.2°C 46% 11.0 mph E17.7 kmh E 12.0 mph19.3 kmh 29.94 in1013.9 mb 0.00 in0.0 mm 0.00 in/hr0.0 mm/hr 0.23 in5.8 mm
08:25 PM 37.9°F3.3°C 19.0°F-7.2°C 46% 7.0 mph SE11.3 kmh SE 12.0 mph19.3 kmh 29.94 in1013.9 mb 0.00 in0.0 mm 0.00 in/hr0.0 mm/hr 0.23 in5.8 mm
08:24 PM 37.9°F3.3°C 19.0°F-7.2°C 46% 5.0 mph SSE8.0 kmh SSE 12.0 mph19.3 kmh 29.94 in1013.9 mb 0.00 in0.0 mm 0.00 in/hr0.0 mm/hr 0.23 in5.8 mm
08:23 PM 38.0°F3.3°C 19.1°F-7.2°C 46% 7.0 mph ESE11.3 kmh ESE 12.0 mph19.3 kmh 29.94 in1013.9 mb 0.00 in0.0 mm 0.00 in/hr0.0 mm/hr 0.23 in5.8 mm
08:22 PM 38.0°F3.3°C 18.6°F-7.4°C 45% 4.0 mph SSE6.4 kmh SSE 12.0 mph19.3 kmh 29.94 in1013.9 mb 0.00 in0.0 mm 0.00 in/hr0.0 mm/hr 0.23 in5.8 mm
08:21 PM 38.0°F3.3°C 18.6°F-7.4°C 45% 5.0 mph SE8.0 kmh SE 12.0 mph19.3 kmh 29.94 in1013.9 mb 0.00 in0.0 mm 0.00 in/hr0.0 mm/hr 0.23 in5.8 mm
08:20 PM 38.1°F3.4°C 18.7°F-7.4°C 45% 3.0 mph SE4.8 kmh SE 12.0 mph19.3 kmh 29.94 in1013.9 mb 0.00 in0.0 mm 0.00 in/hr0.0 mm/hr 0.23 in5.8 mm
08:19 PM 38.1°F3.4°C 18.7°F-7.4°C 45% 6.0 mph SE9.7 kmh SE 12.0 mph19.3 kmh 29.94 in1013.9 mb 0.00 in0.0 mm 0.00 in/hr0.0 mm/hr 0.23 in5.8 mm
08:18 PM 38.1°F3.4°C 19.7°F-6.8°C 47% 3.0 mph SE4.8 kmh SE 12.0 mph19.3 kmh 29.94 in1013.9 mb 0.00 in0.0 mm 0.00 in/hr0.0 mm/hr 0.23 in5.8 mm
08:17 PM 38.1°F3.4°C 19.2°F-7.1°C 46% 5.0 mph SE8.0 kmh SE 12.0 mph19.3 kmh 29.94 in1013.9 mb 0.00 in0.0 mm 0.00 in/hr0.0 mm/hr 0.23 in5.8 mm
08:16 PM 38.2°F3.4°C 19.3°F-7.1°C 46% 3.0 mph E4.8 kmh E 12.0 mph19.3 kmh 29.94 in1013.9 mb 0.00 in0.0 mm 0.00 in/hr0.0 mm/hr 0.23 in5.8 mm
08:15 PM 38.1°F3.4°C 18.7°F-7.4°C 45% 4.0 mph ENE6.4 kmh ENE 12.0 mph19.3 kmh 29.94 in1013.9 mb 0.00 in0.0 mm 0.00 in/hr0.0 mm/hr 0.23 in5.8 mm
08:14 PM 38.2°F3.4°C 19.3°F-7.1°C 46% 6.0 mph E9.7 kmh E 12.0 mph19.3 kmh 29.94 in1013.9 mb 0.00 in0.0 mm 0.00 in/hr0.0 mm/hr 0.23 in5.8 mm
08:13 PM 38.2°F3.4°C 18.2°F-7.7°C 44% 3.0 mph SE4.8 kmh SE 12.0 mph19.3 kmh 29.94 in1013.9 mb 0.00 in0.0 mm 0.00 in/hr0.0 mm/hr 0.23 in5.8 mm
08:12 PM 38.2°F3.4°C 18.8°F-7.3°C 45% 8.0 mph SE12.9 kmh SE 12.0 mph19.3 kmh 29.94 in1013.9 mb 0.00 in0.0 mm 0.00 in/hr0.0 mm/hr 0.23 in5.8 mm
08:11 PM 38.2°F3.4°C 18.8°F-7.3°C 45% 7.0 mph SE11.3 kmh SE 12.0 mph19.3 kmh 29.94 in1013.9 mb 0.00 in0.0 mm 0.00 in/hr0.0 mm/hr 0.23 in5.8 mm
08:10 PM 38.3°F3.5°C 18.8°F-7.3°C 45% 8.0 mph SE12.9 kmh SE 12.0 mph19.3 kmh 29.94 in1013.9 mb 0.00 in0.0 mm 0.00 in/hr0.0 mm/hr 0.23 in5.8 mm
08:09 PM 38.3°F3.5°C 18.8°F-7.3°C 45% 4.0 mph SSE6.4 kmh SSE 12.0 mph19.3 kmh 29.94 in1013.9 mb 0.00 in0.0 mm 0.00 in/hr0.0 mm/hr 0.23 in5.8 mm
08:08 PM 38.3°F3.5°C 18.3°F-7.6°C 44% 4.0 mph ESE6.4 kmh ESE 12.0 mph19.3 kmh 29.94 in1013.9 mb 0.00 in0.0 mm 0.00 in/hr0.0 mm/hr 0.23 in5.8 mm
08:07 PM 38.3°F3.5°C 19.4°F-7.0°C 46% 8.0 mph ESE12.9 kmh ESE 12.0 mph19.3 kmh 29.94 in1013.9 mb 0.00 in0.0 mm 0.00 in/hr0.0 mm/hr 0.23 in5.8 mm
08:06 PM 38.3°F3.5°C 18.8°F-7.3°C 45% 2.0 mph SE3.2 kmh SE 12.0 mph19.3 kmh 29.94 in1013.9 mb 0.00 in0.0 mm 0.00 in/hr0.0 mm/hr 0.23 in5.8 mm
08:05 PM 38.3°F3.5°C 18.3°F-7.6°C 44% 3.0 mph SE4.8 kmh SE 12.0 mph19.3 kmh 29.94 in1013.9 mb 0.00 in0.0 mm 0.00 in/hr0.0 mm/hr 0.23 in5.8 mm
08:04 PM 38.3°F3.5°C 19.4°F-7.0°C 46% 6.0 mph S9.7 kmh S 9.0 mph14.5 kmh 29.94 in1013.9 mb 0.00 in0.0 mm 0.00 in/hr0.0 mm/hr 0.23 in5.8 mm
08:03 PM 38.4°F3.6°C 18.9°F-7.3°C 45% 4.0 mph S6.4 kmh S 9.0 mph14.5 kmh 29.94 in1013.9 mb 0.00 in0.0 mm 0.00 in/hr0.0 mm/hr 0.23 in5.8 mm
08:02 PM 38.4°F3.6°C 18.9°F-7.3°C 45% 7.0 mph SE11.3 kmh SE 9.0 mph14.5 kmh 29.94 in1013.9 mb 0.00 in0.0 mm 0.00 in/hr0.0 mm/hr 0.23 in5.8 mm
08:01 PM 38.4°F3.6°C 18.9°F-7.3°C 45% 5.0 mph S8.0 kmh S 15.0 mph24.1 kmh 29.94 in1013.9 mb 0.00 in0.0 mm 0.00 in/hr0.0 mm/hr 0.23 in5.8 mm
08:00 PM 38.4°F3.6°C 19.4°F-7.0°C 46% 7.0 mph E11.3 kmh E 15.0 mph24.1 kmh 29.94 in1013.9 mb 0.00 in0.0 mm 0.00 in/hr0.0 mm/hr 0.23 in5.8 mm
07:59 PM 38.4°F3.6°C 19.4°F-7.0°C 46% 4.0 mph SSE6.4 kmh SSE 15.0 mph24.1 kmh 29.94 in1013.9 mb 0.00 in0.0 mm 0.00 in/hr0.0 mm/hr 0.23 in5.8 mm
07:58 PM 38.4°F3.6°C 18.9°F-7.3°C 45% 5.0 mph ENE8.0 kmh ENE 15.0 mph24.1 kmh 29.94 in1013.9 mb 0.00 in0.0 mm 0.00 in/hr0.0 mm/hr 0.23 in5.8 mm
07:57 PM 38.4°F3.6°C 19.4°F-7.0°C 46% 5.0 mph SW8.0 kmh SW 15.0 mph24.1 kmh 29.94 in1013.9 mb 0.00 in0.0 mm 0.00 in/hr0.0 mm/hr 0.23 in5.8 mm
07:56 PM 38.4°F3.6°C 18.9°F-7.3°C 45% 4.0 mph E6.4 kmh E 15.0 mph24.1 kmh 29.94 in1013.9 mb 0.00 in0.0 mm 0.00 in/hr0.0 mm/hr 0.23 in5.8 mm
07:55 PM 38.5°F3.6°C 19.0°F-7.2°C 45% 3.0 mph ESE4.8 kmh ESE 15.0 mph24.1 kmh 29.94 in1013.9 mb 0.00 in0.0 mm 0.00 in/hr0.0 mm/hr 0.23 in5.8 mm
07:54 PM 38.5°F3.6°C 19.5°F-6.9°C 46% 5.0 mph ESE8.0 kmh ESE 15.0 mph24.1 kmh 29.94 in1013.9 mb 0.00 in0.0 mm 0.00 in/hr0.0 mm/hr 0.23 in5.8 mm
07:53 PM 38.5°F3.6°C 19.5°F-6.9°C 46% 4.0 mph SE6.4 kmh SE 15.0 mph24.1 kmh 29.94 in1013.9 mb 0.00 in0.0 mm 0.00 in/hr0.0 mm/hr 0.23 in5.8 mm
07:52 PM 38.5°F3.6°C 19.5°F-6.9°C 46% 2.0 mph SSE3.2 kmh SSE 15.0 mph24.1 kmh 29.94 in1013.9 mb 0.00 in0.0 mm 0.00 in/hr0.0 mm/hr 0.23 in5.8 mm
07:51 PM 38.5°F3.6°C 19.0°F-7.2°C 45% 8.0 mph E12.9 kmh E 15.0 mph24.1 kmh 29.94 in1013.9 mb 0.00 in0.0 mm 0.00 in/hr0.0 mm/hr 0.23 in5.8 mm
07:50 PM 38.6°F3.7°C 19.1°F-7.2°C 45% 3.0 mph SSW4.8 kmh SSW 15.0 mph24.1 kmh 29.94 in1013.9 mb 0.00 in0.0 mm 0.00 in/hr0.0 mm/hr 0.23 in5.8 mm
07:49 PM 38.6°F3.7°C 19.1°F-7.2°C 45% 4.0 mph SE6.4 kmh SE 15.0 mph24.1 kmh 29.94 in1013.9 mb 0.00 in0.0 mm 0.00 in/hr0.0 mm/hr 0.23 in5.8 mm
07:48 PM 38.5°F3.6°C 19.5°F-6.9°C 46% 5.0 mph ESE8.0 kmh ESE 15.0 mph24.1 kmh 29.94 in1013.9 mb 0.00 in0.0 mm 0.00 in/hr0.0 mm/hr 0.23 in5.8 mm
07:47 PM 38.6°F3.7°C 19.1°F-7.2°C 45% 2.0 mph E3.2 kmh E 15.0 mph24.1 kmh 29.94 in1013.9 mb 0.00 in0.0 mm 0.00 in/hr0.0 mm/hr 0.23 in5.8 mm
07:46 PM 38.6°F3.7°C 18.6°F-7.4°C 44% 6.0 mph ESE9.7 kmh ESE 15.0 mph24.1 kmh 29.94 in1013.9 mb 0.00 in0.0 mm 0.00 in/hr0.0 mm/hr 0.23 in5.8 mm
07:45 PM 38.6°F3.7°C 18.6°F-7.4°C 44% 3.0 mph SE4.8 kmh SE 15.0 mph24.1 kmh 29.94 in1013.9 mb 0.00 in0.0 mm 0.00 in/hr0.0 mm/hr 0.23 in5.8 mm
07:44 PM 38.6°F3.7°C 19.1°F-7.2°C 45% 8.0 mph SE12.9 kmh SE 15.0 mph24.1 kmh 29.94 in1013.9 mb 0.00 in0.0 mm 0.00 in/hr0.0 mm/hr 0.23 in5.8 mm
07:43 PM 38.7°F3.7°C 19.2°F-7.1°C 45% 3.0 mph SE4.8 kmh SE 15.0 mph24.1 kmh 29.94 in1013.9 mb 0.00 in0.0 mm 0.00 in/hr0.0 mm/hr 0.23 in5.8 mm
07:42 PM 38.6°F3.7°C 19.1°F-7.2°C 45% 3.0 mph SE4.8 kmh SE 15.0 mph24.1 kmh 29.94 in1013.9 mb 0.00 in0.0 mm 0.00 in/hr0.0 mm/hr 0.23 in5.8 mm
07:41 PM 38.6°F3.7°C 18.6°F-7.4°C 44% 6.0 mph E9.7 kmh E 15.0 mph24.1 kmh 29.93 in1013.5 mb 0.00 in0.0 mm 0.00 in/hr0.0 mm/hr 0.23 in5.8 mm
07:40 PM 38.6°F3.7°C 18.6°F-7.4°C 44% 11.0 mph ESE17.7 kmh ESE 15.0 mph24.1 kmh 29.93 in1013.5 mb 0.00 in0.0 mm 0.00 in/hr0.0 mm/hr 0.23 in5.8 mm
07:39 PM 38.6°F3.7°C 19.1°F-7.2°C 45% 7.0 mph E11.3 kmh E 10.0 mph16.1 kmh 29.94 in1013.9 mb 0.00 in0.0 mm 0.00 in/hr0.0 mm/hr 0.23 in5.8 mm
07:38 PM 38.5°F3.6°C 19.0°F-7.2°C 45% 6.0 mph E9.7 kmh E 10.0 mph16.1 kmh 29.94 in1013.9 mb 0.00 in0.0 mm 0.00 in/hr0.0 mm/hr 0.23 in5.8 mm
07:37 PM 38.5°F3.6°C 18.5°F-7.5°C 44% 7.0 mph ESE11.3 kmh ESE 10.0 mph16.1 kmh 29.93 in1013.5 mb 0.00 in0.0 mm 0.00 in/hr0.0 mm/hr 0.23 in5.8 mm
07:36 PM 38.5°F3.6°C 19.0°F-7.2°C 45% 6.0 mph SE9.7 kmh SE 9.0 mph14.5 kmh 29.94 in1013.9 mb 0.00 in0.0 mm 0.00 in/hr0.0 mm/hr 0.23 in5.8 mm
07:35 PM 38.5°F3.6°C 19.0°F-7.2°C 45% 3.0 mph ENE4.8 kmh ENE 9.0 mph14.5 kmh 29.94 in1013.9 mb 0.00 in0.0 mm 0.00 in/hr0.0 mm/hr 0.23 in5.8 mm
07:34 PM 38.5°F3.6°C 19.5°F-6.9°C 46% 4.0 mph SE6.4 kmh SE 9.0 mph14.5 kmh 29.94 in1013.9 mb 0.00 in0.0 mm 0.00 in/hr0.0 mm/hr 0.23 in5.8 mm
07:33 PM 38.5°F3.6°C 19.0°F-7.2°C 45% 3.0 mph SE4.8 kmh SE 9.0 mph14.5 kmh 29.93 in1013.5 mb 0.00 in0.0 mm 0.00 in/hr0.0 mm/hr 0.23 in5.8 mm
07:32 PM 38.5°F3.6°C 19.0°F-7.2°C 45% 8.0 mph SE12.9 kmh SE 8.0 mph12.9 kmh 29.93 in1013.5 mb 0.00 in0.0 mm 0.00 in/hr0.0 mm/hr 0.23 in5.8 mm
07:31 PM 38.5°F3.6°C 19.0°F-7.2°C 45% 4.0 mph ESE6.4 kmh ESE 9.0 mph14.5 kmh 29.93 in1013.5 mb 0.00 in0.0 mm 0.00 in/hr0.0 mm/hr 0.23 in5.8 mm
07:30 PM 38.5°F3.6°C 19.0°F-7.2°C 45% 2.0 mph S3.2 kmh S 9.0 mph14.5 kmh 29.93 in1013.5 mb 0.00 in0.0 mm 0.00 in/hr0.0 mm/hr 0.23 in5.8 mm
07:29 PM 38.6°F3.7°C 19.1°F-7.2°C 45% 8.0 mph SE12.9 kmh SE 9.0 mph14.5 kmh 29.94 in1013.9 mb 0.00 in0.0 mm 0.00 in/hr0.0 mm/hr 0.23 in5.8 mm
07:28 PM 38.6°F3.7°C 19.6°F-6.9°C 46% 5.0 mph S8.0 kmh S 9.0 mph14.5 kmh 29.93 in1013.5 mb 0.00 in0.0 mm 0.00 in/hr0.0 mm/hr 0.23 in5.8 mm
07:27 PM 38.6°F3.7°C 19.1°F-7.2°C 45% 3.0 mph SE4.8 kmh SE 9.0 mph14.5 kmh 29.93 in1013.5 mb 0.00 in0.0 mm 0.00 in/hr0.0 mm/hr 0.23 in5.8 mm
07:26 PM 38.6°F3.7°C 18.6°F-7.4°C 44% 3.0 mph SE4.8 kmh SE 9.0 mph14.5 kmh 29.93 in1013.5 mb 0.00 in0.0 mm 0.00 in/hr0.0 mm/hr 0.23 in5.8 mm
07:25 PM 38.7°F3.7°C 18.7°F-7.4°C 44% 2.0 mph SE3.2 kmh SE 9.0 mph14.5 kmh 29.93 in1013.5 mb 0.00 in0.0 mm 0.00 in/hr0.0 mm/hr 0.23 in5.8 mm
07:24 PM 38.7°F3.7°C 18.7°F-7.4°C 44% 5.0 mph SE8.0 kmh SE 9.0 mph14.5 kmh 29.93 in1013.5 mb 0.00 in0.0 mm 0.00 in/hr0.0 mm/hr 0.23 in5.8 mm
07:23 PM 38.7°F3.7°C 18.7°F-7.4°C 44% 6.0 mph S9.7 kmh S 9.0 mph14.5 kmh 29.93 in1013.5 mb 0.00 in0.0 mm 0.00 in/hr0.0 mm/hr 0.23 in5.8 mm
07:22 PM 38.7°F3.7°C 18.7°F-7.4°C 44% 8.0 mph ESE12.9 kmh ESE 9.0 mph14.5 kmh 29.93 in1013.5 mb 0.00 in0.0 mm 0.00 in/hr0.0 mm/hr 0.23 in5.8 mm
07:21 PM 38.7°F3.7°C 18.1°F-7.7°C 43% 7.0 mph SE11.3 kmh SE 9.0 mph14.5 kmh 29.93 in1013.5 mb 0.00 in0.0 mm 0.00 in/hr0.0 mm/hr 0.23 in5.8 mm
07:20 PM 38.7°F3.7°C 18.7°F-7.4°C 44% 2.0 mph SE3.2 kmh SE 9.0 mph14.5 kmh 29.93 in1013.5 mb 0.00 in0.0 mm 0.00 in/hr0.0 mm/hr 0.23 in5.8 mm
07:19 PM 38.7°F3.7°C 18.7°F-7.4°C 44% 4.0 mph SE6.4 kmh SE 9.0 mph14.5 kmh 29.93 in1013.5 mb 0.00 in0.0 mm 0.00 in/hr0.0 mm/hr 0.23 in5.8 mm
07:18 PM 38.7°F3.7°C 18.7°F-7.4°C 44% 3.0 mph SE4.8 kmh SE 9.0 mph14.5 kmh 29.93 in1013.5 mb 0.00 in0.0 mm 0.00 in/hr0.0 mm/hr 0.23 in5.8 mm
07:17 PM 38.7°F3.7°C 18.7°F-7.4°C 44% 1.0 mph SE1.6 kmh SE 9.0 mph14.5 kmh 29.93 in1013.5 mb 0.00 in0.0 mm 0.00 in/hr0.0 mm/hr 0.23 in5.8 mm
07:16 PM 38.7°F3.7°C 18.7°F-7.4°C 44% 1.0 mph S1.6 kmh S 9.0 mph14.5 kmh 29.93 in1013.5 mb 0.00 in0.0 mm 0.00 in/hr0.0 mm/hr 0.23 in5.8 mm
07:15 PM 38.7°F3.7°C 18.1°F-7.7°C 43% Calm Calm 9.0 mph14.5 kmh 29.93 in1013.5 mb 0.00 in0.0 mm 0.00 in/hr0.0 mm/hr 0.23 in5.8 mm
07:14 PM 38.7°F3.7°C 18.7°F-7.4°C 44% 1.0 mph ENE1.6 kmh ENE 9.0 mph14.5 kmh 29.93 in1013.5 mb 0.00 in0.0 mm 0.00 in/hr0.0 mm/hr 0.23 in5.8 mm
07:13 PM 38.7°F3.7°C 19.2°F-7.1°C 45% 6.0 mph SSE9.7 kmh SSE 9.0 mph14.5 kmh 29.93 in1013.5 mb 0.00 in0.0 mm 0.00 in/hr0.0 mm/hr 0.23 in5.8 mm
07:12 PM 38.7°F3.7°C 19.2°F-7.1°C 45% 2.0 mph SSE3.2 kmh SSE 9.0 mph14.5 kmh 29.93 in1013.5 mb 0.00 in0.0 mm 0.00 in/hr0.0 mm/hr 0.23 in5.8 mm
07:11 PM 38.7°F3.7°C 18.7°F-7.4°C 44% 1.0 mph WSW1.6 kmh WSW 9.0 mph14.5 kmh 29.93 in1013.5 mb 0.00 in0.0 mm 0.00 in/hr0.0 mm/hr 0.23 in5.8 mm
07:10 PM 38.8°F3.8°C 18.8°F-7.3°C 44% 2.0 mph ENE3.2 kmh ENE 9.0 mph14.5 kmh 29.93 in1013.5 mb 0.00 in0.0 mm 0.00 in/hr0.0 mm/hr 0.23 in5.8 mm
07:09 PM 38.8°F3.8°C 18.8°F-7.3°C 44% 3.0 mph SSW4.8 kmh SSW 9.0 mph14.5 kmh 29.93 in1013.5 mb 0.00 in0.0 mm 0.00 in/hr0.0 mm/hr 0.23 in5.8 mm
07:08 PM 38.8°F3.8°C 19.3°F-7.1°C 45% 2.0 mph S3.2 kmh S 9.0 mph14.5 kmh 29.93 in1013.5 mb 0.00 in0.0 mm 0.00 in/hr0.0 mm/hr 0.23 in5.8 mm
07:07 PM 38.8°F3.8°C 19.3°F-7.1°C 45% 2.0 mph NE3.2 kmh NE 9.0 mph14.5 kmh 29.93 in1013.5 mb 0.00 in0.0 mm 0.00 in/hr0.0 mm/hr 0.23 in5.8 mm
07:06 PM 38.8°F3.8°C 18.8°F-7.3°C 44% Calm Calm 9.0 mph14.5 kmh 29.93 in1013.5 mb 0.00 in0.0 mm 0.00 in/hr0.0 mm/hr 0.23 in5.8 mm
07:05 PM 38.8°F3.8°C 18.8°F-7.3°C 44% 2.0 mph SSW3.2 kmh SSW 9.0 mph14.5 kmh 29.93 in1013.5 mb 0.00 in0.0 mm 0.00 in/hr0.0 mm/hr 0.23 in5.8 mm
07:04 PM 38.9°F3.8°C 18.9°F-7.3°C 44% 4.0 mph S6.4 kmh S 9.0 mph14.5 kmh 29.93 in1013.5 mb 0.00 in0.0 mm 0.00 in/hr0.0 mm/hr 0.23 in5.8 mm
07:03 PM 38.9°F3.8°C 18.9°F-7.3°C 44% 3.0 mph SE4.8 kmh SE 5.0 mph8.0 kmh 29.93 in1013.5 mb 0.00 in0.0 mm 0.00 in/hr0.0 mm/hr 0.23 in5.8 mm
07:02 PM 38.9°F3.8°C 18.9°F-7.3°C 44% 3.0 mph SSE4.8 kmh SSE 3.0 mph4.8 kmh 29.93 in1013.5 mb 0.00 in0.0 mm 0.00 in/hr0.0 mm/hr 0.23 in5.8 mm
07:01 PM 39.0°F3.9°C 19.0°F-7.2°C 44% 4.0 mph ESE6.4 kmh ESE 13.0 mph20.9 kmh 29.93 in1013.5 mb 0.00 in0.0 mm 0.00 in/hr0.0 mm/hr 0.23 in5.8 mm
07:00 PM 39.0°F3.9°C 18.4°F-7.6°C 43% 4.0 mph SE6.4 kmh SE 13.0 mph20.9 kmh 29.94 in1013.9 mb 0.00 in0.0 mm 0.00 in/hr0.0 mm/hr 0.23 in5.8 mm
06:59 PM 39.0°F3.9°C 18.4°F-7.6°C 43% 6.0 mph ESE9.7 kmh ESE 13.0 mph20.9 kmh 29.94 in1013.9 mb 0.00 in0.0 mm 0.00 in/hr0.0 mm/hr 0.23 in5.8 mm
06:58 PM 39.0°F3.9°C 17.9°F-7.8°C 42% 3.0 mph SE4.8 kmh SE 13.0 mph20.9 kmh 29.94 in1013.9 mb 0.00 in0.0 mm 0.00 in/hr0.0 mm/hr 0.23 in5.8 mm
06:57 PM 39.0°F3.9°C 17.9°F-7.8°C 42% 7.0 mph E11.3 kmh E 13.0 mph20.9 kmh 29.94 in1013.9 mb 0.00 in0.0 mm 0.00 in/hr0.0 mm/hr 0.23 in5.8 mm
06:56 PM 39.0°F3.9°C 18.4°F-7.6°C 43% 6.0 mph E9.7 kmh E 13.0 mph20.9 kmh 29.94 in1013.9 mb 0.00 in0.0 mm 0.00 in/hr0.0 mm/hr 0.23 in5.8 mm
06:55 PM 39.1°F3.9°C 18.0°F-7.8°C 42% 11.0 mph ESE17.7 kmh ESE 13.0 mph20.9 kmh 29.94 in1013.9 mb 0.00 in0.0 mm 0.00 in/hr0.0 mm/hr 0.23 in5.8 mm
06:54 PM 39.1°F3.9°C 18.5°F-7.5°C 43% 7.0 mph ESE11.3 kmh ESE 13.0 mph20.9 kmh 29.94 in1013.9 mb 0.00 in0.0 mm 0.00 in/hr0.0 mm/hr 0.23 in5.8 mm
06:53 PM 39.1°F3.9°C 18.5°F-7.5°C 43% 5.0 mph ESE8.0 kmh ESE 13.0 mph20.9 kmh 29.94 in1013.9 mb 0.00 in0.0 mm 0.00 in/hr0.0 mm/hr 0.23 in5.8 mm
06:52 PM 39.1°F3.9°C 18.5°F-7.5°C 43% 4.0 mph SE6.4 kmh SE 13.0 mph20.9 kmh 29.94 in1013.9 mb 0.00 in0.0 mm 0.00 in/hr0.0 mm/hr 0.23 in5.8 mm
06:51 PM 39.1°F3.9°C 18.0°F-7.8°C 42% 7.0 mph SE11.3 kmh SE 13.0 mph20.9 kmh 29.94 in1013.9 mb 0.00 in0.0 mm 0.00 in/hr0.0 mm/hr 0.23 in5.8 mm
06:50 PM 39.1°F3.9°C 18.5°F-7.5°C 43% 4.0 mph SE6.4 kmh SE 13.0 mph20.9 kmh 29.93 in1013.5 mb 0.00 in0.0 mm 0.00 in/hr0.0 mm/hr 0.23 in5.8 mm
06:49 PM 39.1°F3.9°C 18.0°F-7.8°C 42% 2.0 mph SE3.2 kmh SE 13.0 mph20.9 kmh 29.93 in1013.5 mb 0.00 in0.0 mm 0.00 in/hr0.0 mm/hr 0.23 in5.8 mm
06:48 PM 39.1°F3.9°C 18.0°F-7.8°C 42% 4.0 mph SE6.4 kmh SE 13.0 mph20.9 kmh 29.93 in1013.5 mb 0.00 in0.0 mm 0.00 in/hr0.0 mm/hr 0.23 in5.8 mm
06:47 PM 39.1°F3.9°C 17.4°F-8.1°C 41% 7.0 mph E11.3 kmh E 13.0 mph20.9 kmh 29.93 in1013.5 mb 0.00 in0.0 mm 0.00 in/hr0.0 mm/hr 0.23 in5.8 mm
06:46 PM 39.1°F3.9°C 17.4°F-8.1°C 41% 4.0 mph ESE6.4 kmh ESE 13.0 mph20.9 kmh 29.94 in1013.9 mb 0.00 in0.0 mm 0.00 in/hr0.0 mm/hr 0.23 in5.8 mm
06:45 PM 39.1°F3.9°C 18.0°F-7.8°C 42% 5.0 mph ESE8.0 kmh ESE 13.0 mph20.9 kmh 29.94 in1013.9 mb 0.00 in0.0 mm 0.00 in/hr0.0 mm/hr 0.23 in5.8 mm
06:44 PM 39.1°F3.9°C 18.5°F-7.5°C 43% 7.0 mph E11.3 kmh E 13.0 mph20.9 kmh 29.94 in1013.9 mb 0.00 in0.0 mm 0.00 in/hr0.0 mm/hr 0.23 in5.8 mm
06:43 PM 39.1°F3.9°C 18.0°F-7.8°C 42% 3.0 mph SSW4.8 kmh SSW 13.0 mph20.9 kmh 29.93 in1013.5 mb 0.00 in0.0 mm 0.00 in/hr0.0 mm/hr 0.23 in5.8 mm
06:42 PM 39.1°F3.9°C 18.0°F-7.8°C 42% 5.0 mph SE8.0 kmh SE 13.0 mph20.9 kmh 29.93 in1013.5 mb 0.00 in0.0 mm 0.00 in/hr0.0 mm/hr 0.23 in5.8 mm
06:41 PM 39.1°F3.9°C 18.5°F-7.5°C 43% 7.0 mph E11.3 kmh E 13.0 mph20.9 kmh 29.93 in1013.5 mb 0.00 in0.0 mm 0.00 in/hr0.0 mm/hr 0.23 in5.8 mm
06:40 PM 39.1°F3.9°C 18.5°F-7.5°C 43% 3.0 mph SSE4.8 kmh SSE 13.0 mph20.9 kmh 29.93 in1013.5 mb 0.00 in0.0 mm 0.00 in/hr0.0 mm/hr 0.23 in5.8 mm
06:39 PM 39.1°F3.9°C 19.0°F-7.2°C 44% 6.0 mph E9.7 kmh E 13.0 mph20.9 kmh 29.93 in1013.5 mb 0.00 in0.0 mm 0.00 in/hr0.0 mm/hr 0.23 in5.8 mm
06:38 PM 39.1°F3.9°C 19.0°F-7.2°C 44% 4.0 mph SE6.4 kmh SE 13.0 mph20.9 kmh 29.93 in1013.5 mb 0.00 in0.0 mm 0.00 in/hr0.0 mm/hr 0.23 in5.8 mm
06:37 PM 39.1°F3.9°C 18.5°F-7.5°C 43% 1.0 mph SE1.6 kmh SE 13.0 mph20.9 kmh 29.93 in1013.5 mb 0.00 in0.0 mm 0.00 in/hr0.0 mm/hr 0.23 in5.8 mm
06:36 PM 39.2°F4.0°C 18.6°F-7.4°C 43% 1.0 mph SSE1.6 kmh SSE 13.0 mph20.9 kmh 29.93 in1013.5 mb 0.00 in0.0 mm 0.00 in/hr0.0 mm/hr 0.23 in5.8 mm
06:35 PM 39.2°F4.0°C 18.6°F-7.4°C 43% 11.0 mph SE17.7 kmh SE 13.0 mph20.9 kmh 29.93 in1013.5 mb 0.00 in0.0 mm 0.00 in/hr0.0 mm/hr 0.23 in5.8 mm
06:34 PM 39.2°F4.0°C 18.6°F-7.4°C 43% 9.0 mph ESE14.5 kmh ESE 13.0 mph20.9 kmh 29.93 in1013.5 mb 0.00 in0.0 mm 0.00 in/hr0.0 mm/hr 0.23 in5.8 mm
06:33 PM 39.2°F4.0°C 18.6°F-7.4°C 43% 7.0 mph SE11.3 kmh SE 13.0 mph20.9 kmh 29.93 in1013.5 mb 0.00 in0.0 mm 0.00 in/hr0.0 mm/hr 0.23 in5.8 mm
06:32 PM 39.2°F4.0°C 19.7°F-6.8°C 45% 9.0 mph E14.5 kmh E 11.0 mph17.7 kmh 29.94 in1013.9 mb 0.00 in0.0 mm 0.00 in/hr0.0 mm/hr 0.23 in5.8 mm
06:31 PM 39.2°F4.0°C 19.1°F-7.2°C 44% Calm Calm 12.0 mph19.3 kmh 29.93 in1013.5 mb 0.00 in0.0 mm 0.00 in/hr0.0 mm/hr 0.23 in5.8 mm
06:30 PM 39.3°F4.1°C 19.2°F-7.1°C 44% 4.0 mph ESE6.4 kmh ESE 12.0 mph19.3 kmh 29.93 in1013.5 mb 0.00 in0.0 mm 0.00 in/hr0.0 mm/hr 0.23 in5.8 mm
06:29 PM 39.3°F4.1°C 19.2°F-7.1°C 44% 1.0 mph SE1.6 kmh SE 12.0 mph19.3 kmh 29.93 in1013.5 mb 0.00 in0.0 mm 0.00 in/hr0.0 mm/hr 0.23 in5.8 mm
06:28 PM 39.3°F4.1°C 18.7°F-7.4°C 43% 3.0 mph SSE4.8 kmh SSE 12.0 mph19.3 kmh 29.93 in1013.5 mb 0.00 in0.0 mm 0.00 in/hr0.0 mm/hr 0.23 in5.8 mm
06:27 PM 39.2°F4.0°C 18.6°F-7.4°C 43% 2.0 mph E3.2 kmh E 12.0 mph19.3 kmh 29.93 in1013.5 mb 0.00 in0.0 mm 0.00 in/hr0.0 mm/hr 0.23 in5.8 mm
06:26 PM 39.2°F4.0°C 18.6°F-7.4°C 43% 4.0 mph ESE6.4 kmh ESE 12.0 mph19.3 kmh 29.93 in1013.5 mb 0.00 in0.0 mm 0.00 in/hr0.0 mm/hr 0.23 in5.8 mm
06:25 PM 39.2°F4.0°C 19.1°F-7.2°C 44% 2.0 mph SE3.2 kmh SE 12.0 mph19.3 kmh 29.93 in1013.5 mb 0.00 in0.0 mm 0.00 in/hr0.0 mm/hr 0.23 in5.8 mm
06:24 PM 39.2°F4.0°C 19.1°F-7.2°C 44% 7.0 mph ESE11.3 kmh ESE 12.0 mph19.3 kmh 29.93 in1013.5 mb 0.00 in0.0 mm 0.00 in/hr0.0 mm/hr 0.23 in5.8 mm
06:23 PM 39.2°F4.0°C 20.2°F-6.6°C 46% 7.0 mph S11.3 kmh S 12.0 mph19.3 kmh 29.93 in1013.5 mb 0.00 in0.0 mm 0.00 in/hr0.0 mm/hr 0.23 in5.8 mm
06:22 PM 39.2°F4.0°C 20.2°F-6.6°C 46% 10.0 mph E16.1 kmh E 10.0 mph16.1 kmh 29.93 in1013.5 mb 0.00 in0.0 mm 0.00 in/hr0.0 mm/hr 0.23 in5.8 mm
06:21 PM 39.2°F4.0°C 20.2°F-6.6°C 46% 4.0 mph SSE6.4 kmh SSE 10.0 mph16.1 kmh 29.93 in1013.5 mb 0.00 in0.0 mm 0.00 in/hr0.0 mm/hr 0.23 in5.8 mm
06:20 PM 39.2°F4.0°C 19.7°F-6.8°C 45% 4.0 mph SSE6.4 kmh SSE 10.0 mph16.1 kmh 29.93 in1013.5 mb 0.00 in0.0 mm 0.00 in/hr0.0 mm/hr 0.23 in5.8 mm
06:19 PM 39.2°F4.0°C 19.7°F-6.8°C 45% 7.0 mph SSW11.3 kmh SSW 10.0 mph16.1 kmh 29.92 in1013.2 mb 0.00 in0.0 mm 0.00 in/hr0.0 mm/hr 0.23 in5.8 mm
06:18 PM 39.3°F4.1°C 20.8°F-6.2°C 47% 6.0 mph S9.7 kmh S 8.0 mph12.9 kmh 29.92 in1013.2 mb 0.00 in0.0 mm 0.00 in/hr0.0 mm/hr 0.23 in5.8 mm
06:17 PM 39.3°F4.1°C 20.8°F-6.2°C 47% 7.0 mph S11.3 kmh S 8.0 mph12.9 kmh 29.92 in1013.2 mb 0.00 in0.0 mm 0.00 in/hr0.0 mm/hr 0.23 in5.8 mm
06:16 PM 39.3°F4.1°C 20.8°F-6.2°C 47% 5.0 mph S8.0 kmh S 8.0 mph12.9 kmh 29.92 in1013.2 mb 0.00 in0.0 mm 0.00 in/hr0.0 mm/hr 0.23 in5.8 mm
06:15 PM 39.4°F4.1°C 20.9°F-6.2°C 47% 4.0 mph SSW6.4 kmh SSW 8.0 mph12.9 kmh 29.92 in1013.2 mb 0.00 in0.0 mm 0.00 in/hr0.0 mm/hr 0.23 in5.8 mm
06:14 PM 39.5°F4.2°C 21.0°F-6.1°C 47% 3.0 mph S4.8 kmh S 8.0 mph12.9 kmh 29.92 in1013.2 mb 0.00 in0.0 mm 0.00 in/hr0.0 mm/hr 0.23 in5.8 mm
06:13 PM 39.5°F4.2°C 20.5°F-6.4°C 46% 3.0 mph SSE4.8 kmh SSE 8.0 mph12.9 kmh 29.92 in1013.2 mb 0.00 in0.0 mm 0.00 in/hr0.0 mm/hr 0.23 in5.8 mm
06:12 PM 39.5°F4.2°C 19.9°F-6.7°C 45% 5.0 mph SSE8.0 kmh SSE 8.0 mph12.9 kmh 29.92 in1013.2 mb 0.00 in0.0 mm 0.00 in/hr0.0 mm/hr 0.23 in5.8 mm
06:11 PM 39.5°F4.2°C 19.9°F-6.7°C 45% 4.0 mph SSW6.4 kmh SSW 8.0 mph12.9 kmh 29.92 in1013.2 mb 0.00 in0.0 mm 0.00 in/hr0.0 mm/hr 0.23 in5.8 mm
06:10 PM 39.6°F4.2°C 20.0°F-6.7°C 45% 4.0 mph ESE6.4 kmh ESE 8.0 mph12.9 kmh 29.92 in1013.2 mb 0.00 in0.0 mm 0.00 in/hr0.0 mm/hr 0.23 in5.8 mm
06:09 PM 39.6°F4.2°C 19.5°F-6.9°C 44% 7.0 mph S11.3 kmh S 8.0 mph12.9 kmh 29.92 in1013.2 mb 0.00 in0.0 mm 0.00 in/hr0.0 mm/hr 0.23 in5.8 mm
06:08 PM 39.6°F4.2°C 19.0°F-7.2°C 43% 6.0 mph SW9.7 kmh SW 8.0 mph12.9 kmh 29.92 in1013.2 mb 0.00 in0.0 mm 0.00 in/hr0.0 mm/hr 0.23 in5.8 mm
06:07 PM 39.6°F4.2°C 19.5°F-6.9°C 44% 3.0 mph S4.8 kmh S 7.0 mph11.3 kmh 29.92 in1013.2 mb 0.00 in0.0 mm 0.00 in/hr0.0 mm/hr 0.23 in5.8 mm
06:06 PM 39.7°F4.3°C 19.1°F-7.2°C 43% 2.0 mph SSE3.2 kmh SSE 7.0 mph11.3 kmh 29.92 in1013.2 mb 0.00 in0.0 mm 0.00 in/hr0.0 mm/hr 0.23 in5.8 mm
06:05 PM 39.7°F4.3°C 18.5°F-7.5°C 42% 2.0 mph S3.2 kmh S 7.0 mph11.3 kmh 29.92 in1013.2 mb 0.00 in0.0 mm 0.00 in/hr0.0 mm/hr 0.23 in5.8 mm
06:04 PM 39.8°F4.3°C 19.1°F-7.2°C 43% 1.0 mph WSW1.6 kmh WSW 7.0 mph11.3 kmh 29.92 in1013.2 mb 0.00 in0.0 mm 0.00 in/hr0.0 mm/hr 0.23 in5.8 mm
06:03 PM 39.8°F4.3°C 18.6°F-7.4°C 42% 5.0 mph SE8.0 kmh SE 7.0 mph11.3 kmh 29.92 in1013.2 mb 0.00 in0.0 mm 0.00 in/hr0.0 mm/hr 0.23 in5.8 mm
06:02 PM 39.8°F4.3°C 18.0°F-7.8°C 41% 5.0 mph SE8.0 kmh SE 7.0 mph11.3 kmh 29.92 in1013.2 mb 0.00 in0.0 mm 0.00 in/hr0.0 mm/hr 0.23 in5.8 mm
06:01 PM 39.9°F4.4°C 18.1°F-7.7°C 41% 8.0 mph SE12.9 kmh SE 9.0 mph14.5 kmh 29.92 in1013.2 mb 0.00 in0.0 mm 0.00 in/hr0.0 mm/hr 0.23 in5.8 mm
06:00 PM 39.9°F4.4°C 17.6°F-8.0°C 40% 4.0 mph S6.4 kmh S 9.0 mph14.5 kmh 29.92 in1013.2 mb 0.00 in0.0 mm 0.00 in/hr0.0 mm/hr 0.23 in5.8 mm
05:59 PM 39.9°F4.4°C 17.0°F-8.3°C 39% 6.0 mph SE9.7 kmh SE 9.0 mph14.5 kmh 29.92 in1013.2 mb 0.00 in0.0 mm 0.00 in/hr0.0 mm/hr 0.23 in5.8 mm
05:58 PM 39.9°F4.4°C 17.6°F-8.0°C 40% 3.0 mph ESE4.8 kmh ESE 9.0 mph14.5 kmh 29.92 in1013.2 mb 0.00 in0.0 mm 0.00 in/hr0.0 mm/hr 0.23 in5.8 mm
05:57 PM 39.9°F4.4°C 17.0°F-8.3°C 39% 3.0 mph SE4.8 kmh SE 9.0 mph14.5 kmh 29.92 in1013.2 mb 0.00 in0.0 mm 0.00 in/hr0.0 mm/hr 0.23 in5.8 mm
05:56 PM 39.9°F4.4°C 17.0°F-8.3°C 39% 5.0 mph S8.0 kmh S 9.0 mph14.5 kmh 29.92 in1013.2 mb 0.00 in0.0 mm 0.00 in/hr0.0 mm/hr 0.23 in5.8 mm
05:55 PM 40.0°F4.4°C 16.5°F-8.6°C 38% 3.0 mph SSE4.8 kmh SSE 9.0 mph14.5 kmh 29.92 in1013.2 mb 0.00 in0.0 mm 0.00 in/hr0.0 mm/hr 0.23 in5.8 mm
05:54 PM 40.0°F4.4°C 15.9°F-8.9°C 37% 9.0 mph SSE14.5 kmh SSE 9.0 mph14.5 kmh 29.91 in1012.9 mb 0.00 in0.0 mm 0.00 in/hr0.0 mm/hr 0.23 in5.8 mm
05:53 PM 40.0°F4.4°C 15.9°F-8.9°C 37% 6.0 mph SSW9.7 kmh SSW 8.0 mph12.9 kmh 29.91 in1012.9 mb 0.00 in0.0 mm 0.00 in/hr0.0 mm/hr 0.23 in5.8 mm
05:52 PM 40.1°F4.5°C 15.3°F-9.3°C 36% 4.0 mph SSE6.4 kmh SSE 8.0 mph12.9 kmh 29.91 in1012.9 mb 0.00 in0.0 mm 0.00 in/hr0.0 mm/hr 0.23 in5.8 mm
05:51 PM 40.1°F4.5°C 14.7°F-9.6°C 35% 2.0 mph SE3.2 kmh SE 8.0 mph12.9 kmh 29.91 in1012.9 mb 0.00 in0.0 mm 0.00 in/hr0.0 mm/hr 0.23 in5.8 mm
05:50 PM 40.2°F4.6°C 14.1°F-9.9°C 34% 2.0 mph SW3.2 kmh SW 8.0 mph12.9 kmh 29.91 in1012.9 mb 0.00 in0.0 mm 0.00 in/hr0.0 mm/hr 0.23 in5.8 mm
05:49 PM 40.3°F4.6°C 14.2°F-9.9°C 34% 1.0 mph WSW1.6 kmh WSW 8.0 mph12.9 kmh 29.91 in1012.9 mb 0.00 in0.0 mm 0.00 in/hr0.0 mm/hr 0.23 in5.8 mm
05:48 PM 40.3°F4.6°C 14.2°F-9.9°C 34% 3.0 mph SSE4.8 kmh SSE 8.0 mph12.9 kmh 29.91 in1012.9 mb 0.00 in0.0 mm 0.00 in/hr0.0 mm/hr 0.23 in5.8 mm
05:47 PM 40.4°F4.7°C 13.6°F-10.2°C 33% 3.0 mph SE4.8 kmh SE 8.0 mph12.9 kmh 29.91 in1012.9 mb 0.00 in0.0 mm 0.00 in/hr0.0 mm/hr 0.23 in5.8 mm
05:46 PM 40.4°F4.7°C 13.6°F-10.2°C 33% 1.0 mph SSE1.6 kmh SSE 8.0 mph12.9 kmh 29.91 in1012.9 mb 0.00 in0.0 mm 0.00 in/hr0.0 mm/hr 0.23 in5.8 mm
05:45 PM 40.5°F4.7°C 14.4°F-9.8°C 34% 5.0 mph SE8.0 kmh SE 8.0 mph12.9 kmh 29.91 in1012.9 mb 0.00 in0.0 mm 0.00 in/hr0.0 mm/hr 0.23 in5.8 mm
05:44 PM 40.6°F4.8°C 13.8°F-10.1°C 33% 2.0 mph SE3.2 kmh SE 8.0 mph12.9 kmh 29.91 in1012.9 mb 0.00 in0.0 mm 0.00 in/hr0.0 mm/hr 0.23 in5.8 mm
05:43 PM 40.6°F4.8°C 13.8°F-10.1°C 33% 4.0 mph E6.4 kmh E 8.0 mph12.9 kmh 29.91 in1012.9 mb 0.00 in0.0 mm 0.00 in/hr0.0 mm/hr 0.23 in5.8 mm
05:42 PM 40.6°F4.8°C 13.8°F-10.1°C 33% 2.0 mph ESE3.2 kmh ESE 8.0 mph12.9 kmh 29.91 in1012.9 mb 0.00 in0.0 mm 0.00 in/hr0.0 mm/hr 0.23 in5.8 mm
05:41 PM 40.6°F4.8°C 13.8°F-10.1°C 33% 4.0 mph ESE6.4 kmh ESE 8.0 mph12.9 kmh 29.91 in1012.9 mb 0.00 in0.0 mm 0.00 in/hr0.0 mm/hr 0.23 in5.8 mm
05:40 PM 40.6°F4.8°C 13.1°F-10.5°C 32% 4.0 mph SE6.4 kmh SE 8.0 mph12.9 kmh 29.91 in1012.9 mb 0.00 in0.0 mm 0.00 in/hr0.0 mm/hr 0.23 in5.8 mm
05:39 PM 40.6°F4.8°C 13.8°F-10.1°C 33% 3.0 mph SSE4.8 kmh SSE 8.0 mph12.9 kmh 29.91 in1012.9 mb 0.00 in0.0 mm 0.00 in/hr0.0 mm/hr 0.23 in5.8 mm
05:38 PM 40.7°F4.8°C 13.2°F-10.4°C 32% 1.0 mph SE1.6 kmh SE 8.0 mph12.9 kmh 29.91 in1012.9 mb 0.00 in0.0 mm 0.00 in/hr0.0 mm/hr 0.23 in5.8 mm
05:37 PM 40.7°F4.8°C 13.2°F-10.4°C 32% 1.0 mph S1.6 kmh S 8.0 mph12.9 kmh 29.91 in1012.9 mb 0.00 in0.0 mm 0.00 in/hr0.0 mm/hr 0.23 in5.8 mm
05:36 PM 40.8°F4.9°C 13.9°F-10.1°C 33% 1.0 mph W1.6 kmh W 8.0 mph12.9 kmh 29.91 in1012.9 mb 0.00 in0.0 mm 0.00 in/hr0.0 mm/hr 0.23 in5.8 mm
05:35 PM 40.8°F4.9°C 13.2°F-10.4°C 32% 4.0 mph SSE6.4 kmh SSE 8.0 mph12.9 kmh 29.91 in1012.9 mb 0.00 in0.0 mm 0.00 in/hr0.0 mm/hr 0.23 in5.8 mm
05:34 PM 40.9°F4.9°C 14.0°F-10.0°C 33% 5.0 mph SE8.0 kmh SE 8.0 mph12.9 kmh 29.91 in1012.9 mb 0.00 in0.0 mm 0.00 in/hr0.0 mm/hr 0.23 in5.8 mm
05:33 PM 40.9°F4.9°C 14.0°F-10.0°C 33% 5.0 mph SE8.0 kmh SE 6.0 mph9.7 kmh 29.91 in1012.9 mb 0.00 in0.0 mm 0.00 in/hr0.0 mm/hr 0.23 in5.8 mm
05:32 PM 40.9°F4.9°C 13.3°F-10.4°C 32% 1.0 mph SSE1.6 kmh SSE 1.0 mph1.6 kmh 29.91 in1012.9 mb 0.00 in0.0 mm 0.00 in/hr0.0 mm/hr 0.23 in5.8 mm
05:31 PM 41.0°F5.0°C 14.1°F-9.9°C 33% 3.0 mph S4.8 kmh S 11.0 mph17.7 kmh 29.91 in1012.9 mb 0.00 in0.0 mm 0.00 in/hr0.0 mm/hr 0.23 in5.8 mm
05:30 PM 41.0°F5.0°C 13.4°F-10.3°C 32% 2.0 mph ESE3.2 kmh ESE 11.0 mph17.7 kmh 29.91 in1012.9 mb 0.00 in0.0 mm 0.00 in/hr0.0 mm/hr 0.23 in5.8 mm
05:29 PM 41.1°F5.1°C 14.2°F-9.9°C 33% 8.0 mph ESE12.9 kmh ESE 11.0 mph17.7 kmh 29.91 in1012.9 mb 0.00 in0.0 mm 0.00 in/hr0.0 mm/hr 0.23 in5.8 mm
05:28 PM 41.1°F5.1°C 15.6°F-9.1°C 35% 5.0 mph ESE8.0 kmh ESE 11.0 mph17.7 kmh 29.91 in1012.9 mb 0.00 in0.0 mm 0.00 in/hr0.0 mm/hr 0.23 in5.8 mm
05:27 PM 41.2°F5.1°C 15.0°F-9.4°C 34% 2.0 mph SE3.2 kmh SE 11.0 mph17.7 kmh 29.91 in1012.9 mb 0.00 in0.0 mm 0.00 in/hr0.0 mm/hr 0.23 in5.8 mm
05:26 PM 41.2°F5.1°C 14.3°F-9.8°C 33% 6.0 mph ESE9.7 kmh ESE 11.0 mph17.7 kmh 29.91 in1012.9 mb 0.00 in0.0 mm 0.00 in/hr0.0 mm/hr 0.23 in5.8 mm
05:25 PM 41.2°F5.1°C 14.3°F-9.8°C 33% 6.0 mph SE9.7 kmh SE 11.0 mph17.7 kmh 29.91 in1012.9 mb 0.00 in0.0 mm 0.00 in/hr0.0 mm/hr 0.23 in5.8 mm
05:24 PM 41.3°F5.2°C 15.7°F-9.1°C 35% 10.0 mph ESE16.1 kmh ESE 11.0 mph17.7 kmh 29.91 in1012.9 mb 0.00 in0.0 mm 0.00 in/hr0.0 mm/hr 0.23 in5.8 mm
05:23 PM 41.4°F5.2°C 15.2°F-9.3°C 34% 2.0 mph SE3.2 kmh SE 11.0 mph17.7 kmh 29.91 in1012.9 mb 0.00 in0.0 mm 0.00 in/hr0.0 mm/hr 0.23 in5.8 mm
05:22 PM 41.4°F5.2°C 13.8°F-10.1°C 32% 1.0 mph SSE1.6 kmh SSE 11.0 mph17.7 kmh 29.91 in1012.9 mb 0.00 in0.0 mm 0.00 in/hr0.0 mm/hr 0.23 in5.8 mm
05:21 PM 41.4°F5.2°C 13.8°F-10.1°C 32% 4.0 mph NE6.4 kmh NE 11.0 mph17.7 kmh 29.91 in1012.9 mb 0.00 in0.0 mm 0.00 in/hr0.0 mm/hr 0.23 in5.8 mm
05:20 PM 41.5°F5.3°C 14.6°F-9.7°C 33% 3.0 mph ESE4.8 kmh ESE 11.0 mph17.7 kmh 29.91 in1012.9 mb 0.00 in0.0 mm 0.00 in/hr0.0 mm/hr 0.23 in5.8 mm
05:19 PM 41.5°F5.3°C 15.2°F-9.3°C 34% 5.0 mph S8.0 kmh S 11.0 mph17.7 kmh 29.91 in1012.9 mb 0.00 in0.0 mm 0.00 in/hr0.0 mm/hr 0.23 in5.8 mm
05:18 PM 41.6°F5.3°C 15.3°F-9.3°C 34% Calm Calm 11.0 mph17.7 kmh 29.91 in1012.9 mb 0.00 in0.0 mm 0.00 in/hr0.0 mm/hr 0.23 in5.8 mm
05:17 PM 41.7°F5.4°C 15.4°F-9.2°C 34% 3.0 mph SE4.8 kmh SE 11.0 mph17.7 kmh 29.91 in1012.9 mb 0.00 in0.0 mm 0.00 in/hr0.0 mm/hr 0.23 in5.8 mm
05:16 PM 41.7°F5.4°C 14.7°F-9.6°C 33% Calm Calm 11.0 mph17.7 kmh 29.91 in1012.9 mb 0.00 in0.0 mm 0.00 in/hr0.0 mm/hr 0.23 in5.8 mm
05:15 PM 41.8°F5.4°C 14.8°F-9.6°C 33% 4.0 mph ESE6.4 kmh ESE 11.0 mph17.7 kmh 29.91 in1012.9 mb 0.00 in0.0 mm 0.00 in/hr0.0 mm/hr 0.23 in5.8 mm
05:14 PM 41.8°F5.4°C 14.8°F-9.6°C 33% 3.0 mph SE4.8 kmh SE 11.0 mph17.7 kmh 29.91 in1012.9 mb 0.00 in0.0 mm 0.00 in/hr0.0 mm/hr 0.23 in5.8 mm
05:13 PM 41.9°F5.5°C 14.9°F-9.5°C 33% 6.0 mph ESE9.7 kmh ESE 11.0 mph17.7 kmh 29.91 in1012.9 mb 0.00 in0.0 mm 0.00 in/hr0.0 mm/hr 0.23 in5.8 mm
05:12 PM 41.9°F5.5°C 17.5°F-8.1°C 37% 9.0 mph E14.5 kmh E 11.0 mph17.7 kmh 29.91 in1012.9 mb 0.00 in0.0 mm 0.00 in/hr0.0 mm/hr 0.23 in5.8 mm
05:11 PM 42.0°F5.6°C 16.4°F-8.7°C 35% 1.0 mph SE1.6 kmh SE 11.0 mph17.7 kmh 29.91 in1012.9 mb 0.00 in0.0 mm 0.00 in/hr0.0 mm/hr 0.23 in5.8 mm
05:10 PM 42.1°F5.6°C 17.1°F-8.3°C 36% 2.0 mph E3.2 kmh E 11.0 mph17.7 kmh 29.91 in1012.9 mb 0.00 in0.0 mm 0.00 in/hr0.0 mm/hr 0.23 in5.8 mm
05:09 PM 42.2°F5.7°C 17.2°F-8.2°C 36% 4.0 mph E6.4 kmh E 11.0 mph17.7 kmh 29.91 in1012.9 mb 0.00 in0.0 mm 0.00 in/hr0.0 mm/hr 0.23 in5.8 mm
05:08 PM 42.2°F5.7°C 15.9°F-8.9°C 34% 1.0 mph ENE1.6 kmh ENE 11.0 mph17.7 kmh 29.91 in1012.9 mb 0.00 in0.0 mm 0.00 in/hr0.0 mm/hr 0.23 in5.8 mm
05:07 PM 42.3°F5.7°C 17.9°F-7.8°C 37% 5.0 mph SSE8.0 kmh SSE 11.0 mph17.7 kmh 29.91 in1012.9 mb 0.00 in0.0 mm 0.00 in/hr0.0 mm/hr 0.23 in5.8 mm
05:06 PM 42.4°F5.8°C 16.0°F-8.9°C 34% 7.0 mph ESE11.3 kmh ESE 11.0 mph17.7 kmh 29.91 in1012.9 mb 0.00 in0.0 mm 0.00 in/hr0.0 mm/hr 0.23 in5.8 mm
05:05 PM 42.5°F5.8°C 17.4°F-8.1°C 36% 4.0 mph S6.4 kmh S 11.0 mph17.7 kmh 29.91 in1012.9 mb 0.00 in0.0 mm 0.00 in/hr0.0 mm/hr 0.23 in5.8 mm
05:04 PM 42.5°F5.8°C 16.8°F-8.4°C 35% 5.0 mph SSE8.0 kmh SSE 11.0 mph17.7 kmh 29.91 in1012.9 mb 0.00 in0.0 mm 0.00 in/hr0.0 mm/hr 0.23 in5.8 mm
05:03 PM 42.6°F5.9°C 16.9°F-8.4°C 35% 4.0 mph SSE6.4 kmh SSE 11.0 mph17.7 kmh 29.91 in1012.9 mb 0.00 in0.0 mm 0.00 in/hr0.0 mm/hr 0.23 in5.8 mm
05:02 PM 42.7°F5.9°C 17.0°F-8.3°C 35% 6.0 mph ESE9.7 kmh ESE 8.0 mph12.9 kmh 29.91 in1012.9 mb 0.00 in0.0 mm 0.00 in/hr0.0 mm/hr 0.23 in5.8 mm
05:01 PM 42.8°F6.0°C 17.7°F-7.9°C 36% 12.0 mph E19.3 kmh E 14.0 mph22.5 kmh 29.91 in1012.9 mb 0.00 in0.0 mm 0.00 in/hr0.0 mm/hr 0.23 in5.8 mm
05:00 PM 42.8°F6.0°C 17.1°F-8.3°C 35% 10.0 mph ESE16.1 kmh ESE 14.0 mph22.5 kmh 29.91 in1012.9 mb 0.00 in0.0 mm 0.00 in/hr0.0 mm/hr 0.23 in5.8 mm
04:59 PM 42.9°F6.1°C 17.8°F-7.9°C 36% 11.0 mph E17.7 kmh E 14.0 mph22.5 kmh 29.91 in1012.9 mb 0.00 in0.0 mm 0.00 in/hr0.0 mm/hr 0.23 in5.8 mm
04:58 PM 43.0°F6.1°C 18.5°F-7.5°C 37% 8.0 mph SE12.9 kmh SE 14.0 mph22.5 kmh 29.91 in1012.9 mb 0.00 in0.0 mm 0.00 in/hr0.0 mm/hr 0.23 in5.8 mm
04:57 PM 43.1°F6.2°C 17.3°F-8.2°C 35% 10.0 mph E16.1 kmh E 14.0 mph22.5 kmh 29.91 in1012.9 mb 0.00 in0.0 mm 0.00 in/hr0.0 mm/hr 0.23 in5.8 mm
04:56 PM 43.1°F6.2°C 17.3°F-8.2°C 35% 11.0 mph ESE17.7 kmh ESE 13.0 mph20.9 kmh 29.91 in1012.9 mb 0.00 in0.0 mm 0.00 in/hr0.0 mm/hr 0.23 in5.8 mm
04:55 PM 43.3°F6.3°C 19.4°F-7.0°C 38% 11.0 mph SE17.7 kmh SE 13.0 mph20.9 kmh 29.91 in1012.9 mb 0.00 in0.0 mm 0.00 in/hr0.0 mm/hr 0.23 in5.8 mm
04:54 PM 43.4°F6.3°C 20.1°F-6.6°C 39% 3.0 mph SE4.8 kmh SE 13.0 mph20.9 kmh 29.90 in1012.5 mb 0.00 in0.0 mm 0.00 in/hr0.0 mm/hr 0.23 in5.8 mm
04:53 PM 43.5°F6.4°C 19.0°F-7.2°C 37% 7.0 mph SE11.3 kmh SE 13.0 mph20.9 kmh 29.90 in1012.5 mb 0.00 in0.0 mm 0.00 in/hr0.0 mm/hr 0.23 in5.8 mm
04:52 PM 43.7°F6.5°C 21.6°F-5.8°C 41% 10.0 mph ESE16.1 kmh ESE 13.0 mph20.9 kmh 29.91 in1012.9 mb 0.00 in0.0 mm 0.00 in/hr0.0 mm/hr 0.23 in5.8 mm
04:51 PM 43.9°F6.6°C 20.6°F-6.3°C 39% 5.0 mph S8.0 kmh S 13.0 mph20.9 kmh 29.90 in1012.5 mb 0.00 in0.0 mm 0.00 in/hr0.0 mm/hr 0.23 in5.8 mm
04:50 PM 44.0°F6.7°C 20.7°F-6.3°C 39% 7.0 mph SE11.3 kmh SE 13.0 mph20.9 kmh 29.90 in1012.5 mb 0.00 in0.0 mm 0.00 in/hr0.0 mm/hr 0.23 in5.8 mm
04:49 PM 44.3°F6.8°C 20.9°F-6.2°C 39% 5.0 mph SE8.0 kmh SE 13.0 mph20.9 kmh 29.90 in1012.5 mb 0.00 in0.0 mm 0.00 in/hr0.0 mm/hr 0.23 in5.8 mm
04:48 PM 44.5°F6.9°C 21.7°F-5.7°C 40% 10.0 mph SE16.1 kmh SE 12.0 mph19.3 kmh 29.90 in1012.5 mb 0.00 in0.0 mm 0.00 in/hr0.0 mm/hr 0.23 in5.8 mm
04:47 PM 44.7°F7.1°C 22.5°F-5.3°C 41% 7.0 mph SE11.3 kmh SE 11.0 mph17.7 kmh 29.90 in1012.5 mb 0.00 in0.0 mm 0.00 in/hr0.0 mm/hr 0.23 in5.8 mm
04:46 PM 44.9°F7.2°C 22.6°F-5.2°C 41% 6.0 mph ESE9.7 kmh ESE 11.0 mph17.7 kmh 29.90 in1012.5 mb 0.00 in0.0 mm 0.00 in/hr0.0 mm/hr 0.23 in5.8 mm
04:45 PM 45.1°F7.3°C 22.8°F-5.1°C 41% 9.0 mph SE14.5 kmh SE 11.0 mph17.7 kmh 29.90 in1012.5 mb 0.00 in0.0 mm 0.00 in/hr0.0 mm/hr 0.23 in5.8 mm
04:44 PM 45.4°F7.4°C 23.7°F-4.6°C 42% 6.0 mph SE9.7 kmh SE 10.0 mph16.1 kmh 29.90 in1012.5 mb 0.00 in0.0 mm 0.00 in/hr0.0 mm/hr 0.23 in5.8 mm
04:43 PM 45.6°F7.6°C 23.3°F-4.8°C 41% 4.0 mph ESE6.4 kmh ESE 10.0 mph16.1 kmh 29.90 in1012.5 mb 0.00 in0.0 mm 0.00 in/hr0.0 mm/hr 0.23 in5.8 mm
04:42 PM 45.8°F7.7°C 25.1°F-3.8°C 44% 5.0 mph SE8.0 kmh SE 10.0 mph16.1 kmh 29.90 in1012.5 mb 0.00 in0.0 mm 0.00 in/hr0.0 mm/hr 0.23 in5.8 mm
04:41 PM 45.9°F7.7°C 25.8°F-3.4°C 45% 4.0 mph E6.4 kmh E 9.0 mph14.5 kmh 29.90 in1012.5 mb 0.00 in0.0 mm 0.00 in/hr0.0 mm/hr 0.23 in5.8 mm
04:40 PM 46.0°F7.8°C 25.3°F-3.7°C 44% 5.0 mph ENE8.0 kmh ENE 9.0 mph14.5 kmh 29.90 in1012.5 mb 0.00 in0.0 mm 0.00 in/hr0.0 mm/hr 0.23 in5.8 mm
04:39 PM 46.1°F7.8°C 26.0°F-3.3°C 45% 3.0 mph SE4.8 kmh SE 9.0 mph14.5 kmh 29.90 in1012.5 mb 0.00 in0.0 mm 0.00 in/hr0.0 mm/hr 0.23 in5.8 mm
04:38 PM 46.2°F7.9°C 25.5°F-3.6°C 44% Calm Calm 9.0 mph14.5 kmh 29.90 in1012.5 mb 0.00 in0.0 mm 0.00 in/hr0.0 mm/hr 0.23 in5.8 mm
04:37 PM 46.4°F8.0°C 27.3°F-2.6°C 47% 5.0 mph E8.0 kmh E 9.0 mph14.5 kmh 29.90 in1012.5 mb 0.00 in0.0 mm 0.00 in/hr0.0 mm/hr 0.23 in5.8 mm
04:36 PM 46.6°F8.1°C 28.0°F-2.2°C 48% 4.0 mph ESE6.4 kmh ESE 9.0 mph14.5 kmh 29.90 in1012.5 mb 0.00 in0.0 mm 0.00 in/hr0.0 mm/hr 0.23 in5.8 mm
04:35 PM 46.7°F8.2°C 29.6°F-1.3°C 51% 6.0 mph SSE9.7 kmh SSE 8.0 mph12.9 kmh 29.90 in1012.5 mb 0.00 in0.0 mm 0.00 in/hr0.0 mm/hr 0.23 in5.8 mm
04:34 PM 46.6°F8.1°C 29.0°F-1.7°C 50% 4.0 mph SE6.4 kmh SE 4.0 mph6.4 kmh 29.90 in1012.5 mb 0.00 in0.0 mm 0.00 in/hr0.0 mm/hr 0.23 in5.8 mm
04:33 PM 46.6°F8.1°C 29.5°F-1.4°C 51% 3.0 mph E4.8 kmh E 4.0 mph6.4 kmh 29.90 in1012.5 mb 0.00 in0.0 mm 0.00 in/hr0.0 mm/hr 0.23 in5.8 mm
04:32 PM 46.5°F8.1°C 29.4°F-1.4°C 51% 3.0 mph ESE4.8 kmh ESE 4.0 mph6.4 kmh 29.90 in1012.5 mb 0.00 in0.0 mm 0.00 in/hr0.0 mm/hr 0.23 in5.8 mm
04:31 PM 46.4°F8.0°C 29.3°F-1.5°C 51% 4.0 mph ESE6.4 kmh ESE 10.0 mph16.1 kmh 29.90 in1012.5 mb 0.00 in0.0 mm 0.00 in/hr0.0 mm/hr 0.23 in5.8 mm
04:30 PM 46.4°F8.0°C 29.8°F-1.2°C 52% 3.0 mph SE4.8 kmh SE 10.0 mph16.1 kmh 29.90 in1012.5 mb 0.00 in0.0 mm 0.00 in/hr0.0 mm/hr 0.23 in5.8 mm
04:29 PM 46.3°F7.9°C 29.7°F-1.3°C 52% 3.0 mph SE4.8 kmh SE 10.0 mph16.1 kmh 29.90 in1012.5 mb 0.00 in0.0 mm 0.00 in/hr0.0 mm/hr 0.23 in5.8 mm
04:28 PM 46.2°F7.9°C 30.5°F-0.8°C 54% 2.0 mph SE3.2 kmh SE 10.0 mph16.1 kmh 29.90 in1012.5 mb 0.00 in0.0 mm 0.00 in/hr0.0 mm/hr 0.23 in5.8 mm
04:27 PM 46.1°F7.8°C 29.9°F-1.2°C 53% 3.0 mph SE4.8 kmh SE 10.0 mph16.1 kmh 29.90 in1012.5 mb 0.00 in0.0 mm 0.00 in/hr0.0 mm/hr 0.23 in5.8 mm
04:26 PM 46.1°F7.8°C 29.5°F-1.4°C 52% 3.0 mph ESE4.8 kmh ESE 10.0 mph16.1 kmh 29.90 in1012.5 mb 0.00 in0.0 mm 0.00 in/hr0.0 mm/hr 0.23 in5.8 mm
04:25 PM 46.1°F7.8°C 28.5°F-1.9°C 50% 5.0 mph E8.0 kmh E 10.0 mph16.1 kmh 29.90 in1012.5 mb 0.00 in0.0 mm 0.00 in/hr0.0 mm/hr 0.23 in5.8 mm
04:24 PM 46.2°F7.9°C 28.1°F-2.2°C 49% 5.0 mph E8.0 kmh E 10.0 mph16.1 kmh 29.90 in1012.5 mb 0.00 in0.0 mm 0.00 in/hr0.0 mm/hr 0.23 in5.8 mm
04:23 PM 46.4°F8.0°C 29.3°F-1.5°C 51% 6.0 mph ESE9.7 kmh ESE 10.0 mph16.1 kmh 29.90 in1012.5 mb 0.00 in0.0 mm 0.00 in/hr0.0 mm/hr 0.23 in5.8 mm
04:22 PM 46.4°F8.0°C 29.3°F-1.5°C 51% 5.0 mph SE8.0 kmh SE 10.0 mph16.1 kmh 29.90 in1012.5 mb 0.00 in0.0 mm 0.00 in/hr0.0 mm/hr 0.23 in5.8 mm
04:21 PM 46.5°F8.1°C 29.8°F-1.2°C 52% 3.0 mph SSE4.8 kmh SSE 10.0 mph16.1 kmh 29.90 in1012.5 mb 0.00 in0.0 mm 0.00 in/hr0.0 mm/hr 0.23 in5.8 mm
04:20 PM 46.5°F8.1°C 29.8°F-1.2°C 52% 3.0 mph SE4.8 kmh SE 10.0 mph16.1 kmh 29.90 in1012.5 mb 0.00 in0.0 mm 0.00 in/hr0.0 mm/hr 0.23 in5.8 mm
04:19 PM 46.5°F8.1°C 29.8°F-1.2°C 52% 6.0 mph ESE9.7 kmh ESE 10.0 mph16.1 kmh 29.90 in1012.5 mb 0.00 in0.0 mm 0.00 in/hr0.0 mm/hr 0.23 in5.8 mm
04:18 PM 46.7°F8.2°C 31.0°F-0.6°C 54% 5.0 mph SE8.0 kmh SE 10.0 mph16.1 kmh 29.90 in1012.5 mb 0.00 in0.0 mm 0.00 in/hr0.0 mm/hr 0.23 in5.8 mm
04:17 PM 46.8°F8.2°C 31.1°F-0.5°C 54% 7.0 mph ESE11.3 kmh ESE 10.0 mph16.1 kmh 29.90 in1012.5 mb 0.00 in0.0 mm 0.00 in/hr0.0 mm/hr 0.23 in5.8 mm
04:16 PM 46.9°F8.3°C 31.6°F-0.2°C 55% 8.0 mph ESE12.9 kmh ESE 10.0 mph16.1 kmh 29.90 in1012.5 mb 0.00 in0.0 mm 0.00 in/hr0.0 mm/hr 0.23 in5.8 mm
04:15 PM 47.0°F8.3°C 31.7°F-0.2°C 55% 5.0 mph ESE8.0 kmh ESE 10.0 mph16.1 kmh 29.90 in1012.5 mb 0.00 in0.0 mm 0.00 in/hr0.0 mm/hr 0.23 in5.8 mm
04:14 PM 46.9°F8.3°C 32.5°F0.3°C 57% 3.0 mph ESE4.8 kmh ESE 10.0 mph16.1 kmh 29.90 in1012.5 mb 0.00 in0.0 mm 0.00 in/hr0.0 mm/hr 0.23 in5.8 mm
04:13 PM 46.9°F8.3°C 31.1°F-0.5°C 54% 4.0 mph SE6.4 kmh SE 10.0 mph16.1 kmh 29.90 in1012.5 mb 0.00 in0.0 mm 0.00 in/hr0.0 mm/hr 0.23 in5.8 mm
04:12 PM 47.0°F8.3°C 32.1°F0.1°C 56% 3.0 mph SE4.8 kmh SE 10.0 mph16.1 kmh 29.90 in1012.5 mb 0.00 in0.0 mm 0.00 in/hr0.0 mm/hr 0.23 in5.8 mm
04:11 PM 47.1°F8.4°C 32.2°F0.1°C 56% 5.0 mph SE8.0 kmh SE 10.0 mph16.1 kmh 29.90 in1012.5 mb 0.00 in0.0 mm 0.00 in/hr0.0 mm/hr 0.23 in5.8 mm
04:10 PM 47.0°F8.3°C 33.4°F0.8°C 59% 5.0 mph ESE8.0 kmh ESE 10.0 mph16.1 kmh 29.90 in1012.5 mb 0.00 in0.0 mm 0.00 in/hr0.0 mm/hr 0.23 in5.8 mm
04:09 PM 47.0°F8.3°C 32.6°F0.3°C 57% 6.0 mph E9.7 kmh E 10.0 mph16.1 kmh 29.90 in1012.5 mb 0.00 in0.0 mm 0.00 in/hr0.0 mm/hr 0.23 in5.8 mm
04:08 PM 47.0°F8.3°C 30.8°F-0.7°C 53% 7.0 mph ESE11.3 kmh ESE 10.0 mph16.1 kmh 29.90 in1012.5 mb 0.00 in0.0 mm 0.00 in/hr0.0 mm/hr 0.23 in5.8 mm
04:07 PM 47.0°F8.3°C 30.8°F-0.7°C 53% 6.0 mph E9.7 kmh E 9.0 mph14.5 kmh 29.90 in1012.5 mb 0.00 in0.0 mm 0.00 in/hr0.0 mm/hr 0.23 in5.8 mm
04:06 PM 47.1°F8.4°C 31.8°F-0.1°C 55% 4.0 mph ENE6.4 kmh ENE 9.0 mph14.5 kmh 29.90 in1012.5 mb 0.00 in0.0 mm 0.00 in/hr0.0 mm/hr 0.23 in5.8 mm
04:05 PM 47.2°F8.4°C 31.9°F-0.1°C 55% 3.0 mph ENE4.8 kmh ENE 9.0 mph14.5 kmh 29.90 in1012.5 mb 0.00 in0.0 mm 0.00 in/hr0.0 mm/hr 0.23 in5.8 mm
04:04 PM 47.3°F8.5°C 31.5°F-0.3°C 54% 7.0 mph ESE11.3 kmh ESE 9.0 mph14.5 kmh 29.90 in1012.5 mb 0.00 in0.0 mm 0.00 in/hr0.0 mm/hr 0.23 in5.8 mm
04:03 PM 47.5°F8.6°C 32.2°F0.1°C 55% 6.0 mph E9.7 kmh E 9.0 mph14.5 kmh 29.90 in1012.5 mb 0.00 in0.0 mm 0.00 in/hr0.0 mm/hr 0.23 in5.8 mm
04:02 PM 47.5°F8.6°C 33.0°F0.6°C 57% 4.0 mph E6.4 kmh E 6.0 mph9.7 kmh 29.90 in1012.5 mb 0.00 in0.0 mm 0.00 in/hr0.0 mm/hr 0.23 in5.8 mm
04:01 PM 47.5°F8.6°C 32.6°F0.3°C 56% 8.0 mph E12.9 kmh E 8.0 mph12.9 kmh 29.90 in1012.5 mb 0.00 in0.0 mm 0.00 in/hr0.0 mm/hr 0.23 in5.8 mm
04:00 PM 47.3°F8.5°C 32.4°F0.2°C 56% 5.0 mph ESE8.0 kmh ESE 6.0 mph9.7 kmh 29.90 in1012.5 mb 0.00 in0.0 mm 0.00 in/hr0.0 mm/hr 0.23 in5.8 mm
03:59 PM 47.1°F8.4°C 32.2°F0.1°C 56% 3.0 mph SSE4.8 kmh SSE 6.0 mph9.7 kmh 29.90 in1012.5 mb 0.00 in0.0 mm 0.00 in/hr0.0 mm/hr 0.23 in5.8 mm
03:58 PM 46.9°F8.3°C 32.5°F0.3°C 57% 3.0 mph S4.8 kmh S 6.0 mph9.7 kmh 29.89 in1012.2 mb 0.00 in0.0 mm 0.00 in/hr0.0 mm/hr 0.23 in5.8 mm
03:57 PM 46.7°F8.2°C 33.2°F0.7°C 59% 1.0 mph SSE1.6 kmh SSE 4.0 mph6.4 kmh 29.90 in1012.5 mb 0.00 in0.0 mm 0.00 in/hr0.0 mm/hr 0.23 in5.8 mm
03:56 PM 46.6°F8.1°C 32.6°F0.3°C 58% 2.0 mph S3.2 kmh S 4.0 mph6.4 kmh 29.89 in1012.2 mb 0.00 in0.0 mm 0.00 in/hr0.0 mm/hr 0.23 in5.8 mm
03:55 PM 46.6°F8.1°C 33.1°F0.6°C 59% 3.0 mph SE4.8 kmh SE 4.0 mph6.4 kmh 29.89 in1012.2 mb 0.00 in0.0 mm 0.00 in/hr0.0 mm/hr 0.23 in5.8 mm
03:54 PM 46.8°F8.2°C 32.4°F0.2°C 57% 2.0 mph WSW3.2 kmh WSW 4.0 mph6.4 kmh 29.89 in1012.2 mb 0.00 in0.0 mm 0.00 in/hr0.0 mm/hr 0.23 in5.8 mm
03:53 PM 46.9°F8.3°C 32.9°F0.5°C 58% 4.0 mph WSW6.4 kmh WSW 4.0 mph6.4 kmh 29.89 in1012.2 mb 0.00 in0.0 mm 0.00 in/hr0.0 mm/hr 0.23 in5.8 mm
03:52 PM 47.0°F8.3°C 32.6°F0.3°C 57% Calm Calm 3.0 mph4.8 kmh 29.89 in1012.2 mb 0.00 in0.0 mm 0.00 in/hr0.0 mm/hr 0.23 in5.8 mm
03:51 PM 47.1°F8.4°C 33.1°F0.6°C 58% Calm Calm 3.0 mph4.8 kmh 29.89 in1012.2 mb 0.00 in0.0 mm 0.00 in/hr0.0 mm/hr 0.23 in5.8 mm
03:50 PM 47.1°F8.4°C 33.1°F0.6°C 58% Calm Calm 3.0 mph4.8 kmh 29.89 in1012.2 mb 0.00 in0.0 mm 0.00 in/hr0.0 mm/hr 0.23 in5.8 mm
03:49 PM 47.0°F8.3°C 33.9°F1.1°C 60% Calm Calm 3.0 mph4.8 kmh 29.89 in1012.2 mb 0.00 in0.0 mm 0.00 in/hr0.0 mm/hr 0.23 in5.8 mm
03:48 PM 46.9°F8.3°C 34.2°F1.2°C 61% 1.0 mph WSW1.6 kmh WSW 3.0 mph4.8 kmh 29.90 in1012.5 mb 0.00 in0.0 mm 0.00 in/hr0.0 mm/hr 0.23 in5.8 mm
03:47 PM 46.9°F8.3°C 33.3°F0.7°C 59% Calm Calm 3.0 mph4.8 kmh 29.90 in1012.5 mb 0.00 in0.0 mm 0.00 in/hr0.0 mm/hr 0.23 in5.8 mm
03:46 PM 47.1°F8.4°C 33.1°F0.6°C 58% 2.0 mph WSW3.2 kmh WSW 3.0 mph4.8 kmh 29.89 in1012.2 mb 0.00 in0.0 mm 0.00 in/hr0.0 mm/hr 0.23 in5.8 mm
03:45 PM 47.2°F8.4°C 32.8°F0.4°C 57% 2.0 mph W3.2 kmh W 3.0 mph4.8 kmh 29.89 in1012.2 mb 0.00 in0.0 mm 0.00 in/hr0.0 mm/hr 0.23 in5.8 mm
03:44 PM 47.4°F8.6°C 33.4°F0.8°C 58% 2.0 mph WNW3.2 kmh WNW 3.0 mph4.8 kmh 29.89 in1012.2 mb 0.00 in0.0 mm 0.00 in/hr0.0 mm/hr 0.23 in5.8 mm
03:43 PM 47.4°F8.6°C 33.8°F1.0°C 59% Calm Calm 3.0 mph4.8 kmh 29.89 in1012.2 mb 0.00 in0.0 mm 0.00 in/hr0.0 mm/hr 0.23 in5.8 mm
03:42 PM 47.4°F8.6°C 33.8°F1.0°C 59% Calm Calm 3.0 mph4.8 kmh 29.89 in1012.2 mb 0.00 in0.0 mm 0.00 in/hr0.0 mm/hr 0.23 in5.8 mm
03:41 PM 47.3°F8.5°C 34.1°F1.2°C 60% 1.0 mph W1.6 kmh W 3.0 mph4.8 kmh 29.89 in1012.2 mb 0.00 in0.0 mm 0.00 in/hr0.0 mm/hr 0.23 in5.8 mm
03:40 PM 47.1°F8.4°C 33.5°F0.8°C 59% Calm Calm 3.0 mph4.8 kmh 29.89 in1012.2 mb 0.00 in0.0 mm 0.00 in/hr0.0 mm/hr 0.23 in5.8 mm
03:39 PM 46.9°F8.3°C 34.2°F1.2°C 61% 1.0 mph SE1.6 kmh SE 3.0 mph4.8 kmh 29.89 in1012.2 mb 0.00 in0.0 mm 0.00 in/hr0.0 mm/hr 0.23 in5.8 mm
03:38 PM 46.7°F8.2°C 34.4°F1.3°C 62% Calm Calm 3.0 mph4.8 kmh 29.89 in1012.2 mb 0.00 in0.0 mm 0.00 in/hr0.0 mm/hr 0.23 in5.8 mm
03:37 PM 46.4°F8.0°C 34.5°F1.4°C 63% Calm Calm 3.0 mph4.8 kmh 29.89 in1012.2 mb 0.00 in0.0 mm 0.00 in/hr0.0 mm/hr 0.23 in5.8 mm
03:36 PM 46.1°F7.8°C 33.8°F1.0°C 62% 1.0 mph SSW1.6 kmh SSW 3.0 mph4.8 kmh 29.89 in1012.2 mb 0.00 in0.0 mm 0.00 in/hr0.0 mm/hr 0.23 in5.8 mm
03:35 PM 46.0°F7.8°C 33.7°F0.9°C 62% 1.0 mph SE1.6 kmh SE 3.0 mph4.8 kmh 29.89 in1012.2 mb 0.00 in0.0 mm 0.00 in/hr0.0 mm/hr 0.23 in5.8 mm
03:34 PM 46.0°F7.8°C 33.7°F0.9°C 62% 2.0 mph WSW3.2 kmh WSW 3.0 mph4.8 kmh 29.89 in1012.2 mb 0.00 in0.0 mm 0.00 in/hr0.0 mm/hr 0.23 in5.8 mm
03:33 PM 46.0°F7.8°C 33.3°F0.7°C 61% 1.0 mph WSW1.6 kmh WSW 3.0 mph4.8 kmh 29.89 in1012.2 mb 0.00 in0.0 mm 0.00 in/hr0.0 mm/hr 0.23 in5.8 mm
03:32 PM 46.1°F7.8°C 33.4°F0.8°C 61% 2.0 mph W3.2 kmh W 2.0 mph3.2 kmh 29.89 in1012.2 mb 0.00 in0.0 mm 0.00 in/hr0.0 mm/hr 0.23 in5.8 mm
03:31 PM 46.2°F7.9°C 33.5°F0.8°C 61% 2.0 mph WSW3.2 kmh WSW 3.0 mph4.8 kmh 29.89 in1012.2 mb 0.00 in0.0 mm 0.00 in/hr0.0 mm/hr 0.23 in5.8 mm
03:30 PM 46.2°F7.9°C 33.5°F0.8°C 61% 1.0 mph WNW1.6 kmh WNW 3.0 mph4.8 kmh 29.89 in1012.2 mb 0.00 in0.0 mm 0.00 in/hr0.0 mm/hr 0.23 in5.8 mm
03:29 PM 46.1°F7.8°C 33.4°F0.8°C 61% 2.0 mph NW3.2 kmh NW 3.0 mph4.8 kmh 29.89 in1012.2 mb 0.00 in0.0 mm 0.00 in/hr0.0 mm/hr 0.23 in5.8 mm
03:28 PM 46.0°F7.8°C 34.9°F1.6°C 65% Calm Calm 3.0 mph4.8 kmh 29.89 in1012.2 mb 0.00 in0.0 mm 0.00 in/hr0.0 mm/hr 0.23 in5.8 mm
03:27 PM 45.7°F7.6°C 33.8°F1.0°C 63% Calm Calm 3.0 mph4.8 kmh 29.90 in1012.5 mb 0.00 in0.0 mm 0.00 in/hr0.0 mm/hr 0.23 in5.8 mm
03:26 PM 45.6°F7.6°C 33.4°F0.8°C 62% 1.0 mph SW1.6 kmh SW 3.0 mph4.8 kmh 29.90 in1012.5 mb 0.00 in0.0 mm 0.00 in/hr0.0 mm/hr 0.23 in5.8 mm
03:25 PM 45.5°F7.5°C 34.1°F1.2°C 64% 2.0 mph W3.2 kmh W 3.0 mph4.8 kmh 29.89 in1012.2 mb 0.00 in0.0 mm 0.00 in/hr0.0 mm/hr 0.23 in5.8 mm
03:24 PM 45.4°F7.4°C 34.3°F1.3°C 65% 2.0 mph WSW3.2 kmh WSW 3.0 mph4.8 kmh 29.90 in1012.5 mb 0.00 in0.0 mm 0.00 in/hr0.0 mm/hr 0.23 in5.8 mm
03:23 PM 45.3°F7.4°C 35.0°F1.7°C 67% Calm Calm 3.0 mph4.8 kmh 29.90 in1012.5 mb 0.00 in0.0 mm 0.00 in/hr0.0 mm/hr 0.23 in5.8 mm
03:22 PM 45.2°F7.3°C 34.5°F1.4°C 66% 1.0 mph SSW1.6 kmh SSW 3.0 mph4.8 kmh 29.90 in1012.5 mb 0.00 in0.0 mm 0.00 in/hr0.0 mm/hr 0.23 in5.8 mm
03:21 PM 45.1°F7.3°C 34.4°F1.3°C 66% Calm Calm 3.0 mph4.8 kmh 29.90 in1012.5 mb 0.00 in0.0 mm 0.00 in/hr0.0 mm/hr 0.23 in5.8 mm
03:20 PM 45.0°F7.2°C 33.6°F0.9°C 64% Calm Calm 3.0 mph4.8 kmh 29.90 in1012.5 mb 0.00 in0.0 mm 0.00 in/hr0.0 mm/hr 0.23 in5.8 mm
03:19 PM 45.0°F7.2°C 34.0°F1.1°C 65% Calm Calm 3.0 mph4.8 kmh 29.89 in1012.2 mb 0.00 in0.0 mm 0.00 in/hr0.0 mm/hr 0.23 in5.8 mm
03:18 PM 45.0°F7.2°C 34.0°F1.1°C 65% Calm Calm 3.0 mph4.8 kmh 29.90 in1012.5 mb 0.00 in0.0 mm 0.00 in/hr0.0 mm/hr 0.23 in5.8 mm
03:17 PM 44.9°F7.2°C 34.2°F1.2°C 66% 1.0 mph SW1.6 kmh SW 3.0 mph4.8 kmh 29.90 in1012.5 mb 0.00 in0.0 mm 0.00 in/hr0.0 mm/hr 0.23 in5.8 mm
03:16 PM 44.9°F7.2°C 33.9°F1.1°C 65% 1.0 mph SW1.6 kmh SW 3.0 mph4.8 kmh 29.89 in1012.2 mb 0.00 in0.0 mm 0.00 in/hr0.0 mm/hr 0.23 in5.8 mm
03:15 PM 44.9°F7.2°C 33.9°F1.1°C 65% Calm Calm 3.0 mph4.8 kmh 29.89 in1012.2 mb 0.00 in0.0 mm 0.00 in/hr0.0 mm/hr 0.23 in5.8 mm
03:14 PM 45.0°F7.2°C 33.6°F0.9°C 64% 1.0 mph SW1.6 kmh SW 3.0 mph4.8 kmh 29.89 in1012.2 mb 0.00 in0.0 mm 0.00 in/hr0.0 mm/hr 0.23 in5.8 mm
03:13 PM 45.1°F7.3°C 33.3°F0.7°C 63% 1.0 mph W1.6 kmh W 3.0 mph4.8 kmh 29.89 in1012.2 mb 0.00 in0.0 mm 0.00 in/hr0.0 mm/hr 0.23 in5.8 mm
03:12 PM 45.3°F7.4°C 33.5°F0.8°C 63% 1.0 mph W1.6 kmh W 3.0 mph4.8 kmh 29.90 in1012.5 mb 0.00 in0.0 mm 0.00 in/hr0.0 mm/hr 0.23 in5.8 mm
03:11 PM 45.3°F7.4°C 33.9°F1.1°C 64% 2.0 mph SW3.2 kmh SW 3.0 mph4.8 kmh 29.90 in1012.5 mb 0.00 in0.0 mm 0.00 in/hr0.0 mm/hr 0.23 in5.8 mm
03:10 PM 45.4°F7.4°C 34.7°F1.5°C 66% 2.0 mph SW3.2 kmh SW 3.0 mph4.8 kmh 29.90 in1012.5 mb 0.00 in0.0 mm 0.00 in/hr0.0 mm/hr 0.23 in5.8 mm
03:09 PM 45.6°F7.6°C 33.8°F1.0°C 63% Calm Calm 2.0 mph3.2 kmh 29.90 in1012.5 mb 0.00 in0.0 mm 0.00 in/hr0.0 mm/hr 0.23 in5.8 mm
03:08 PM 45.9°F7.7°C 33.6°F0.9°C 62% 1.0 mph WSW1.6 kmh WSW 2.0 mph3.2 kmh 29.90 in1012.5 mb 0.00 in0.0 mm 0.00 in/hr0.0 mm/hr 0.23 in5.8 mm
03:07 PM 46.1°F7.8°C 33.8°F1.0°C 62% 1.0 mph WSW1.6 kmh WSW 2.0 mph3.2 kmh 29.89 in1012.2 mb 0.00 in0.0 mm 0.00 in/hr0.0 mm/hr 0.23 in5.8 mm
03:06 PM 46.4°F8.0°C 33.7°F0.9°C 61% 1.0 mph WSW1.6 kmh WSW 2.0 mph3.2 kmh 29.90 in1012.5 mb 0.00 in0.0 mm 0.00 in/hr0.0 mm/hr 0.23 in5.8 mm
03:05 PM 46.7°F8.2°C 34.0°F1.1°C 61% 1.0 mph WSW1.6 kmh WSW 2.0 mph3.2 kmh 29.90 in1012.5 mb 0.00 in0.0 mm 0.00 in/hr0.0 mm/hr 0.23 in5.8 mm
03:04 PM 47.0°F8.3°C 33.4°F0.8°C 59% 1.0 mph WSW1.6 kmh WSW 1.0 mph1.6 kmh 29.90 in1012.5 mb 0.00 in0.0 mm 0.00 in/hr0.0 mm/hr 0.23 in5.8 mm
03:03 PM 47.3°F8.5°C 33.7°F0.9°C 59% Calm Calm -- 29.90 in1012.5 mb 0.00 in0.0 mm 0.00 in/hr0.0 mm/hr 0.23 in5.8 mm
03:02 PM 47.5°F8.6°C 34.3°F1.3°C 60% Calm Calm -- 29.90 in1012.5 mb 0.00 in0.0 mm 0.00 in/hr0.0 mm/hr 0.23 in5.8 mm
03:01 PM 47.7°F8.7°C 34.5°F1.4°C 60% Calm Calm 6.0 mph9.7 kmh 29.90 in1012.5 mb 0.00 in0.0 mm 0.00 in/hr0.0 mm/hr 0.23 in5.8 mm
03:00 PM 47.9°F8.8°C 34.7°F1.5°C 60% Calm Calm 6.0 mph9.7 kmh 29.90 in1012.5 mb 0.00 in0.0 mm 0.00 in/hr0.0 mm/hr 0.23 in5.8 mm
02:59 PM 48.1°F8.9°C 35.3°F1.8°C 61% Calm Calm 6.0 mph9.7 kmh 29.89 in1012.2 mb 0.00 in0.0 mm 0.00 in/hr0.0 mm/hr 0.23 in5.8 mm
02:58 PM 48.3°F9.1°C 35.1°F1.7°C 60% Calm Calm 6.0 mph9.7 kmh 29.89 in1012.2 mb 0.00 in0.0 mm 0.00 in/hr0.0 mm/hr 0.23 in5.8 mm
02:57 PM 48.4°F9.1°C 35.6°F2.0°C 61% Calm Calm 6.0 mph9.7 kmh 29.89 in1012.2 mb 0.00 in0.0 mm 0.00 in/hr0.0 mm/hr 0.23 in5.8 mm
02:56 PM 48.6°F9.2°C 35.8°F2.1°C 61% Calm Calm 6.0 mph9.7 kmh 29.89 in1012.2 mb 0.00 in0.0 mm 0.00 in/hr0.0 mm/hr 0.23 in5.8 mm
02:55 PM 48.7°F9.3°C 36.3°F2.4°C 62% 1.0 mph WSW1.6 kmh WSW 6.0 mph9.7 kmh 29.89 in1012.2 mb 0.00 in0.0 mm 0.00 in/hr0.0 mm/hr 0.23 in5.8 mm
02:54 PM 48.6°F9.2°C 36.6°F2.6°C 63% 1.0 mph NW1.6 kmh NW 6.0 mph9.7 kmh 29.89 in1012.2 mb 0.00 in0.0 mm 0.00 in/hr0.0 mm/hr 0.23 in5.8 mm
02:53 PM 48.6°F9.2°C 36.6°F2.6°C 63% 1.0 mph E1.6 kmh E 6.0 mph9.7 kmh 29.89 in1012.2 mb 0.00 in0.0 mm 0.00 in/hr0.0 mm/hr 0.23 in5.8 mm
02:52 PM 48.4°F9.1°C 36.0°F2.2°C 62% 1.0 mph ESE1.6 kmh ESE 6.0 mph9.7 kmh 29.89 in1012.2 mb 0.00 in0.0 mm 0.00 in/hr0.0 mm/hr 0.23 in5.8 mm
02:51 PM 48.3°F9.1°C 35.5°F1.9°C 61% 2.0 mph W3.2 kmh W 5.0 mph8.0 kmh 29.89 in1012.2 mb 0.00 in0.0 mm 0.00 in/hr0.0 mm/hr 0.23 in5.8 mm
02:50 PM 48.3°F9.1°C 36.3°F2.4°C 63% 1.0 mph W1.6 kmh W 5.0 mph8.0 kmh 29.89 in1012.2 mb 0.00 in0.0 mm 0.00 in/hr0.0 mm/hr 0.23 in5.8 mm
02:49 PM 48.3°F9.1°C 36.3°F2.4°C 63% Calm Calm 5.0 mph8.0 kmh 29.89 in1012.2 mb 0.00 in0.0 mm 0.00 in/hr0.0 mm/hr 0.23 in5.8 mm
02:48 PM 48.3°F9.1°C 36.3°F2.4°C 63% 1.0 mph NW1.6 kmh NW 5.0 mph8.0 kmh 29.89 in1012.2 mb 0.00 in0.0 mm 0.00 in/hr0.0 mm/hr 0.23 in5.8 mm
02:47 PM 48.3°F9.1°C 37.1°F2.8°C 65% 1.0 mph NW1.6 kmh NW 5.0 mph8.0 kmh 29.89 in1012.2 mb 0.00 in0.0 mm 0.00 in/hr0.0 mm/hr 0.23 in5.8 mm
02:46 PM 48.3°F9.1°C 37.1°F2.8°C 65% 3.0 mph NW4.8 kmh NW 5.0 mph8.0 kmh 29.89 in1012.2 mb 0.00 in0.0 mm 0.00 in/hr0.0 mm/hr 0.23 in5.8 mm
02:45 PM 48.2°F9.0°C 37.4°F3.0°C 66% Calm Calm 5.0 mph8.0 kmh 29.89 in1012.2 mb 0.00 in0.0 mm 0.00 in/hr0.0 mm/hr 0.23 in5.8 mm
02:44 PM 48.1°F8.9°C 38.4°F3.6°C 69% Calm Calm 5.0 mph8.0 kmh 29.89 in1012.2 mb 0.00 in0.0 mm 0.00 in/hr0.0 mm/hr 0.23 in5.8 mm
02:43 PM 47.8°F8.8°C 38.5°F3.6°C 70% 2.0 mph N3.2 kmh N 5.0 mph8.0 kmh 29.89 in1012.2 mb 0.00 in0.0 mm 0.00 in/hr0.0 mm/hr 0.23 in5.8 mm
02:42 PM 47.5°F8.6°C 37.5°F3.1°C 68% Calm Calm 5.0 mph8.0 kmh 29.89 in1012.2 mb 0.00 in0.0 mm 0.00 in/hr0.0 mm/hr 0.23 in5.8 mm
02:41 PM 47.2°F8.4°C 39.0°F3.9°C 73% 3.0 mph NE4.8 kmh NE 5.0 mph8.0 kmh 29.89 in1012.2 mb 0.00 in0.0 mm 0.00 in/hr0.0 mm/hr 0.23 in5.8 mm
02:40 PM 46.8°F8.2°C 38.6°F3.7°C 73% 3.0 mph SE4.8 kmh SE 5.0 mph8.0 kmh 29.89 in1012.2 mb 0.00 in0.0 mm 0.00 in/hr0.0 mm/hr 0.23 in5.8 mm
02:39 PM 46.4°F8.0°C 39.3°F4.1°C 76% Calm Calm -- 29.89 in1012.2 mb 0.00 in0.0 mm 0.00 in/hr0.0 mm/hr 0.23 in5.8 mm
02:38 PM 45.8°F7.7°C 37.3°F2.9°C 72% Calm Calm -- 29.89 in1012.2 mb 0.00 in0.0 mm 0.00 in/hr0.0 mm/hr 0.23 in5.8 mm
02:37 PM 45.5°F7.5°C 36.7°F2.6°C 71% Calm Calm -- 29.89 in1012.2 mb 0.00 in0.0 mm 0.00 in/hr0.0 mm/hr 0.23 in5.8 mm
02:36 PM 45.3°F7.4°C 37.2°F2.9°C 73% Calm Calm -- 29.89 in1012.2 mb 0.00 in0.0 mm 0.00 in/hr0.0 mm/hr 0.23 in5.8 mm
02:35 PM 45.1°F7.3°C 37.0°F2.8°C 73% Calm Calm -- 29.89 in1012.2 mb 0.00 in0.0 mm 0.00 in/hr0.0 mm/hr 0.23 in5.8 mm
02:34 PM 44.9°F7.2°C 36.1°F2.3°C 71% Calm Calm -- 29.89 in1012.2 mb 0.00 in0.0 mm 0.00 in/hr0.0 mm/hr 0.23 in5.8 mm
02:33 PM 44.9°F7.2°C 35.4°F1.9°C 69% Calm Calm -- 29.89 in1012.2 mb 0.00 in0.0 mm 0.00 in/hr0.0 mm/hr 0.23 in5.8 mm
02:32 PM 44.9°F7.2°C 35.4°F1.9°C 69% Calm Calm -- 29.89 in1012.2 mb 0.00 in0.0 mm 0.00 in/hr0.0 mm/hr 0.23 in5.8 mm
02:31 PM 44.9°F7.2°C 35.7°F2.1°C 70% Calm Calm 5.0 mph8.0 kmh 29.89 in1012.2 mb 0.00 in0.0 mm 0.00 in/hr0.0 mm/hr 0.23 in5.8 mm
02:30 PM 44.9°F7.2°C 36.1°F2.3°C 71% Calm Calm 5.0 mph8.0 kmh 29.89 in1012.2 mb 0.00 in0.0 mm 0.00 in/hr0.0 mm/hr 0.23 in5.8 mm
02:29 PM 44.9°F7.2°C 36.1°F2.3°C 71% Calm Calm 5.0 mph8.0 kmh 29.89 in1012.2 mb 0.00 in0.0 mm 0.00 in/hr0.0 mm/hr 0.23 in5.8 mm
02:28 PM 44.9°F7.2°C 36.1°F2.3°C 71% Calm Calm 5.0 mph8.0 kmh 29.89 in1012.2 mb 0.00 in0.0 mm 0.00 in/hr0.0 mm/hr 0.23 in5.8 mm
02:27 PM 44.9°F7.2°C 36.1°F2.3°C 71% Calm Calm 5.0 mph8.0 kmh 29.89 in1012.2 mb 0.00 in0.0 mm 0.00 in/hr0.0 mm/hr 0.23 in5.8 mm
02:26 PM 44.9°F7.2°C 35.7°F2.1°C 70% Calm Calm 5.0 mph8.0 kmh 29.89 in1012.2 mb 0.00 in0.0 mm 0.00 in/hr0.0 mm/hr 0.23 in5.8 mm
02:25 PM 45.0°F7.2°C 35.5°F1.9°C 69% Calm Calm 5.0 mph8.0 kmh 29.89 in1012.2 mb 0.00 in0.0 mm 0.00 in/hr0.0 mm/hr 0.23 in5.8 mm
02:24 PM 45.2°F7.3°C 35.3°F1.8°C 68% Calm Calm 5.0 mph8.0 kmh 29.89 in1012.2 mb 0.00 in0.0 mm 0.00 in/hr0.0 mm/hr 0.23 in5.8 mm
02:23 PM 45.4°F7.4°C 35.5°F1.9°C 68% Calm Calm 5.0 mph8.0 kmh 29.89 in1012.2 mb 0.00 in0.0 mm 0.00 in/hr0.0 mm/hr 0.23 in5.8 mm
02:22 PM 45.6°F7.6°C 36.0°F2.2°C 69% Calm Calm 5.0 mph8.0 kmh 29.89 in1012.2 mb 0.00 in0.0 mm 0.00 in/hr0.0 mm/hr 0.23 in5.8 mm
02:21 PM 45.7°F7.6°C 36.1°F2.3°C 69% Calm Calm 5.0 mph8.0 kmh 29.89 in1012.2 mb 0.00 in0.0 mm 0.00 in/hr0.0 mm/hr 0.23 in5.8 mm
02:20 PM 45.9°F7.7°C 36.0°F2.2°C 68% 1.0 mph WSW1.6 kmh WSW 5.0 mph8.0 kmh 29.89 in1012.2 mb 0.00 in0.0 mm 0.00 in/hr0.0 mm/hr 0.23 in5.8 mm
02:19 PM 46.2°F7.9°C 36.2°F2.3°C 68% 1.0 mph NW1.6 kmh NW 5.0 mph8.0 kmh 29.89 in1012.2 mb 0.00 in0.0 mm 0.00 in/hr0.0 mm/hr 0.23 in5.8 mm
02:18 PM 46.4°F8.0°C 36.8°F2.7°C 69% 2.0 mph NW3.2 kmh NW 5.0 mph8.0 kmh 29.88 in1011.9 mb 0.00 in0.0 mm 0.00 in/hr0.0 mm/hr 0.23 in5.8 mm
02:17 PM 46.5°F8.1°C 37.3°F2.9°C 70% 1.0 mph NNW1.6 kmh NNW 5.0 mph8.0 kmh 29.88 in1011.9 mb 0.00 in0.0 mm 0.00 in/hr0.0 mm/hr 0.23 in5.8 mm
02:16 PM 46.6°F8.1°C 38.1°F3.4°C 72% 1.0 mph NNW1.6 kmh NNW 5.0 mph8.0 kmh 29.89 in1012.2 mb 0.00 in0.0 mm 0.00 in/hr0.0 mm/hr 0.23 in5.8 mm
02:15 PM 46.5°F8.1°C 37.6°F3.1°C 71% 1.0 mph WNW1.6 kmh WNW 5.0 mph8.0 kmh 29.88 in1011.9 mb 0.00 in0.0 mm 0.00 in/hr0.0 mm/hr 0.23 in5.8 mm
02:14 PM 46.4°F8.0°C 37.9°F3.3°C 72% 1.0 mph NNW1.6 kmh NNW 5.0 mph8.0 kmh 29.89 in1012.2 mb 0.00 in0.0 mm 0.00 in/hr0.0 mm/hr 0.23 in5.8 mm
02:13 PM 46.2°F7.9°C 37.7°F3.2°C 72% 1.0 mph NW1.6 kmh NW 5.0 mph8.0 kmh 29.88 in1011.9 mb 0.00 in0.0 mm 0.00 in/hr0.0 mm/hr 0.23 in5.8 mm
02:12 PM 46.0°F7.8°C 37.8°F3.2°C 73% 3.0 mph W4.8 kmh W 5.0 mph8.0 kmh 29.89 in1012.2 mb 0.00 in0.0 mm 0.00 in/hr0.0 mm/hr 0.23 in5.8 mm
02:11 PM 45.7°F7.6°C 37.6°F3.1°C 73% 2.0 mph N3.2 kmh N 3.0 mph4.8 kmh 29.88 in1011.9 mb 0.00 in0.0 mm 0.00 in/hr0.0 mm/hr 0.23 in5.8 mm
02:10 PM 45.6°F7.6°C 37.1°F2.8°C 72% Calm Calm 3.0 mph4.8 kmh 29.88 in1011.9 mb 0.00 in0.0 mm 0.00 in/hr0.0 mm/hr 0.23 in5.8 mm
02:09 PM 45.4°F7.4°C 36.9°F2.7°C 72% Calm Calm 3.0 mph4.8 kmh 29.88 in1011.9 mb 0.00 in0.0 mm 0.00 in/hr0.0 mm/hr 0.23 in5.8 mm
02:08 PM 45.3°F7.4°C 37.2°F2.9°C 73% Calm Calm 3.0 mph4.8 kmh 29.88 in1011.9 mb 0.00 in0.0 mm 0.00 in/hr0.0 mm/hr 0.23 in5.8 mm
02:07 PM 45.3°F7.4°C 36.8°F2.7°C 72% 1.0 mph WSW1.6 kmh WSW 3.0 mph4.8 kmh 29.89 in1012.2 mb 0.00 in0.0 mm 0.00 in/hr0.0 mm/hr 0.23 in5.8 mm
02:06 PM 45.3°F7.4°C 36.8°F2.7°C 72% 1.0 mph WSW1.6 kmh WSW 3.0 mph4.8 kmh 29.89 in1012.2 mb 0.00 in0.0 mm 0.00 in/hr0.0 mm/hr 0.23 in5.8 mm
02:05 PM 45.3°F7.4°C 36.8°F2.7°C 72% 1.0 mph NW1.6 kmh NW 3.0 mph4.8 kmh 29.89 in1012.2 mb 0.00 in0.0 mm 0.00 in/hr0.0 mm/hr 0.23 in5.8 mm
02:04 PM 45.2°F7.3°C 36.4°F2.4°C 71% 1.0 mph NW1.6 kmh NW 3.0 mph4.8 kmh 29.89 in1012.2 mb 0.00 in0.0 mm 0.00 in/hr0.0 mm/hr 0.23 in5.8 mm
02:03 PM 45.1°F7.3°C 37.0°F2.8°C 73% 3.0 mph N4.8 kmh N 3.0 mph4.8 kmh 29.89 in1012.2 mb 0.00 in0.0 mm 0.00 in/hr0.0 mm/hr 0.23 in5.8 mm
02:02 PM 45.1°F7.3°C 37.3°F2.9°C 74% 1.0 mph SW1.6 kmh SW 3.0 mph4.8 kmh 29.89 in1012.2 mb 0.00 in0.0 mm 0.00 in/hr0.0 mm/hr 0.23 in5.8 mm
02:01 PM 45.0°F7.2°C 36.9°F2.7°C 73% 3.0 mph NW4.8 kmh NW 3.0 mph4.8 kmh 29.88 in1011.9 mb 0.00 in0.0 mm 0.00 in/hr0.0 mm/hr 0.23 in5.8 mm
02:00 PM 44.8°F7.1°C 37.0°F2.8°C 74% 1.0 mph WNW1.6 kmh WNW 3.0 mph4.8 kmh 29.89 in1012.2 mb 0.00 in0.0 mm 0.00 in/hr0.0 mm/hr 0.23 in5.8 mm
01:59 PM 44.7°F7.1°C 36.9°F2.7°C 74% Calm Calm 3.0 mph4.8 kmh 29.89 in1012.2 mb 0.00 in0.0 mm 0.00 in/hr0.0 mm/hr 0.23 in5.8 mm
01:58 PM 44.5°F6.9°C 37.1°F2.8°C 75% 1.0 mph E1.6 kmh E 3.0 mph4.8 kmh 29.89 in1012.2 mb 0.00 in0.0 mm 0.00 in/hr0.0 mm/hr 0.23 in5.8 mm
01:57 PM 44.4°F6.9°C 37.7°F3.2°C 77% 1.0 mph SW1.6 kmh SW 2.0 mph3.2 kmh 29.89 in1012.2 mb 0.00 in0.0 mm 0.00 in/hr0.0 mm/hr 0.23 in5.8 mm
01:56 PM 44.1°F6.7°C 37.4°F3.0°C 77% Calm Calm 2.0 mph3.2 kmh 29.89 in1012.2 mb 0.00 in0.0 mm 0.00 in/hr0.0 mm/hr 0.23 in5.8 mm
01:55 PM 43.9°F6.6°C 37.2°F2.9°C 77% 1.0 mph SW1.6 kmh SW 2.0 mph3.2 kmh 29.89 in1012.2 mb 0.00 in0.0 mm 0.00 in/hr0.0 mm/hr 0.23 in5.8 mm
01:54 PM 43.7°F6.5°C 36.3°F2.4°C 75% 1.0 mph NW1.6 kmh NW 2.0 mph3.2 kmh 29.89 in1012.2 mb 0.00 in0.0 mm 0.00 in/hr0.0 mm/hr 0.23 in5.8 mm
01:53 PM 43.6°F6.4°C 37.2°F2.9°C 78% 1.0 mph NW1.6 kmh NW 2.0 mph3.2 kmh 29.89 in1012.2 mb 0.00 in0.0 mm 0.00 in/hr0.0 mm/hr 0.23 in5.8 mm
01:52 PM 43.4°F6.3°C 37.3°F2.9°C 79% 1.0 mph NW1.6 kmh NW 2.0 mph3.2 kmh 29.89 in1012.2 mb 0.00 in0.0 mm 0.00 in/hr0.0 mm/hr 0.23 in5.8 mm
01:51 PM 43.2°F6.2°C 36.2°F2.3°C 76% 1.0 mph SE1.6 kmh SE 2.0 mph3.2 kmh 29.89 in1012.2 mb 0.00 in0.0 mm 0.00 in/hr0.0 mm/hr 0.23 in5.8 mm
01:50 PM 43.1°F6.2°C 35.7°F2.1°C 75% Calm Calm 2.0 mph3.2 kmh 29.89 in1012.2 mb 0.00 in0.0 mm 0.00 in/hr0.0 mm/hr 0.23 in5.8 mm
01:49 PM 43.2°F6.2°C 35.8°F2.1°C 75% Calm Calm 2.0 mph3.2 kmh 29.89 in1012.2 mb 0.00 in0.0 mm 0.00 in/hr0.0 mm/hr 0.23 in5.8 mm
01:48 PM 43.3°F6.3°C 35.6°F2.0°C 74% Calm Calm 2.0 mph3.2 kmh 29.89 in1012.2 mb 0.00 in0.0 mm 0.00 in/hr0.0 mm/hr 0.23 in5.8 mm
01:47 PM 43.3°F6.3°C 35.6°F2.0°C 74% Calm Calm 2.0 mph3.2 kmh 29.89 in1012.2 mb 0.00 in0.0 mm 0.00 in/hr0.0 mm/hr 0.23 in5.8 mm
01:46 PM 43.4°F6.3°C 36.0°F2.2°C 75% Calm Calm 2.0 mph3.2 kmh 29.89 in1012.2 mb 0.00 in0.0 mm 0.00 in/hr0.0 mm/hr 0.23 in5.8 mm
01:45 PM 43.5°F6.4°C 36.1°F2.3°C 75% Calm Calm 2.0 mph3.2 kmh 29.89 in1012.2 mb 0.00 in0.0 mm 0.00 in/hr0.0 mm/hr 0.23 in5.8 mm
01:44 PM 43.6°F6.4°C 36.2°F2.3°C 75% Calm Calm 2.0 mph3.2 kmh 29.89 in1012.2 mb 0.00 in0.0 mm 0.00 in/hr0.0 mm/hr 0.23 in5.8 mm
01:43 PM 43.7°F6.5°C 36.3°F2.4°C 75% Calm Calm 2.0 mph3.2 kmh 29.89 in1012.2 mb 0.00 in0.0 mm 0.00 in/hr0.0 mm/hr 0.23 in5.8 mm
01:42 PM 43.8°F6.6°C 35.7°F2.1°C 73% 1.0 mph W1.6 kmh W 2.0 mph3.2 kmh 29.89 in1012.2 mb 0.00 in0.0 mm 0.00 in/hr0.0 mm/hr 0.23 in5.8 mm
01:41 PM 44.0°F6.7°C 35.9°F2.2°C 73% 1.0 mph NW1.6 kmh NW 2.0 mph3.2 kmh 29.89 in1012.2 mb 0.00 in0.0 mm 0.00 in/hr0.0 mm/hr 0.23 in5.8 mm
01:40 PM 44.1°F6.7°C 36.0°F2.2°C 73% Calm Calm 2.0 mph3.2 kmh 29.89 in1012.2 mb 0.00 in0.0 mm 0.00 in/hr0.0 mm/hr 0.23 in5.8 mm
01:39 PM 44.3°F6.8°C 36.6°F2.6°C 74% 1.0 mph WSW1.6 kmh WSW 2.0 mph3.2 kmh 29.89 in1012.2 mb 0.00 in0.0 mm 0.00 in/hr0.0 mm/hr 0.23 in5.8 mm
01:38 PM 44.4°F6.9°C 36.7°F2.6°C 74% Calm Calm 1.0 mph1.6 kmh 29.89 in1012.2 mb 0.00 in0.0 mm 0.00 in/hr0.0 mm/hr 0.23 in5.8 mm
01:37 PM 44.5°F6.9°C 36.7°F2.6°C 74% Calm Calm 1.0 mph1.6 kmh 29.89 in1012.2 mb 0.00 in0.0 mm 0.00 in/hr0.0 mm/hr 0.23 in5.8 mm
01:36 PM 44.6°F7.0°C 37.2°F2.9°C 75% 1.0 mph NNW1.6 kmh NNW 1.0 mph1.6 kmh 29.89 in1012.2 mb 0.00 in0.0 mm 0.00 in/hr0.0 mm/hr 0.23 in5.8 mm
01:35 PM 44.6°F7.0°C 36.8°F2.7°C 74% 1.0 mph NNW1.6 kmh NNW 1.0 mph1.6 kmh 29.89 in1012.2 mb 0.00 in0.0 mm 0.00 in/hr0.0 mm/hr 0.23 in5.8 mm
01:34 PM 44.7°F7.1°C 36.9°F2.7°C 74% Calm Calm 1.0 mph1.6 kmh 29.89 in1012.2 mb 0.00 in0.0 mm 0.00 in/hr0.0 mm/hr 0.23 in5.8 mm
01:33 PM 44.7°F7.1°C 36.9°F2.7°C 74% Calm Calm 1.0 mph1.6 kmh 29.89 in1012.2 mb 0.00 in0.0 mm 0.00 in/hr0.0 mm/hr 0.23 in5.8 mm
01:32 PM 44.7°F7.1°C 36.9°F2.7°C 74% Calm Calm -- 29.89 in1012.2 mb 0.00 in0.0 mm 0.00 in/hr0.0 mm/hr 0.23 in5.8 mm
01:31 PM 44.7°F7.1°C 36.9°F2.7°C 74% Calm Calm 4.0 mph6.4 kmh 29.89 in1012.2 mb 0.00 in0.0 mm 0.00 in/hr0.0 mm/hr 0.23 in5.8 mm
01:30 PM 44.8°F7.1°C 37.0°F2.8°C 74% Calm Calm 4.0 mph6.4 kmh 29.89 in1012.2 mb 0.00 in0.0 mm 0.00 in/hr0.0 mm/hr 0.23 in5.8 mm
01:29 PM 44.9°F7.2°C 36.8°F2.7°C 73% Calm Calm 4.0 mph6.4 kmh 29.90 in1012.5 mb 0.00 in0.0 mm 0.00 in/hr0.0 mm/hr 0.23 in5.8 mm
01:28 PM 44.9°F7.2°C 37.1°F2.8°C 74% Calm Calm 4.0 mph6.4 kmh 29.89 in1012.2 mb 0.00 in0.0 mm 0.00 in/hr0.0 mm/hr 0.23 in5.8 mm
01:27 PM 45.1°F7.3°C 37.0°F2.8°C 73% Calm Calm 4.0 mph6.4 kmh 29.90 in1012.5 mb 0.00 in0.0 mm 0.00 in/hr0.0 mm/hr 0.23 in5.8 mm
01:26 PM 45.2°F7.3°C 37.1°F2.8°C 73% Calm Calm 4.0 mph6.4 kmh 29.90 in1012.5 mb 0.00 in0.0 mm 0.00 in/hr0.0 mm/hr 0.23 in5.8 mm
01:25 PM 45.4°F7.4°C 36.9°F2.7°C 72% Calm Calm 4.0 mph6.4 kmh 29.90 in1012.5 mb 0.00 in0.0 mm 0.00 in/hr0.0 mm/hr 0.23 in5.8 mm
01:24 PM 45.6°F7.6°C 37.1°F2.8°C 72% Calm Calm 4.0 mph6.4 kmh 29.90 in1012.5 mb 0.00 in0.0 mm 0.00 in/hr0.0 mm/hr 0.23 in5.8 mm
01:23 PM 45.9°F7.7°C 37.0°F2.8°C 71% Calm Calm 4.0 mph6.4 kmh 29.90 in1012.5 mb 0.00 in0.0 mm 0.00 in/hr0.0 mm/hr 0.23 in5.8 mm
01:22 PM 46.1°F7.8°C 37.2°F2.9°C 71% Calm Calm 4.0 mph6.4 kmh 29.89 in1012.2 mb 0.00 in0.0 mm 0.00 in/hr0.0 mm/hr 0.23 in5.8 mm
01:21 PM 46.5°F8.1°C 37.6°F3.1°C 71% 1.0 mph NW1.6 kmh NW 4.0 mph6.4 kmh 29.89 in1012.2 mb 0.00 in0.0 mm 0.00 in/hr0.0 mm/hr 0.23 in5.8 mm
01:20 PM 46.9°F8.3°C 37.6°F3.1°C 70% 1.0 mph NW1.6 kmh NW 4.0 mph6.4 kmh 29.89 in1012.2 mb 0.00 in0.0 mm 0.00 in/hr0.0 mm/hr 0.23 in5.8 mm
01:19 PM 47.3°F8.5°C 38.0°F3.3°C 70% 2.0 mph NW3.2 kmh NW 4.0 mph6.4 kmh 29.89 in1012.2 mb 0.00 in0.0 mm 0.00 in/hr0.0 mm/hr 0.23 in5.8 mm
01:18 PM 47.5°F8.6°C 38.6°F3.7°C 71% 3.0 mph NNW4.8 kmh NNW 4.0 mph6.4 kmh 29.89 in1012.2 mb 0.00 in0.0 mm 0.00 in/hr0.0 mm/hr 0.23 in5.8 mm
01:17 PM 47.7°F8.7°C 39.1°F3.9°C 72% 1.0 mph NW1.6 kmh NW 4.0 mph6.4 kmh 29.89 in1012.2 mb 0.00 in0.0 mm 0.00 in/hr0.0 mm/hr 0.23 in5.8 mm
01:16 PM 47.8°F8.8°C 38.9°F3.8°C 71% 1.0 mph ENE1.6 kmh ENE 4.0 mph6.4 kmh 29.90 in1012.5 mb 0.00 in0.0 mm 0.00 in/hr0.0 mm/hr 0.23 in5.8 mm
01:15 PM 47.8°F8.8°C 39.6°F4.2°C 73% 2.0 mph N3.2 kmh N 4.0 mph6.4 kmh 29.90 in1012.5 mb 0.00 in0.0 mm 0.00 in/hr0.0 mm/hr 0.23 in5.8 mm
01:14 PM 47.9°F8.8°C 39.7°F4.3°C 73% Calm Calm 4.0 mph6.4 kmh 29.90 in1012.5 mb 0.00 in0.0 mm 0.00 in/hr0.0 mm/hr 0.23 in5.8 mm
01:13 PM 48.0°F8.9°C 40.5°F4.7°C 75% 1.0 mph NW1.6 kmh NW 4.0 mph6.4 kmh 29.90 in1012.5 mb 0.00 in0.0 mm 0.00 in/hr0.0 mm/hr 0.23 in5.8 mm
01:11 PM 48.1°F8.9°C 39.9°F4.4°C 73% 2.0 mph WNW3.2 kmh WNW 4.0 mph6.4 kmh 29.90 in1012.5 mb 0.00 in0.0 mm 0.00 in/hr0.0 mm/hr 0.23 in5.8 mm
01:10 PM 48.4°F9.1°C 40.5°F4.7°C 74% 3.0 mph NW4.8 kmh NW 4.0 mph6.4 kmh 29.90 in1012.5 mb 0.00 in0.0 mm 0.00 in/hr0.0 mm/hr 0.23 in5.8 mm
01:08 PM 48.4°F9.1°C 40.5°F4.7°C 74% 1.0 mph S1.6 kmh S 4.0 mph6.4 kmh 29.90 in1012.5 mb 0.00 in0.0 mm 0.00 in/hr0.0 mm/hr 0.23 in5.8 mm
01:07 PM 48.0°F8.9°C 41.5°F5.3°C 78% Calm Calm 4.0 mph6.4 kmh 29.90 in1012.5 mb 0.00 in0.0 mm 0.00 in/hr0.0 mm/hr 0.23 in5.8 mm
01:06 PM 47.7°F8.7°C 41.2°F5.1°C 78% Calm Calm 4.0 mph6.4 kmh 29.90 in1012.5 mb 0.00 in0.0 mm 0.00 in/hr0.0 mm/hr 0.23 in5.8 mm
01:05 PM 47.4°F8.6°C 40.9°F4.9°C 78% Calm Calm 4.0 mph6.4 kmh 29.90 in1012.5 mb 0.00 in0.0 mm 0.00 in/hr0.0 mm/hr 0.23 in5.8 mm
01:04 PM 47.2°F8.4°C 42.0°F5.6°C 82% 2.0 mph ESE3.2 kmh ESE 4.0 mph6.4 kmh 29.90 in1012.5 mb 0.00 in0.0 mm 0.00 in/hr0.0 mm/hr 0.23 in5.8 mm
01:03 PM 46.8°F8.2°C 41.6°F5.3°C 82% 2.0 mph E3.2 kmh E 4.0 mph6.4 kmh 29.90 in1012.5 mb 0.00 in0.0 mm 0.00 in/hr0.0 mm/hr 0.23 in5.8 mm
01:02 PM 46.5°F8.1°C 41.3°F5.2°C 82% 2.0 mph NNE3.2 kmh NNE 4.0 mph6.4 kmh 29.90 in1012.5 mb 0.00 in0.0 mm 0.00 in/hr0.0 mm/hr 0.23 in5.8 mm
01:01 PM 46.2°F7.9°C 40.4°F4.7°C 80% Calm Calm 4.0 mph6.4 kmh 29.90 in1012.5 mb 0.00 in0.0 mm 0.00 in/hr0.0 mm/hr 0.23 in5.8 mm
01:00 PM 45.8°F7.7°C 40.6°F4.8°C 82% 2.0 mph SW3.2 kmh SW 4.0 mph6.4 kmh 29.90 in1012.5 mb 0.00 in0.0 mm 0.00 in/hr0.0 mm/hr 0.23 in5.8 mm
12:59 PM 45.6°F7.6°C 40.1°F4.5°C 81% 1.0 mph NW1.6 kmh NW 4.0 mph6.4 kmh 29.90 in1012.5 mb 0.00 in0.0 mm 0.00 in/hr0.0 mm/hr 0.23 in5.8 mm
12:58 PM 45.3°F7.4°C 40.1°F4.5°C 82% 1.0 mph NNE1.6 kmh NNE 4.0 mph6.4 kmh 29.90 in1012.5 mb 0.00 in0.0 mm 0.00 in/hr0.0 mm/hr 0.23 in5.8 mm
12:56 PM 45.2°F7.3°C 40.0°F4.4°C 82% 2.0 mph N3.2 kmh N 4.0 mph6.4 kmh 29.90 in1012.5 mb 0.00 in0.0 mm 0.00 in/hr0.0 mm/hr 0.23 in5.8 mm
12:55 PM 44.8°F7.1°C 40.0°F4.4°C 83% 4.0 mph N6.4 kmh N 4.0 mph6.4 kmh 29.90 in1012.5 mb 0.00 in0.0 mm 0.00 in/hr0.0 mm/hr 0.23 in5.8 mm
12:54 PM 44.6°F7.0°C 39.8°F4.3°C 83% 2.0 mph N3.2 kmh N 3.0 mph4.8 kmh 29.90 in1012.5 mb 0.00 in0.0 mm 0.00 in/hr0.0 mm/hr 0.23 in5.8 mm
12:53 PM 44.4°F6.9°C 39.9°F4.4°C 84% 3.0 mph N4.8 kmh N 3.0 mph4.8 kmh 29.90 in1012.5 mb 0.00 in0.0 mm 0.00 in/hr0.0 mm/hr 0.23 in5.8 mm
12:52 PM 44.3°F6.8°C 39.5°F4.2°C 83% 2.0 mph NNW3.2 kmh NNW 3.0 mph4.8 kmh 29.91 in1012.9 mb 0.00 in0.0 mm 0.00 in/hr0.0 mm/hr 0.23 in5.8 mm
12:51 PM 44.2°F6.8°C 39.7°F4.3°C 84% 2.0 mph NNW3.2 kmh NNW 3.0 mph4.8 kmh 29.91 in1012.9 mb 0.00 in0.0 mm 0.00 in/hr0.0 mm/hr 0.23 in5.8 mm
12:50 PM 44.1°F6.7°C 39.3°F4.1°C 83% 2.0 mph NNE3.2 kmh NNE 3.0 mph4.8 kmh 29.91 in1012.9 mb 0.00 in0.0 mm 0.00 in/hr0.0 mm/hr 0.23 in5.8 mm
12:49 PM 44.1°F6.7°C 39.9°F4.4°C 85% 3.0 mph NNW4.8 kmh NNW 3.0 mph4.8 kmh 29.91 in1012.9 mb 0.00 in0.0 mm 0.00 in/hr0.0 mm/hr 0.23 in5.8 mm
12:48 PM 44.0°F6.7°C 40.1°F4.5°C 86% 2.0 mph NNW3.2 kmh NNW 3.0 mph4.8 kmh 29.91 in1012.9 mb 0.00 in0.0 mm 0.00 in/hr0.0 mm/hr 0.23 in5.8 mm
12:47 PM 43.9°F6.6°C 40.0°F4.4°C 86% 2.0 mph N3.2 kmh N 3.0 mph4.8 kmh 29.91 in1012.9 mb 0.00 in0.0 mm 0.00 in/hr0.0 mm/hr 0.23 in5.8 mm
12:46 PM 43.7°F6.5°C 39.5°F4.2°C 85% 2.0 mph NNE3.2 kmh NNE 2.0 mph3.2 kmh 29.91 in1012.9 mb 0.00 in0.0 mm 0.00 in/hr0.0 mm/hr 0.23 in5.8 mm
12:45 PM 43.7°F6.5°C 40.1°F4.5°C 87% Calm Calm 2.0 mph3.2 kmh 29.91 in1012.9 mb 0.00 in0.0 mm 0.00 in/hr0.0 mm/hr 0.23 in5.8 mm
12:44 PM 43.6°F6.4°C 40.3°F4.6°C 88% 1.0 mph ENE1.6 kmh ENE 2.0 mph3.2 kmh 29.91 in1012.9 mb 0.00 in0.0 mm 0.00 in/hr0.0 mm/hr 0.23 in5.8 mm
12:43 PM 43.3°F6.3°C 40.0°F4.4°C 88% 1.0 mph E1.6 kmh E 2.0 mph3.2 kmh 29.91 in1012.9 mb 0.00 in0.0 mm 0.00 in/hr0.0 mm/hr 0.23 in5.8 mm
12:42 PM 43.0°F6.1°C 39.4°F4.1°C 87% Calm Calm 2.0 mph3.2 kmh 29.91 in1012.9 mb 0.00 in0.0 mm 0.00 in/hr0.0 mm/hr 0.23 in5.8 mm
12:41 PM 42.8°F6.0°C 38.6°F3.7°C 85% 1.0 mph N1.6 kmh N 2.0 mph3.2 kmh 29.91 in1012.9 mb 0.00 in0.0 mm 0.00 in/hr0.0 mm/hr 0.23 in5.8 mm
12:40 PM 42.5°F5.8°C 38.3°F3.5°C 85% Calm Calm 2.0 mph3.2 kmh 29.91 in1012.9 mb 0.00 in0.0 mm 0.00 in/hr0.0 mm/hr 0.23 in5.8 mm
12:39 PM 42.4°F5.8°C 38.5°F3.6°C 86% 1.0 mph ENE1.6 kmh ENE 2.0 mph3.2 kmh 29.91 in1012.9 mb 0.00 in0.0 mm 0.00 in/hr0.0 mm/hr 0.23 in5.8 mm
12:38 PM 42.4°F5.8°C 38.2°F3.4°C 85% 1.0 mph ENE1.6 kmh ENE 2.0 mph3.2 kmh 29.91 in1012.9 mb 0.00 in0.0 mm 0.00 in/hr0.0 mm/hr 0.23 in5.8 mm
12:37 PM 42.4°F5.8°C 38.5°F3.6°C 86% Calm Calm 2.0 mph3.2 kmh 29.91 in1012.9 mb 0.00 in0.0 mm 0.00 in/hr0.0 mm/hr 0.23 in5.8 mm
12:36 PM 42.4°F5.8°C 38.5°F3.6°C 86% 1.0 mph ENE1.6 kmh ENE 2.0 mph3.2 kmh 29.91 in1012.9 mb 0.00 in0.0 mm 0.00 in/hr0.0 mm/hr 0.23 in5.8 mm
12:35 PM 42.4°F5.8°C 38.5°F3.6°C 86% Calm Calm 2.0 mph3.2 kmh 29.91 in1012.9 mb 0.00 in0.0 mm 0.00 in/hr0.0 mm/hr 0.23 in5.8 mm
12:34 PM 42.5°F5.8°C 38.3°F3.5°C 85% 2.0 mph ENE3.2 kmh ENE 2.0 mph3.2 kmh 29.91 in1012.9 mb 0.00 in0.0 mm 0.00 in/hr0.0 mm/hr 0.23 in5.8 mm
12:33 PM 42.5°F5.8°C 38.3°F3.5°C 85% 1.0 mph ENE1.6 kmh ENE 2.0 mph3.2 kmh 29.91 in1012.9 mb 0.00 in0.0 mm 0.00 in/hr0.0 mm/hr 0.23 in5.8 mm
12:32 PM 42.6°F5.9°C 38.7°F3.7°C 86% Calm Calm -- 29.91 in1012.9 mb 0.00 in0.0 mm 0.00 in/hr0.0 mm/hr 0.23 in5.8 mm
12:31 PM 42.7°F5.9°C 38.5°F3.6°C 85% Calm Calm 3.0 mph4.8 kmh 29.91 in1012.9 mb 0.00 in0.0 mm 0.00 in/hr0.0 mm/hr 0.23 in5.8 mm
12:30 PM 42.7°F5.9°C 39.1°F3.9°C 87% Calm Calm 3.0 mph4.8 kmh 29.91 in1012.9 mb 0.00 in0.0 mm 0.00 in/hr0.0 mm/hr 0.23 in5.8 mm
12:29 PM 42.7°F5.9°C 39.4°F4.1°C 88% Calm Calm 3.0 mph4.8 kmh 29.91 in1012.9 mb 0.00 in0.0 mm 0.00 in/hr0.0 mm/hr 0.23 in5.8 mm
12:28 PM 42.7°F5.9°C 39.4°F4.1°C 88% Calm Calm 3.0 mph4.8 kmh 29.91 in1012.9 mb 0.00 in0.0 mm 0.00 in/hr0.0 mm/hr 0.23 in5.8 mm
12:27 PM 42.7°F5.9°C 39.4°F4.1°C 88% Calm Calm 3.0 mph4.8 kmh 29.91 in1012.9 mb 0.00 in0.0 mm 0.00 in/hr0.0 mm/hr 0.23 in5.8 mm
12:26 PM 42.7°F5.9°C 39.4°F4.1°C 88% Calm Calm 3.0 mph4.8 kmh 29.91 in1012.9 mb 0.00 in0.0 mm 0.00 in/hr0.0 mm/hr 0.23 in5.8 mm
12:25 PM 42.6°F5.9°C 39.0°F3.9°C 87% Calm Calm 3.0 mph4.8 kmh 29.91 in1012.9 mb 0.00 in0.0 mm 0.00 in/hr0.0 mm/hr 0.23 in5.8 mm
12:24 PM 42.6°F5.9°C 39.3°F4.1°C 88% Calm Calm 3.0 mph4.8 kmh 29.91 in1012.9 mb 0.00 in0.0 mm 0.00 in/hr0.0 mm/hr 0.23 in5.8 mm
12:23 PM 42.5°F5.8°C 39.5°F4.2°C 89% Calm Calm 3.0 mph4.8 kmh 29.91 in1012.9 mb 0.00 in0.0 mm 0.00 in/hr0.0 mm/hr 0.23 in5.8 mm
12:22 PM 42.5°F5.8°C 39.5°F4.2°C 89% Calm Calm 3.0 mph4.8 kmh 29.91 in1012.9 mb 0.00 in0.0 mm 0.00 in/hr0.0 mm/hr 0.23 in5.8 mm
12:21 PM 42.4°F5.8°C 39.7°F4.3°C 90% Calm Calm 3.0 mph4.8 kmh 29.91 in1012.9 mb 0.00 in0.0 mm 0.00 in/hr0.0 mm/hr 0.23 in5.8 mm
12:20 PM 42.3°F5.7°C 39.3°F4.1°C 89% Calm Calm 3.0 mph4.8 kmh 29.91 in1012.9 mb 0.00 in0.0 mm 0.00 in/hr0.0 mm/hr 0.23 in5.8 mm
12:19 PM 42.2°F5.7°C 38.9°F3.8°C 88% Calm Calm 3.0 mph4.8 kmh 29.91 in1012.9 mb 0.00 in0.0 mm 0.00 in/hr0.0 mm/hr 0.23 in5.8 mm
12:18 PM 42.2°F5.7°C 38.9°F3.8°C 88% Calm Calm 3.0 mph4.8 kmh 29.91 in1012.9 mb 0.00 in0.0 mm 0.00 in/hr0.0 mm/hr 0.23 in5.8 mm
12:17 PM 42.2°F5.7°C 38.9°F3.8°C 88% 1.0 mph E1.6 kmh E 3.0 mph4.8 kmh 29.92 in1013.2 mb 0.00 in0.0 mm 0.00 in/hr0.0 mm/hr 0.23 in5.8 mm
12:16 PM 42.1°F5.6°C 39.1°F3.9°C 89% Calm Calm 3.0 mph4.8 kmh 29.91 in1012.9 mb 0.00 in0.0 mm 0.00 in/hr0.0 mm/hr 0.23 in5.8 mm
12:15 PM 42.1°F5.6°C 39.4°F4.1°C 90% Calm Calm 3.0 mph4.8 kmh 29.91 in1012.9 mb 0.00 in0.0 mm 0.00 in/hr0.0 mm/hr 0.23 in5.8 mm
12:14 PM 42.1°F5.6°C 39.4°F4.1°C 90% 1.0 mph E1.6 kmh E 3.0 mph4.8 kmh 29.91 in1012.9 mb 0.00 in0.0 mm 0.00 in/hr0.0 mm/hr 0.23 in5.8 mm
12:13 PM 42.0°F5.6°C 39.3°F4.1°C 90% Calm Calm 3.0 mph4.8 kmh 29.92 in1013.2 mb 0.00 in0.0 mm 0.00 in/hr0.0 mm/hr 0.23 in5.8 mm
12:12 PM 41.9°F5.5°C 39.2°F4.0°C 90% 1.0 mph E1.6 kmh E 3.0 mph4.8 kmh 29.92 in1013.2 mb 0.00 in0.0 mm 0.00 in/hr0.0 mm/hr 0.23 in5.8 mm
12:11 PM 41.9°F5.5°C 39.2°F4.0°C 90% 1.0 mph E1.6 kmh E 3.0 mph4.8 kmh 29.92 in1013.2 mb 0.00 in0.0 mm 0.00 in/hr0.0 mm/hr 0.23 in5.8 mm
12:10 PM 41.7°F5.4°C 39.0°F3.9°C 90% Calm Calm 3.0 mph4.8 kmh 29.92 in1013.2 mb 0.00 in0.0 mm 0.00 in/hr0.0 mm/hr 0.23 in5.8 mm
12:09 PM 41.6°F5.3°C 38.9°F3.8°C 90% Calm Calm 3.0 mph4.8 kmh 29.92 in1013.2 mb 0.00 in0.0 mm 0.00 in/hr0.0 mm/hr 0.23 in5.8 mm
12:08 PM 41.5°F5.3°C 39.1°F3.9°C 91% 1.0 mph NE1.6 kmh NE 3.0 mph4.8 kmh 29.92 in1013.2 mb 0.00 in0.0 mm 0.00 in/hr0.0 mm/hr 0.23 in5.8 mm
12:07 PM 41.4°F5.2°C 39.3°F4.1°C 92% 2.0 mph NE3.2 kmh NE 3.0 mph4.8 kmh 29.92 in1013.2 mb 0.00 in0.0 mm 0.00 in/hr0.0 mm/hr 0.23 in5.8 mm
12:06 PM 41.2°F5.1°C 39.1°F3.9°C 92% 2.0 mph N3.2 kmh N 3.0 mph4.8 kmh 29.92 in1013.2 mb 0.00 in0.0 mm 0.00 in/hr0.0 mm/hr 0.23 in5.8 mm
12:05 PM 41.0°F5.0°C 38.6°F3.7°C 91% 2.0 mph NNE3.2 kmh NNE 2.0 mph3.2 kmh 29.92 in1013.2 mb 0.00 in0.0 mm 0.00 in/hr0.0 mm/hr 0.23 in5.8 mm
12:04 PM 40.9°F4.9°C 38.5°F3.6°C 91% 1.0 mph N1.6 kmh N 2.0 mph3.2 kmh 29.92 in1013.2 mb 0.00 in0.0 mm 0.00 in/hr0.0 mm/hr 0.23 in5.8 mm
12:03 PM 40.8°F4.9°C 38.4°F3.6°C 91% 2.0 mph N3.2 kmh N 2.0 mph3.2 kmh 29.92 in1013.2 mb 0.00 in0.0 mm 0.00 in/hr0.0 mm/hr 0.23 in5.8 mm
12:02 PM 40.8°F4.9°C 38.4°F3.6°C 91% 1.0 mph N1.6 kmh N 1.0 mph1.6 kmh 29.92 in1013.2 mb 0.00 in0.0 mm 0.00 in/hr0.0 mm/hr 0.23 in5.8 mm
12:01 PM 40.7°F4.8°C 38.3°F3.5°C 91% 1.0 mph NNW1.6 kmh NNW 3.0 mph4.8 kmh 29.93 in1013.5 mb 0.00 in0.0 mm 0.00 in/hr0.0 mm/hr 0.23 in5.8 mm
12:00 PM 40.6°F4.8°C 38.2°F3.4°C 91% 2.0 mph N3.2 kmh N 3.0 mph4.8 kmh 29.93 in1013.5 mb 0.00 in0.0 mm 0.00 in/hr0.0 mm/hr 0.23 in5.8 mm
11:59 AM 40.6°F4.8°C 38.2°F3.4°C 91% 1.0 mph N1.6 kmh N 3.0 mph4.8 kmh 29.93 in1013.5 mb 0.00 in0.0 mm 0.00 in/hr0.0 mm/hr 0.23 in5.8 mm
11:58 AM 40.6°F4.8°C 38.2°F3.4°C 91% Calm Calm 3.0 mph4.8 kmh 29.93 in1013.5 mb 0.00 in0.0 mm 0.00 in/hr0.0 mm/hr 0.23 in5.8 mm
11:57 AM 40.6°F4.8°C 38.5°F3.6°C 92% 1.0 mph N1.6 kmh N 3.0 mph4.8 kmh 29.93 in1013.5 mb 0.00 in0.0 mm 0.00 in/hr0.0 mm/hr 0.23 in5.8 mm
11:56 AM 40.5°F4.7°C 38.4°F3.6°C 92% Calm Calm 3.0 mph4.8 kmh 29.93 in1013.5 mb 0.00 in0.0 mm 0.00 in/hr0.0 mm/hr 0.23 in5.8 mm
11:55 AM 40.4°F4.7°C 38.0°F3.3°C 91% Calm Calm 3.0 mph4.8 kmh 29.93 in1013.5 mb 0.00 in0.0 mm 0.00 in/hr0.0 mm/hr 0.23 in5.8 mm
11:54 AM 40.3°F4.6°C 37.9°F3.3°C 91% Calm Calm 3.0 mph4.8 kmh 29.93 in1013.5 mb 0.00 in0.0 mm 0.00 in/hr0.0 mm/hr 0.23 in5.8 mm
11:53 AM 40.3°F4.6°C 37.6°F3.1°C 90% Calm Calm 3.0 mph4.8 kmh 29.92 in1013.2 mb 0.00 in0.0 mm 0.00 in/hr0.0 mm/hr 0.23 in5.8 mm
11:52 AM 40.3°F4.6°C 37.6°F3.1°C 90% Calm Calm 3.0 mph4.8 kmh 29.93 in1013.5 mb 0.00 in0.0 mm 0.00 in/hr0.0 mm/hr 0.23 in5.8 mm
11:51 AM 40.3°F4.6°C 37.9°F3.3°C 91% Calm Calm 3.0 mph4.8 kmh 29.93 in1013.5 mb 0.00 in0.0 mm 0.00 in/hr0.0 mm/hr 0.23 in5.8 mm
11:50 AM 40.3°F4.6°C 37.9°F3.3°C 91% Calm Calm 3.0 mph4.8 kmh 29.93 in1013.5 mb 0.00 in0.0 mm 0.00 in/hr0.0 mm/hr 0.23 in5.8 mm
11:49 AM 40.3°F4.6°C 37.9°F3.3°C 91% Calm Calm 3.0 mph4.8 kmh 29.93 in1013.5 mb 0.00 in0.0 mm 0.00 in/hr0.0 mm/hr 0.23 in5.8 mm
11:48 AM 40.4°F4.7°C 38.0°F3.3°C 91% 1.0 mph N1.6 kmh N 3.0 mph4.8 kmh 29.93 in1013.5 mb 0.00 in0.0 mm 0.00 in/hr0.0 mm/hr 0.23 in5.8 mm
11:47 AM 40.4°F4.7°C 38.0°F3.3°C 91% Calm Calm 3.0 mph4.8 kmh 29.93 in1013.5 mb 0.00 in0.0 mm 0.00 in/hr0.0 mm/hr 0.23 in5.8 mm
11:46 AM 40.4°F4.7°C 38.0°F3.3°C 91% Calm Calm 3.0 mph4.8 kmh 29.93 in1013.5 mb 0.00 in0.0 mm 0.00 in/hr0.0 mm/hr 0.23 in5.8 mm
11:45 AM 40.5°F4.7°C 38.1°F3.4°C 91% Calm Calm 3.0 mph4.8 kmh 29.93 in1013.5 mb 0.00 in0.0 mm 0.00 in/hr0.0 mm/hr 0.23 in5.8 mm
11:44 AM 40.5°F4.7°C 38.1°F3.4°C 91% Calm Calm 3.0 mph4.8 kmh 29.93 in1013.5 mb 0.00 in0.0 mm 0.00 in/hr0.0 mm/hr 0.23 in5.8 mm
11:43 AM 40.6°F4.8°C 38.2°F3.4°C 91% Calm Calm 3.0 mph4.8 kmh 29.93 in1013.5 mb 0.00 in0.0 mm 0.00 in/hr0.0 mm/hr 0.23 in5.8 mm
11:42 AM 40.7°F4.8°C 38.0°F3.3°C 90% Calm Calm 3.0 mph4.8 kmh 29.93 in1013.5 mb 0.00 in0.0 mm 0.00 in/hr0.0 mm/hr 0.23 in5.8 mm
11:41 AM 40.8°F4.9°C 38.4°F3.6°C 91% Calm Calm 3.0 mph4.8 kmh 29.93 in1013.5 mb 0.00 in0.0 mm 0.00 in/hr0.0 mm/hr 0.23 in5.8 mm
11:40 AM 41.0°F5.0°C 38.6°F3.7°C 91% 1.0 mph N1.6 kmh N 3.0 mph4.8 kmh 29.93 in1013.5 mb 0.00 in0.0 mm 0.00 in/hr0.0 mm/hr 0.23 in5.8 mm
11:39 AM 41.1°F5.1°C 39.0°F3.9°C 92% 1.0 mph NNW1.6 kmh NNW 3.0 mph4.8 kmh 29.93 in1013.5 mb 0.00 in0.0 mm 0.00 in/hr0.0 mm/hr 0.23 in5.8 mm
11:38 AM 41.2°F5.1°C 39.3°F4.1°C 93% 2.0 mph NNE3.2 kmh NNE 3.0 mph4.8 kmh 29.93 in1013.5 mb 0.00 in0.0 mm 0.00 in/hr0.0 mm/hr 0.23 in5.8 mm
11:37 AM 41.3°F5.2°C 39.4°F4.1°C 93% 2.0 mph N3.2 kmh N 3.0 mph4.8 kmh 29.93 in1013.5 mb 0.00 in0.0 mm 0.00 in/hr0.0 mm/hr 0.23 in5.8 mm
11:36 AM 41.5°F5.3°C 39.9°F4.4°C 94% Calm Calm 2.0 mph3.2 kmh 29.93 in1013.5 mb 0.00 in0.0 mm 0.00 in/hr0.0 mm/hr 0.23 in5.8 mm
11:35 AM 41.4°F5.2°C 40.1°F4.5°C 95% Calm Calm 2.0 mph3.2 kmh 29.93 in1013.5 mb 0.00 in0.0 mm 0.00 in/hr0.0 mm/hr 0.23 in5.8 mm
11:34 AM 41.3°F5.2°C 40.0°F4.4°C 95% Calm Calm 2.0 mph3.2 kmh 29.93 in1013.5 mb 0.00 in0.0 mm 0.00 in/hr0.0 mm/hr 0.23 in5.8 mm
11:33 AM 41.2°F5.1°C 39.9°F4.4°C 95% Calm Calm 2.0 mph3.2 kmh 29.93 in1013.5 mb 0.00 in0.0 mm 0.00 in/hr0.0 mm/hr 0.23 in5.8 mm
11:32 AM 41.1°F5.1°C 39.8°F4.3°C 95% 1.0 mph ENE1.6 kmh ENE 1.0 mph1.6 kmh 29.93 in1013.5 mb 0.00 in0.0 mm 0.00 in/hr0.0 mm/hr 0.23 in5.8 mm
11:31 AM 40.8°F4.9°C 39.5°F4.2°C 95% Calm Calm 2.0 mph3.2 kmh 29.93 in1013.5 mb 0.01 in0.3 mm 0.00 in/hr0.0 mm/hr 0.23 in5.8 mm
11:30 AM 40.6°F4.8°C 39.3°F4.1°C 95% Calm Calm 2.0 mph3.2 kmh 29.93 in1013.5 mb 0.01 in0.3 mm 0.00 in/hr0.0 mm/hr 0.23 in5.8 mm
11:29 AM 40.3°F4.6°C 39.0°F3.9°C 95% Calm Calm 2.0 mph3.2 kmh 29.93 in1013.5 mb 0.01 in0.3 mm 0.00 in/hr0.0 mm/hr 0.23 in5.8 mm
11:28 AM 40.1°F4.5°C 38.8°F3.8°C 95% Calm Calm 2.0 mph3.2 kmh 29.93 in1013.5 mb 0.01 in0.3 mm 0.00 in/hr0.0 mm/hr 0.23 in5.8 mm
11:27 AM 39.8°F4.3°C 38.2°F3.4°C 94% Calm Calm 2.0 mph3.2 kmh 29.93 in1013.5 mb 0.01 in0.3 mm 0.00 in/hr0.0 mm/hr 0.23 in5.8 mm
11:26 AM 39.6°F4.2°C 38.0°F3.3°C 94% Calm Calm 2.0 mph3.2 kmh 29.93 in1013.5 mb 0.01 in0.3 mm 0.00 in/hr0.0 mm/hr 0.23 in5.8 mm
11:25 AM 39.5°F4.2°C 37.9°F3.3°C 94% Calm Calm 2.0 mph3.2 kmh 29.93 in1013.5 mb 0.01 in0.3 mm 0.00 in/hr0.0 mm/hr 0.23 in5.8 mm
11:24 AM 39.5°F4.2°C 38.2°F3.4°C 95% Calm Calm 2.0 mph3.2 kmh 29.93 in1013.5 mb 0.01 in0.3 mm 0.00 in/hr0.0 mm/hr 0.23 in5.8 mm
11:23 AM 39.4°F4.1°C 38.1°F3.4°C 95% Calm Calm 2.0 mph3.2 kmh 29.93 in1013.5 mb 0.01 in0.3 mm 0.00 in/hr0.0 mm/hr 0.23 in5.8 mm
11:22 AM 39.3°F4.1°C 37.7°F3.2°C 94% 1.0 mph ENE1.6 kmh ENE 2.0 mph3.2 kmh 29.93 in1013.5 mb 0.01 in0.3 mm 0.00 in/hr0.0 mm/hr 0.23 in5.8 mm
11:21 AM 39.2°F4.0°C 37.6°F3.1°C 94% Calm Calm 2.0 mph3.2 kmh 29.92 in1013.2 mb 0.01 in0.3 mm 0.00 in/hr0.0 mm/hr 0.23 in5.8 mm
11:20 AM 39.2°F4.0°C 37.6°F3.1°C 94% Calm Calm 2.0 mph3.2 kmh 29.92 in1013.2 mb 0.01 in0.3 mm 0.00 in/hr0.0 mm/hr 0.23 in5.8 mm
11:19 AM 39.2°F4.0°C 37.6°F3.1°C 94% Calm Calm 2.0 mph3.2 kmh 29.93 in1013.5 mb 0.01 in0.3 mm 0.00 in/hr0.0 mm/hr 0.23 in5.8 mm
11:18 AM 39.2°F4.0°C 37.9°F3.3°C 95% 1.0 mph ENE1.6 kmh ENE 2.0 mph3.2 kmh 29.93 in1013.5 mb 0.01 in0.3 mm 0.00 in/hr0.0 mm/hr 0.23 in5.8 mm
11:17 AM 39.2°F4.0°C 37.9°F3.3°C 95% Calm Calm 1.0 mph1.6 kmh 29.93 in1013.5 mb 0.01 in0.3 mm 0.00 in/hr0.0 mm/hr 0.23 in5.8 mm
11:16 AM 39.2°F4.0°C 37.9°F3.3°C 95% Calm Calm 1.0 mph1.6 kmh 29.93 in1013.5 mb 0.01 in0.3 mm 0.00 in/hr0.0 mm/hr 0.23 in5.8 mm
11:15 AM 39.1°F3.9°C 37.8°F3.2°C 95% Calm Calm 1.0 mph1.6 kmh 29.93 in1013.5 mb 0.01 in0.3 mm 0.00 in/hr0.0 mm/hr 0.23 in5.8 mm
11:14 AM 39.1°F3.9°C 37.8°F3.2°C 95% Calm Calm 1.0 mph1.6 kmh 29.93 in1013.5 mb 0.01 in0.3 mm 0.00 in/hr0.0 mm/hr 0.23 in5.8 mm
11:13 AM 39.0°F3.9°C 37.7°F3.2°C 95% Calm Calm 1.0 mph1.6 kmh 29.93 in1013.5 mb 0.01 in0.3 mm 0.00 in/hr0.0 mm/hr 0.23 in5.8 mm
11:12 AM 38.9°F3.8°C 37.6°F3.1°C 95% Calm Calm 1.0 mph1.6 kmh 29.93 in1013.5 mb 0.01 in0.3 mm 0.00 in/hr0.0 mm/hr 0.23 in5.8 mm
11:11 AM 38.9°F3.8°C 37.6°F3.1°C 95% Calm Calm 1.0 mph1.6 kmh 29.93 in1013.5 mb 0.01 in0.3 mm 0.00 in/hr0.0 mm/hr 0.23 in5.8 mm
11:10 AM 38.8°F3.8°C 37.5°F3.1°C 95% Calm Calm 1.0 mph1.6 kmh 29.93 in1013.5 mb 0.01 in0.3 mm 0.00 in/hr0.0 mm/hr 0.23 in5.8 mm
11:09 AM 38.8°F3.8°C 37.5°F3.1°C 95% Calm Calm 1.0 mph1.6 kmh 29.93 in1013.5 mb 0.01 in0.3 mm 0.00 in/hr0.0 mm/hr 0.23 in5.8 mm
11:08 AM 38.8°F3.8°C 37.5°F3.1°C 95% Calm Calm 1.0 mph1.6 kmh 29.93 in1013.5 mb 0.01 in0.3 mm 0.00 in/hr0.0 mm/hr 0.23 in5.8 mm
11:07 AM 38.8°F3.8°C 37.5°F3.1°C 95% Calm Calm 1.0 mph1.6 kmh 29.93 in1013.5 mb 0.01 in0.3 mm 0.00 in/hr0.0 mm/hr 0.23 in5.8 mm
11:06 AM 38.9°F3.8°C 37.6°F3.1°C 95% Calm Calm -- 29.93 in1013.5 mb 0.01 in0.3 mm 0.00 in/hr0.0 mm/hr 0.23 in5.8 mm
11:05 AM 38.9°F3.8°C 37.6°F3.1°C 95% Calm Calm -- 29.92 in1013.2 mb 0.01 in0.3 mm 0.00 in/hr0.0 mm/hr 0.23 in5.8 mm
11:04 AM 38.9°F3.8°C 37.6°F3.1°C 95% Calm Calm -- 29.92 in1013.2 mb 0.01 in0.3 mm 0.00 in/hr0.0 mm/hr 0.23 in5.8 mm
11:03 AM 38.9°F3.8°C 37.6°F3.1°C 95% Calm Calm -- 29.92 in1013.2 mb 0.01 in0.3 mm 0.00 in/hr0.0 mm/hr 0.23 in5.8 mm
11:02 AM 38.9°F3.8°C 37.6°F3.1°C 95% Calm Calm -- 29.92 in1013.2 mb 0.01 in0.3 mm 0.00 in/hr0.0 mm/hr 0.23 in5.8 mm
11:01 AM 38.9°F3.8°C 37.6°F3.1°C 95% Calm Calm 2.0 mph3.2 kmh 29.92 in1013.2 mb 0.01 in0.3 mm 0.00 in/hr0.0 mm/hr 0.23 in5.8 mm
11:00 AM 39.0°F3.9°C 37.7°F3.2°C 95% Calm Calm 2.0 mph3.2 kmh 29.92 in1013.2 mb 0.01 in0.3 mm 0.00 in/hr0.0 mm/hr 0.23 in5.8 mm
10:59 AM 39.0°F3.9°C 37.7°F3.2°C 95% 1.0 mph ENE1.6 kmh ENE 2.0 mph3.2 kmh 29.93 in1013.5 mb 0.01 in0.3 mm 0.00 in/hr0.0 mm/hr 0.23 in5.8 mm
10:58 AM 38.9°F3.8°C 37.6°F3.1°C 95% Calm Calm 2.0 mph3.2 kmh 29.93 in1013.5 mb 0.01 in0.3 mm 0.00 in/hr0.0 mm/hr 0.23 in5.8 mm
10:57 AM 38.8°F3.8°C 37.2°F2.9°C 94% Calm Calm 2.0 mph3.2 kmh 29.93 in1013.5 mb 0.01 in0.3 mm 0.00 in/hr0.0 mm/hr 0.23 in5.8 mm
10:56 AM 38.8°F3.8°C 37.5°F3.1°C 95% Calm Calm 2.0 mph3.2 kmh 29.93 in1013.5 mb 0.01 in0.3 mm 0.00 in/hr0.0 mm/hr 0.23 in5.8 mm
10:55 AM 39.0°F3.9°C 37.7°F3.2°C 95% Calm Calm 2.0 mph3.2 kmh 29.93 in1013.5 mb 0.01 in0.3 mm 0.00 in/hr0.0 mm/hr 0.23 in5.8 mm
10:54 AM 39.2°F4.0°C 37.9°F3.3°C 95% 1.0 mph NE1.6 kmh NE 2.0 mph3.2 kmh 29.93 in1013.5 mb 0.01 in0.3 mm 0.00 in/hr0.0 mm/hr 0.23 in5.8 mm
10:53 AM 39.4°F4.1°C 38.4°F3.6°C 96% Calm Calm 2.0 mph3.2 kmh 29.93 in1013.5 mb 0.01 in0.3 mm 0.00 in/hr0.0 mm/hr 0.23 in5.8 mm
10:52 AM 39.6°F4.2°C 38.6°F3.7°C 96% 1.0 mph NE1.6 kmh NE 2.0 mph3.2 kmh 29.93 in1013.5 mb 0.01 in0.3 mm 0.00 in/hr0.0 mm/hr 0.23 in5.8 mm
10:51 AM 39.7°F4.3°C 38.7°F3.7°C 96% Calm Calm 2.0 mph3.2 kmh 29.93 in1013.5 mb 0.01 in0.3 mm 0.00 in/hr0.0 mm/hr 0.23 in5.8 mm
10:50 AM 39.7°F4.3°C 38.9°F3.8°C 97% Calm Calm 2.0 mph3.2 kmh 29.93 in1013.5 mb 0.01 in0.3 mm 0.00 in/hr0.0 mm/hr 0.23 in5.8 mm
10:49 AM 39.8°F4.3°C 39.0°F3.9°C 97% Calm Calm 2.0 mph3.2 kmh 29.93 in1013.5 mb 0.01 in0.3 mm 0.00 in/hr0.0 mm/hr 0.23 in5.8 mm
10:48 AM 39.8°F4.3°C 39.0°F3.9°C 97% Calm Calm 2.0 mph3.2 kmh 29.93 in1013.5 mb 0.01 in0.3 mm 0.00 in/hr0.0 mm/hr 0.23 in5.8 mm
10:47 AM 39.8°F4.3°C 39.0°F3.9°C 97% Calm Calm 2.0 mph3.2 kmh 29.93 in1013.5 mb 0.01 in0.3 mm 0.00 in/hr0.0 mm/hr 0.23 in5.8 mm
10:46 AM 39.9°F4.4°C 39.1°F3.9°C 97% Calm Calm 2.0 mph3.2 kmh 29.93 in1013.5 mb 0.01 in0.3 mm 0.00 in/hr0.0 mm/hr 0.23 in5.8 mm
10:45 AM 40.0°F4.4°C 39.2°F4.0°C 97% Calm Calm 2.0 mph3.2 kmh 29.93 in1013.5 mb 0.01 in0.3 mm 0.00 in/hr0.0 mm/hr 0.23 in5.8 mm
10:44 AM 39.9°F4.4°C 39.1°F3.9°C 97% Calm Calm 2.0 mph3.2 kmh 29.93 in1013.5 mb 0.01 in0.3 mm 0.00 in/hr0.0 mm/hr 0.23 in5.8 mm
10:43 AM 39.9°F4.4°C 39.1°F3.9°C 97% Calm Calm 2.0 mph3.2 kmh 29.93 in1013.5 mb 0.01 in0.3 mm 0.00 in/hr0.0 mm/hr 0.23 in5.8 mm
10:42 AM 39.9°F4.4°C 39.1°F3.9°C 97% Calm Calm 2.0 mph3.2 kmh 29.93 in1013.5 mb 0.01 in0.3 mm 0.00 in/hr0.0 mm/hr 0.23 in5.8 mm
10:41 AM 39.7°F4.3°C 39.2°F4.0°C 98% Calm Calm 2.0 mph3.2 kmh 29.93 in1013.5 mb 0.01 in0.3 mm 0.00 in/hr0.0 mm/hr 0.23 in5.8 mm
10:40 AM 39.6°F4.2°C 38.8°F3.8°C 97% Calm Calm 2.0 mph3.2 kmh 29.93 in1013.5 mb 0.01 in0.3 mm 0.00 in/hr0.0 mm/hr 0.23 in5.8 mm
10:39 AM 39.4°F4.1°C 38.6°F3.7°C 97% Calm Calm 2.0 mph3.2 kmh 29.93 in1013.5 mb 0.01 in0.3 mm 0.00 in/hr0.0 mm/hr 0.23 in5.8 mm
10:38 AM 39.0°F3.9°C 38.2°F3.4°C 97% Calm Calm 2.0 mph3.2 kmh 29.93 in1013.5 mb 0.01 in0.3 mm 0.00 in/hr0.0 mm/hr 0.23 in5.8 mm
10:37 AM 38.5°F3.6°C 37.7°F3.2°C 97% Calm Calm 2.0 mph3.2 kmh 29.93 in1013.5 mb 0.01 in0.3 mm 0.00 in/hr0.0 mm/hr 0.23 in5.8 mm
10:36 AM 38.3°F3.5°C 37.5°F3.1°C 97% Calm Calm 2.0 mph3.2 kmh 29.93 in1013.5 mb 0.01 in0.3 mm 0.00 in/hr0.0 mm/hr 0.23 in5.8 mm
10:35 AM 38.1°F3.4°C 37.3°F2.9°C 97% 1.0 mph SE1.6 kmh SE 2.0 mph3.2 kmh 29.93 in1013.5 mb 0.01 in0.3 mm 0.00 in/hr0.0 mm/hr 0.23 in5.8 mm
10:34 AM 38.0°F3.3°C 37.2°F2.9°C 97% 1.0 mph SE1.6 kmh SE 2.0 mph3.2 kmh 29.93 in1013.5 mb 0.01 in0.3 mm 0.00 in/hr0.0 mm/hr 0.23 in5.8 mm
10:33 AM 37.9°F3.3°C 37.1°F2.8°C 97% 2.0 mph ESE3.2 kmh ESE 2.0 mph3.2 kmh 29.93 in1013.5 mb 0.01 in0.3 mm 0.00 in/hr0.0 mm/hr 0.23 in5.8 mm
10:32 AM 37.7°F3.2°C 36.9°F2.7°C 97% Calm Calm 1.0 mph1.6 kmh 29.93 in1013.5 mb 0.01 in0.3 mm 0.00 in/hr0.0 mm/hr 0.23 in5.8 mm
10:31 AM 37.6°F3.1°C 36.8°F2.7°C 97% 1.0 mph ESE1.6 kmh ESE 3.0 mph4.8 kmh 29.93 in1013.5 mb 0.01 in0.3 mm 0.60 in/hr15.2 mm/hr 0.23 in5.8 mm
10:30 AM 37.5°F3.1°C 36.7°F2.6°C 97% 1.0 mph ESE1.6 kmh ESE 2.0 mph3.2 kmh 29.93 in1013.5 mb 0.00 in0.0 mm 0.00 in/hr0.0 mm/hr 0.22 in5.6 mm
10:29 AM 37.5°F3.1°C 36.7°F2.6°C 97% Calm Calm 2.0 mph3.2 kmh 29.93 in1013.5 mb 0.00 in0.0 mm 0.00 in/hr0.0 mm/hr 0.22 in5.6 mm
10:28 AM 37.6°F3.1°C 36.8°F2.7°C 97% 1.0 mph ENE1.6 kmh ENE 2.0 mph3.2 kmh 29.93 in1013.5 mb 0.00 in0.0 mm 0.00 in/hr0.0 mm/hr 0.22 in5.6 mm
10:27 AM 37.7°F3.2°C 36.9°F2.7°C 97% Calm Calm 2.0 mph3.2 kmh 29.93 in1013.5 mb 0.00 in0.0 mm 0.00 in/hr0.0 mm/hr 0.22 in5.6 mm
10:26 AM 37.8°F3.2°C 37.0°F2.8°C 97% Calm Calm 2.0 mph3.2 kmh 29.93 in1013.5 mb 0.00 in0.0 mm 0.00 in/hr0.0 mm/hr 0.22 in5.6 mm
10:25 AM 37.7°F3.2°C 36.9°F2.7°C 97% Calm Calm 2.0 mph3.2 kmh 29.93 in1013.5 mb 0.00 in0.0 mm 0.00 in/hr0.0 mm/hr 0.22 in5.6 mm
10:24 AM 37.7°F3.2°C 36.9°F2.7°C 97% Calm Calm 2.0 mph3.2 kmh 29.93 in1013.5 mb 0.00 in0.0 mm 0.00 in/hr0.0 mm/hr 0.22 in5.6 mm
10:23 AM 37.6°F3.1°C 36.8°F2.7°C 97% Calm Calm 2.0 mph3.2 kmh 29.93 in1013.5 mb 0.00 in0.0 mm 0.00 in/hr0.0 mm/hr 0.22 in5.6 mm
10:22 AM 37.7°F3.2°C 36.9°F2.7°C 97% 1.0 mph N1.6 kmh N 2.0 mph3.2 kmh 29.93 in1013.5 mb 0.00 in0.0 mm 0.00 in/hr0.0 mm/hr 0.22 in5.6 mm
10:21 AM 37.8°F3.2°C 37.3°F2.9°C 98% Calm Calm 2.0 mph3.2 kmh 29.93 in1013.5 mb 0.00 in0.0 mm 0.00 in/hr0.0 mm/hr 0.22 in5.6 mm
10:20 AM 37.8°F3.2°C 37.3°F2.9°C 98% Calm Calm 2.0 mph3.2 kmh 29.93 in1013.5 mb 0.00 in0.0 mm 0.00 in/hr0.0 mm/hr 0.22 in5.6 mm
10:19 AM 37.7°F3.2°C 37.2°F2.9°C 98% Calm Calm 2.0 mph3.2 kmh 29.93 in1013.5 mb 0.00 in0.0 mm 0.00 in/hr0.0 mm/hr 0.22 in5.6 mm
10:18 AM 37.6°F3.1°C 37.1°F2.8°C 98% Calm Calm 2.0 mph3.2 kmh 29.93 in1013.5 mb 0.00 in0.0 mm 0.00 in/hr0.0 mm/hr 0.22 in5.6 mm
10:17 AM 37.5°F3.1°C 36.7°F2.6°C 97% Calm Calm 2.0 mph3.2 kmh 29.93 in1013.5 mb 0.00 in0.0 mm 0.00 in/hr0.0 mm/hr 0.22 in5.6 mm
10:16 AM 37.3°F2.9°C 36.5°F2.5°C 97% Calm Calm 2.0 mph3.2 kmh 29.93 in1013.5 mb 0.00 in0.0 mm 0.00 in/hr0.0 mm/hr 0.22 in5.6 mm
10:15 AM 37.1°F2.8°C 36.3°F2.4°C 97% Calm Calm 2.0 mph3.2 kmh 29.93 in1013.5 mb 0.00 in0.0 mm 0.00 in/hr0.0 mm/hr 0.22 in5.6 mm
10:14 AM 37.0°F2.8°C 36.2°F2.3°C 97% Calm Calm 2.0 mph3.2 kmh 29.93 in1013.5 mb 0.00 in0.0 mm 0.00 in/hr0.0 mm/hr 0.22 in5.6 mm
10:13 AM 36.9°F2.7°C 36.1°F2.3°C 97% 1.0 mph NNW1.6 kmh NNW 2.0 mph3.2 kmh 29.93 in1013.5 mb 0.00 in0.0 mm 0.00 in/hr0.0 mm/hr 0.22 in5.6 mm
10:12 AM 36.9°F2.7°C 36.1°F2.3°C 97% Calm Calm 2.0 mph3.2 kmh 29.93 in1013.5 mb 0.00 in0.0 mm 0.00 in/hr0.0 mm/hr 0.22 in5.6 mm
10:11 AM 36.9°F2.7°C 36.1°F2.3°C 97% 1.0 mph NNE1.6 kmh NNE 1.0 mph1.6 kmh 29.93 in1013.5 mb 0.00 in0.0 mm 0.00 in/hr0.0 mm/hr 0.22 in5.6 mm
10:10 AM 36.9°F2.7°C 36.1°F2.3°C 97% Calm Calm -- 29.93 in1013.5 mb 0.00 in0.0 mm 0.00 in/hr0.0 mm/hr 0.22 in5.6 mm
10:09 AM 37.0°F2.8°C 36.2°F2.3°C 97% Calm Calm -- 29.93 in1013.5 mb 0.00 in0.0 mm 0.00 in/hr0.0 mm/hr 0.22 in5.6 mm
10:08 AM 37.0°F2.8°C 36.2°F2.3°C 97% Calm Calm -- 29.93 in1013.5 mb 0.00 in0.0 mm 0.00 in/hr0.0 mm/hr 0.22 in5.6 mm
10:07 AM 37.0°F2.8°C 36.2°F2.3°C 97% Calm Calm -- 29.93 in1013.5 mb 0.00 in0.0 mm 0.00 in/hr0.0 mm/hr 0.22 in5.6 mm
10:06 AM 37.0°F2.8°C 36.2°F2.3°C 97% Calm Calm -- 29.93 in1013.5 mb 0.00 in0.0 mm 0.00 in/hr0.0 mm/hr 0.22 in5.6 mm
10:05 AM 37.0°F2.8°C 36.5°F2.5°C 98% Calm Calm -- 29.93 in1013.5 mb 0.00 in0.0 mm 0.00 in/hr0.0 mm/hr 0.22 in5.6 mm
10:04 AM 37.0°F2.8°C 36.5°F2.5°C 98% Calm Calm -- 29.93 in1013.5 mb 0.00 in0.0 mm 0.00 in/hr0.0 mm/hr 0.22 in5.6 mm
10:03 AM 37.1°F2.8°C 36.6°F2.6°C 98% Calm Calm -- 29.93 in1013.5 mb 0.00 in0.0 mm 0.00 in/hr0.0 mm/hr 0.22 in5.6 mm
10:02 AM 37.1°F2.8°C 36.6°F2.6°C 98% Calm Calm -- 29.93 in1013.5 mb 0.00 in0.0 mm 0.00 in/hr0.0 mm/hr 0.22 in5.6 mm
10:01 AM 37.2°F2.9°C 36.7°F2.6°C 98% Calm Calm 2.0 mph3.2 kmh 29.93 in1013.5 mb 0.01 in0.3 mm 0.00 in/hr0.0 mm/hr 0.22 in5.6 mm
10:00 AM 37.3°F2.9°C 36.8°F2.7°C 98% Calm Calm 2.0 mph3.2 kmh 29.93 in1013.5 mb 0.01 in0.3 mm 0.00 in/hr0.0 mm/hr 0.22 in5.6 mm
09:59 AM 37.3°F2.9°C 36.8°F2.7°C 98% Calm Calm 2.0 mph3.2 kmh 29.93 in1013.5 mb 0.01 in0.3 mm 0.00 in/hr0.0 mm/hr 0.22 in5.6 mm
09:58 AM 37.3°F2.9°C 36.8°F2.7°C 98% Calm Calm 2.0 mph3.2 kmh 29.93 in1013.5 mb 0.01 in0.3 mm 0.00 in/hr0.0 mm/hr 0.22 in5.6 mm
09:57 AM 37.3°F2.9°C 36.8°F2.7°C 98% 1.0 mph ESE1.6 kmh ESE 2.0 mph3.2 kmh 29.93 in1013.5 mb 0.01 in0.3 mm 0.00 in/hr0.0 mm/hr 0.22 in5.6 mm
09:56 AM 37.3°F2.9°C 36.8°F2.7°C 98% 1.0 mph SE1.6 kmh SE 2.0 mph3.2 kmh 29.93 in1013.5 mb 0.01 in0.3 mm 0.00 in/hr0.0 mm/hr 0.22 in5.6 mm
09:55 AM 37.3°F2.9°C 36.8°F2.7°C 98% Calm Calm 2.0 mph3.2 kmh 29.93 in1013.5 mb 0.01 in0.3 mm 0.00 in/hr0.0 mm/hr 0.22 in5.6 mm
09:54 AM 37.3°F2.9°C 36.8°F2.7°C 98% Calm Calm 2.0 mph3.2 kmh 29.93 in1013.5 mb 0.01 in0.3 mm 0.00 in/hr0.0 mm/hr 0.22 in5.6 mm
09:53 AM 37.0°F2.8°C 36.5°F2.5°C 98% Calm Calm 2.0 mph3.2 kmh 29.93 in1013.5 mb 0.01 in0.3 mm 0.00 in/hr0.0 mm/hr 0.22 in5.6 mm
09:52 AM 36.9°F2.7°C 36.1°F2.3°C 97% Calm Calm 2.0 mph3.2 kmh 29.93 in1013.5 mb 0.01 in0.3 mm 0.00 in/hr0.0 mm/hr 0.22 in5.6 mm
09:51 AM 36.6°F2.6°C 35.8°F2.1°C 97% 1.0 mph E1.6 kmh E 2.0 mph3.2 kmh 29.93 in1013.5 mb 0.01 in0.3 mm 0.00 in/hr0.0 mm/hr 0.22 in5.6 mm
09:50 AM 36.4°F2.4°C 35.6°F2.0°C 97% Calm Calm 2.0 mph3.2 kmh 29.93 in1013.5 mb 0.01 in0.3 mm 0.00 in/hr0.0 mm/hr 0.22 in5.6 mm
09:49 AM 36.4°F2.4°C 35.6°F2.0°C 97% Calm Calm 2.0 mph3.2 kmh 29.93 in1013.5 mb 0.01 in0.3 mm 0.00 in/hr0.0 mm/hr 0.22 in5.6 mm
09:48 AM 36.3°F2.4°C 35.5°F1.9°C 97% Calm Calm 2.0 mph3.2 kmh 29.93 in1013.5 mb 0.01 in0.3 mm 0.00 in/hr0.0 mm/hr 0.22 in5.6 mm
09:47 AM 36.3°F2.4°C 35.5°F1.9°C 97% 2.0 mph N3.2 kmh N 2.0 mph3.2 kmh 29.92 in1013.2 mb 0.01 in0.3 mm 0.00 in/hr0.0 mm/hr 0.22 in5.6 mm
09:46 AM 36.3°F2.4°C 35.5°F1.9°C 97% Calm Calm 1.0 mph1.6 kmh 29.93 in1013.5 mb 0.01 in0.3 mm 0.00 in/hr0.0 mm/hr 0.22 in5.6 mm
09:45 AM 36.2°F2.3°C 35.4°F1.9°C 97% Calm Calm 1.0 mph1.6 kmh 29.92 in1013.2 mb 0.01 in0.3 mm 0.00 in/hr0.0 mm/hr 0.22 in5.6 mm
09:44 AM 36.2°F2.3°C 35.4°F1.9°C 97% Calm Calm 1.0 mph1.6 kmh 29.92 in1013.2 mb 0.01 in0.3 mm 0.00 in/hr0.0 mm/hr 0.22 in5.6 mm
09:43 AM 36.1°F2.3°C 35.3°F1.8°C 97% Calm Calm 1.0 mph1.6 kmh 29.92 in1013.2 mb 0.01 in0.3 mm 0.00 in/hr0.0 mm/hr 0.22 in5.6 mm
09:42 AM 36.1°F2.3°C 35.3°F1.8°C 97% Calm Calm 1.0 mph1.6 kmh 29.92 in1013.2 mb 0.01 in0.3 mm 0.00 in/hr0.0 mm/hr 0.22 in5.6 mm
09:41 AM 36.1°F2.3°C 35.3°F1.8°C 97% Calm Calm 1.0 mph1.6 kmh 29.92 in1013.2 mb 0.01 in0.3 mm 0.00 in/hr0.0 mm/hr 0.22 in5.6 mm
09:40 AM 36.1°F2.3°C 35.3°F1.8°C 97% Calm Calm 1.0 mph1.6 kmh 29.92 in1013.2 mb 0.01 in0.3 mm 0.00 in/hr0.0 mm/hr 0.22 in5.6 mm
09:39 AM 36.2°F2.3°C 35.4°F1.9°C 97% Calm Calm 1.0 mph1.6 kmh 29.92 in1013.2 mb 0.01 in0.3 mm 0.00 in/hr0.0 mm/hr 0.22 in5.6 mm
09:38 AM 36.2°F2.3°C 35.4°F1.9°C 97% Calm Calm 1.0 mph1.6 kmh 29.92 in1013.2 mb 0.01 in0.3 mm 0.00 in/hr0.0 mm/hr 0.22 in5.6 mm
09:37 AM 36.3°F2.4°C 35.5°F1.9°C 97% Calm Calm 1.0 mph1.6 kmh 29.92 in1013.2 mb 0.01 in0.3 mm 0.00 in/hr0.0 mm/hr 0.22 in5.6 mm
09:36 AM 36.3°F2.4°C 35.5°F1.9°C 97% Calm Calm 1.0 mph1.6 kmh 29.92 in1013.2 mb 0.01 in0.3 mm 0.00 in/hr0.0 mm/hr 0.22 in5.6 mm
09:35 AM 36.3°F2.4°C 35.5°F1.9°C 97% Calm Calm 1.0 mph1.6 kmh 29.92 in1013.2 mb 0.01 in0.3 mm 0.00 in/hr0.0 mm/hr 0.22 in5.6 mm
09:34 AM 36.2°F2.3°C 35.4°F1.9°C 97% Calm Calm 1.0 mph1.6 kmh 29.92 in1013.2 mb 0.01 in0.3 mm 0.00 in/hr0.0 mm/hr 0.22 in5.6 mm
09:33 AM 36.3°F2.4°C 35.5°F1.9°C 97% Calm Calm 1.0 mph1.6 kmh 29.92 in1013.2 mb 0.01 in0.3 mm 0.00 in/hr0.0 mm/hr 0.22 in5.6 mm
09:32 AM 36.3°F2.4°C 35.5°F1.9°C 97% Calm Calm -- 29.92 in1013.2 mb 0.01 in0.3 mm 0.00 in/hr0.0 mm/hr 0.22 in5.6 mm
09:31 AM 36.3°F2.4°C 35.5°F1.9°C 97% Calm Calm 2.0 mph3.2 kmh 29.92 in1013.2 mb 0.02 in0.5 mm 0.00 in/hr0.0 mm/hr 0.22 in5.6 mm
09:30 AM 36.4°F2.4°C 35.6°F2.0°C 97% 1.0 mph ESE1.6 kmh ESE 2.0 mph3.2 kmh 29.92 in1013.2 mb 0.02 in0.5 mm 0.00 in/hr0.0 mm/hr 0.22 in5.6 mm
09:29 AM 36.3°F2.4°C 35.5°F1.9°C 97% 1.0 mph ESE1.6 kmh ESE 2.0 mph3.2 kmh 29.92 in1013.2 mb 0.02 in0.5 mm 0.00 in/hr0.0 mm/hr 0.22 in5.6 mm
09:28 AM 36.3°F2.4°C 35.5°F1.9°C 97% 1.0 mph ESE1.6 kmh ESE 2.0 mph3.2 kmh 29.92 in1013.2 mb 0.02 in0.5 mm 0.00 in/hr0.0 mm/hr 0.22 in5.6 mm
09:27 AM 36.3°F2.4°C 35.5°F1.9°C 97% 1.0 mph ESE1.6 kmh ESE 2.0 mph3.2 kmh 29.92 in1013.2 mb 0.02 in0.5 mm 0.00 in/hr0.0 mm/hr 0.22 in5.6 mm
09:26 AM 36.4°F2.4°C 35.6°F2.0°C 97% 2.0 mph SE3.2 kmh SE 2.0 mph3.2 kmh 29.92 in1013.2 mb 0.02 in0.5 mm 0.00 in/hr0.0 mm/hr 0.22 in5.6 mm
09:25 AM 36.4°F2.4°C 35.9°F2.2°C 98% 2.0 mph E3.2 kmh E 2.0 mph3.2 kmh 29.92 in1013.2 mb 0.02 in0.5 mm 0.00 in/hr0.0 mm/hr 0.22 in5.6 mm
09:24 AM 36.3°F2.4°C 35.8°F2.1°C 98% 1.0 mph ESE1.6 kmh ESE 2.0 mph3.2 kmh 29.92 in1013.2 mb 0.02 in0.5 mm 0.00 in/hr0.0 mm/hr 0.22 in5.6 mm
09:23 AM 36.3°F2.4°C 35.5°F1.9°C 97% 1.0 mph ESE1.6 kmh ESE 1.0 mph1.6 kmh 29.91 in1012.9 mb 0.02 in0.5 mm 0.00 in/hr0.0 mm/hr 0.22 in5.6 mm
09:22 AM 36.2°F2.3°C 35.4°F1.9°C 97% 1.0 mph E1.6 kmh E 1.0 mph1.6 kmh 29.91 in1012.9 mb 0.02 in0.5 mm 0.00 in/hr0.0 mm/hr 0.22 in5.6 mm
09:21 AM 36.1°F2.3°C 35.3°F1.8°C 97% Calm Calm 1.0 mph1.6 kmh 29.91 in1012.9 mb 0.02 in0.5 mm 0.00 in/hr0.0 mm/hr 0.22 in5.6 mm
09:20 AM 36.1°F2.3°C 35.3°F1.8°C 97% Calm Calm 1.0 mph1.6 kmh 29.91 in1012.9 mb 0.02 in0.5 mm 0.00 in/hr0.0 mm/hr 0.22 in5.6 mm
09:19 AM 35.9°F2.2°C 35.1°F1.7°C 97% Calm Calm 1.0 mph1.6 kmh 29.91 in1012.9 mb 0.02 in0.5 mm 0.00 in/hr0.0 mm/hr 0.22 in5.6 mm
09:18 AM 35.9°F2.2°C 35.1°F1.7°C 97% Calm Calm 1.0 mph1.6 kmh 29.91 in1012.9 mb 0.02 in0.5 mm 0.00 in/hr0.0 mm/hr 0.22 in5.6 mm
09:17 AM 35.8°F2.1°C 35.0°F1.7°C 97% Calm Calm 1.0 mph1.6 kmh 29.91 in1012.9 mb 0.02 in0.5 mm 0.00 in/hr0.0 mm/hr 0.22 in5.6 mm
09:16 AM 35.7°F2.1°C 34.9°F1.6°C 97% Calm Calm 1.0 mph1.6 kmh 29.91 in1012.9 mb 0.02 in0.5 mm 0.00 in/hr0.0 mm/hr 0.22 in5.6 mm
09:15 AM 35.7°F2.1°C 34.9°F1.6°C 97% Calm Calm 1.0 mph1.6 kmh 29.91 in1012.9 mb 0.02 in0.5 mm 0.00 in/hr0.0 mm/hr 0.22 in5.6 mm
09:14 AM 35.8°F2.1°C 35.0°F1.7°C 97% Calm Calm 1.0 mph1.6 kmh 29.91 in1012.9 mb 0.02 in0.5 mm 0.00 in/hr0.0 mm/hr 0.22 in5.6 mm
09:13 AM 35.8°F2.1°C 35.0°F1.7°C 97% Calm Calm 1.0 mph1.6 kmh 29.91 in1012.9 mb 0.02 in0.5 mm 0.00 in/hr0.0 mm/hr 0.22 in5.6 mm
09:12 AM 35.8°F2.1°C 35.3°F1.8°C 98% 1.0 mph N1.6 kmh N 1.0 mph1.6 kmh 29.91 in1012.9 mb 0.02 in0.5 mm 0.00 in/hr0.0 mm/hr 0.22 in5.6 mm
09:11 AM 35.9°F2.2°C 35.4°F1.9°C 98% Calm Calm 1.0 mph1.6 kmh 29.91 in1012.9 mb 0.02 in0.5 mm 0.00 in/hr0.0 mm/hr 0.22 in5.6 mm
09:10 AM 35.9°F2.2°C 35.4°F1.9°C 98% Calm Calm 1.0 mph1.6 kmh 29.91 in1012.9 mb 0.02 in0.5 mm 0.00 in/hr0.0 mm/hr 0.22 in5.6 mm
09:09 AM 35.9°F2.2°C 35.4°F1.9°C 98% Calm Calm 1.0 mph1.6 kmh 29.91 in1012.9 mb 0.02 in0.5 mm 0.00 in/hr0.0 mm/hr 0.22 in5.6 mm
09:08 AM 35.9°F2.2°C 35.4°F1.9°C 98% Calm Calm 1.0 mph1.6 kmh 29.91 in1012.9 mb 0.02 in0.5 mm 0.00 in/hr0.0 mm/hr 0.22 in5.6 mm
09:07 AM 35.9°F2.2°C 35.4°F1.9°C 98% Calm Calm 1.0 mph1.6 kmh 29.91 in1012.9 mb 0.02 in0.5 mm 0.00 in/hr0.0 mm/hr 0.22 in5.6 mm
09:06 AM 36.0°F2.2°C 35.5°F1.9°C 98% Calm Calm 1.0 mph1.6 kmh 29.91 in1012.9 mb 0.02 in0.5 mm 0.00 in/hr0.0 mm/hr 0.22 in5.6 mm
09:05 AM 36.0°F2.2°C 35.5°F1.9°C 98% Calm Calm 1.0 mph1.6 kmh 29.91 in1012.9 mb 0.02 in0.5 mm 0.00 in/hr0.0 mm/hr 0.22 in5.6 mm
09:04 AM 36.0°F2.2°C 35.5°F1.9°C 98% 1.0 mph NE1.6 kmh NE 1.0 mph1.6 kmh 29.91 in1012.9 mb 0.02 in0.5 mm 0.00 in/hr0.0 mm/hr 0.22 in5.6 mm
09:03 AM 36.0°F2.2°C 35.5°F1.9°C 98% Calm Calm 1.0 mph1.6 kmh 29.91 in1012.9 mb 0.02 in0.5 mm 0.00 in/hr0.0 mm/hr 0.22 in5.6 mm
09:02 AM 36.1°F2.3°C 35.6°F2.0°C 98% 1.0 mph E1.6 kmh E 1.0 mph1.6 kmh 29.91 in1012.9 mb 0.02 in0.5 mm 0.00 in/hr0.0 mm/hr 0.22 in5.6 mm
09:01 AM 36.1°F2.3°C 35.6°F2.0°C 98% Calm Calm 1.0 mph1.6 kmh 29.91 in1012.9 mb 0.02 in0.5 mm 0.00 in/hr0.0 mm/hr 0.22 in5.6 mm
09:00 AM 36.0°F2.2°C 35.5°F1.9°C 98% Calm Calm 1.0 mph1.6 kmh 29.91 in1012.9 mb 0.02 in0.5 mm 0.00 in/hr0.0 mm/hr 0.22 in5.6 mm
08:59 AM 36.0°F2.2°C 35.5°F1.9°C 98% Calm Calm 1.0 mph1.6 kmh 29.91 in1012.9 mb 0.02 in0.5 mm 0.00 in/hr0.0 mm/hr 0.22 in5.6 mm
08:58 AM 35.9°F2.2°C 35.4°F1.9°C 98% Calm Calm 1.0 mph1.6 kmh 29.91 in1012.9 mb 0.02 in0.5 mm 0.00 in/hr0.0 mm/hr 0.22 in5.6 mm
08:57 AM 35.8°F2.1°C 35.3°F1.8°C 98% Calm Calm 1.0 mph1.6 kmh 29.91 in1012.9 mb 0.02 in0.5 mm 0.00 in/hr0.0 mm/hr 0.22 in5.6 mm
08:56 AM 35.7°F2.1°C 35.2°F1.8°C 98% Calm Calm 1.0 mph1.6 kmh 29.91 in1012.9 mb 0.02 in0.5 mm 0.00 in/hr0.0 mm/hr 0.22 in5.6 mm
08:55 AM 35.7°F2.1°C 35.2°F1.8°C 98% Calm Calm 1.0 mph1.6 kmh 29.91 in1012.9 mb 0.02 in0.5 mm 0.00 in/hr0.0 mm/hr 0.22 in5.6 mm
08:54 AM 35.6°F2.0°C 35.1°F1.7°C 98% Calm Calm 1.0 mph1.6 kmh 29.91 in1012.9 mb 0.02 in0.5 mm 0.00 in/hr0.0 mm/hr 0.22 in5.6 mm
08:53 AM 35.5°F1.9°C 35.0°F1.7°C 98% Calm Calm 1.0 mph1.6 kmh 29.91 in1012.9 mb 0.02 in0.5 mm 0.00 in/hr0.0 mm/hr 0.22 in5.6 mm
08:52 AM 35.4°F1.9°C 34.9°F1.6°C 98% Calm Calm 1.0 mph1.6 kmh 29.91 in1012.9 mb 0.02 in0.5 mm 0.00 in/hr0.0 mm/hr 0.22 in5.6 mm
08:51 AM 35.4°F1.9°C 34.9°F1.6°C 98% Calm Calm 1.0 mph1.6 kmh 29.91 in1012.9 mb 0.02 in0.5 mm 0.00 in/hr0.0 mm/hr 0.22 in5.6 mm
08:50 AM 35.4°F1.9°C 34.9°F1.6°C 98% Calm Calm 1.0 mph1.6 kmh 29.91 in1012.9 mb 0.02 in0.5 mm 0.60 in/hr15.2 mm/hr 0.22 in5.6 mm
08:49 AM 35.3°F1.8°C 34.8°F1.6°C 98% Calm Calm 1.0 mph1.6 kmh 29.91 in1012.9 mb 0.01 in0.3 mm 0.00 in/hr0.0 mm/hr 0.21 in5.3 mm
08:48 AM 35.3°F1.8°C 34.5°F1.4°C 97% Calm Calm 1.0 mph1.6 kmh 29.91 in1012.9 mb 0.01 in0.3 mm 0.00 in/hr0.0 mm/hr 0.21 in5.3 mm
08:47 AM 35.2°F1.8°C 34.4°F1.3°C 97% Calm Calm 1.0 mph1.6 kmh 29.91 in1012.9 mb 0.01 in0.3 mm 0.00 in/hr0.0 mm/hr 0.21 in5.3 mm
08:46 AM 35.2°F1.8°C 34.4°F1.3°C 97% Calm Calm 1.0 mph1.6 kmh 29.91 in1012.9 mb 0.01 in0.3 mm 0.00 in/hr0.0 mm/hr 0.21 in5.3 mm
08:45 AM 35.2°F1.8°C 34.4°F1.3°C 97% Calm Calm 1.0 mph1.6 kmh 29.90 in1012.5 mb 0.01 in0.3 mm 0.00 in/hr0.0 mm/hr 0.21 in5.3 mm
08:44 AM 35.2°F1.8°C 34.4°F1.3°C 97% Calm Calm 1.0 mph1.6 kmh 29.90 in1012.5 mb 0.01 in0.3 mm 0.00 in/hr0.0 mm/hr 0.21 in5.3 mm
08:43 AM 35.1°F1.7°C 34.3°F1.3°C 97% Calm Calm 1.0 mph1.6 kmh 29.90 in1012.5 mb 0.01 in0.3 mm 0.00 in/hr0.0 mm/hr 0.21 in5.3 mm
08:42 AM 35.1°F1.7°C 34.3°F1.3°C 97% Calm Calm 1.0 mph1.6 kmh 29.91 in1012.9 mb 0.01 in0.3 mm 0.00 in/hr0.0 mm/hr 0.21 in5.3 mm
08:41 AM 35.0°F1.7°C 34.2°F1.2°C 97% Calm Calm 1.0 mph1.6 kmh 29.91 in1012.9 mb 0.01 in0.3 mm 0.00 in/hr0.0 mm/hr 0.21 in5.3 mm
08:40 AM 34.9°F1.6°C 34.1°F1.2°C 97% 1.0 mph ENE1.6 kmh ENE 1.0 mph1.6 kmh 29.91 in1012.9 mb 0.01 in0.3 mm 0.00 in/hr0.0 mm/hr 0.21 in5.3 mm
08:39 AM 34.9°F1.6°C 34.1°F1.2°C 97% 1.0 mph E1.6 kmh E 1.0 mph1.6 kmh 29.91 in1012.9 mb 0.01 in0.3 mm 0.00 in/hr0.0 mm/hr 0.21 in5.3 mm
08:38 AM 34.8°F1.6°C 34.0°F1.1°C 97% Calm Calm 1.0 mph1.6 kmh 29.91 in1012.9 mb 0.01 in0.3 mm 0.00 in/hr0.0 mm/hr 0.21 in5.3 mm
08:37 AM 34.7°F1.5°C 33.9°F1.1°C 97% Calm Calm 1.0 mph1.6 kmh 29.90 in1012.5 mb 0.01 in0.3 mm 0.00 in/hr0.0 mm/hr 0.21 in5.3 mm
08:36 AM 34.7°F1.5°C 33.9°F1.1°C 97% Calm Calm 1.0 mph1.6 kmh 29.91 in1012.9 mb 0.01 in0.3 mm 0.00 in/hr0.0 mm/hr 0.21 in5.3 mm
08:35 AM 34.6°F1.4°C 33.8°F1.0°C 97% Calm Calm 1.0 mph1.6 kmh 29.91 in1012.9 mb 0.01 in0.3 mm 0.00 in/hr0.0 mm/hr 0.21 in5.3 mm
08:34 AM 34.4°F1.3°C 33.6°F0.9°C 97% Calm Calm 1.0 mph1.6 kmh 29.91 in1012.9 mb 0.01 in0.3 mm 0.00 in/hr0.0 mm/hr 0.21 in5.3 mm
08:33 AM 34.4°F1.3°C 33.6°F0.9°C 97% Calm Calm -- 29.91 in1012.9 mb 0.01 in0.3 mm 0.00 in/hr0.0 mm/hr 0.21 in5.3 mm
08:32 AM 34.3°F1.3°C 33.5°F0.8°C 97% Calm Calm -- 29.91 in1012.9 mb 0.01 in0.3 mm 0.00 in/hr0.0 mm/hr 0.21 in5.3 mm
08:31 AM 34.3°F1.3°C 33.5°F0.8°C 97% Calm Calm 2.0 mph3.2 kmh 29.90 in1012.5 mb 0.02 in0.5 mm 0.00 in/hr0.0 mm/hr 0.21 in5.3 mm
08:30 AM 34.3°F1.3°C 33.5°F0.8°C 97% Calm Calm 2.0 mph3.2 kmh 29.90 in1012.5 mb 0.02 in0.5 mm 0.00 in/hr0.0 mm/hr 0.21 in5.3 mm
08:29 AM 34.2°F1.2°C 33.4°F0.8°C 97% Calm Calm 2.0 mph3.2 kmh 29.90 in1012.5 mb 0.02 in0.5 mm 0.00 in/hr0.0 mm/hr 0.21 in5.3 mm
08:28 AM 34.2°F1.2°C 33.4°F0.8°C 97% 1.0 mph SW1.6 kmh SW 2.0 mph3.2 kmh 29.91 in1012.9 mb 0.02 in0.5 mm 0.00 in/hr0.0 mm/hr 0.21 in5.3 mm
08:27 AM 34.2°F1.2°C 33.4°F0.8°C 97% 1.0 mph SW1.6 kmh SW 2.0 mph3.2 kmh 29.91 in1012.9 mb 0.02 in0.5 mm 0.00 in/hr0.0 mm/hr 0.21 in5.3 mm
08:26 AM 34.2°F1.2°C 33.4°F0.8°C 97% Calm Calm 1.0 mph1.6 kmh 29.91 in1012.9 mb 0.02 in0.5 mm 0.00 in/hr0.0 mm/hr 0.21 in5.3 mm
08:25 AM 34.2°F1.2°C 33.4°F0.8°C 97% Calm Calm 1.0 mph1.6 kmh 29.90 in1012.5 mb 0.02 in0.5 mm 0.00 in/hr0.0 mm/hr 0.21 in5.3 mm
08:24 AM 34.2°F1.2°C 33.4°F0.8°C 97% Calm Calm -- 29.90 in1012.5 mb 0.02 in0.5 mm 0.00 in/hr0.0 mm/hr 0.21 in5.3 mm
08:23 AM 34.1°F1.2°C 33.3°F0.7°C 97% Calm Calm -- 29.90 in1012.5 mb 0.02 in0.5 mm 0.00 in/hr0.0 mm/hr 0.21 in5.3 mm
08:22 AM 34.1°F1.2°C 33.3°F0.7°C 97% Calm Calm -- 29.90 in1012.5 mb 0.02 in0.5 mm 0.00 in/hr0.0 mm/hr 0.21 in5.3 mm
08:21 AM 34.1°F1.2°C 33.3°F0.7°C 97% Calm Calm -- 29.90 in1012.5 mb 0.02 in0.5 mm 0.00 in/hr0.0 mm/hr 0.21 in5.3 mm
08:20 AM 34.1°F1.2°C 33.3°F0.7°C 97% Calm Calm -- 29.90 in1012.5 mb 0.02 in0.5 mm 0.00 in/hr0.0 mm/hr 0.21 in5.3 mm
08:19 AM 34.0°F1.1°C 33.2°F0.7°C 97% Calm Calm -- 29.90 in1012.5 mb 0.02 in0.5 mm 0.00 in/hr0.0 mm/hr 0.21 in5.3 mm
08:18 AM 34.0°F1.1°C 33.2°F0.7°C 97% Calm Calm -- 29.90 in1012.5 mb 0.02 in0.5 mm 0.00 in/hr0.0 mm/hr 0.21 in5.3 mm
08:17 AM 34.0°F1.1°C 33.2°F0.7°C 97% Calm Calm -- 29.90 in1012.5 mb 0.02 in0.5 mm 0.00 in/hr0.0 mm/hr 0.21 in5.3 mm
08:16 AM 34.0°F1.1°C 33.2°F0.7°C 97% Calm Calm -- 29.90 in1012.5 mb 0.02 in0.5 mm 0.00 in/hr0.0 mm/hr 0.21 in5.3 mm
08:15 AM 34.0°F1.1°C 33.2°F0.7°C 97% Calm Calm -- 29.90 in1012.5 mb 0.02 in0.5 mm 0.00 in/hr0.0 mm/hr 0.21 in5.3 mm
08:14 AM 34.0°F1.1°C 33.2°F0.7°C 97% Calm Calm -- 29.90 in1012.5 mb 0.02 in0.5 mm 0.00 in/hr0.0 mm/hr 0.21 in5.3 mm
08:13 AM 34.0°F1.1°C 33.2°F0.7°C 97% Calm Calm -- 29.89 in1012.2 mb 0.02 in0.5 mm 0.00 in/hr0.0 mm/hr 0.21 in5.3 mm
08:12 AM 34.0°F1.1°C 33.2°F0.7°C 97% Calm Calm -- 29.89 in1012.2 mb 0.02 in0.5 mm 0.00 in/hr0.0 mm/hr 0.21 in5.3 mm
08:11 AM 34.0°F1.1°C 33.2°F0.7°C 97% Calm Calm -- 29.89 in1012.2 mb 0.02 in0.5 mm 0.00 in/hr0.0 mm/hr 0.21 in5.3 mm
08:10 AM 34.0°F1.1°C 33.2°F0.7°C 97% Calm Calm -- 29.89 in1012.2 mb 0.02 in0.5 mm 0.00 in/hr0.0 mm/hr 0.21 in5.3 mm
08:09 AM 34.1°F1.2°C 33.3°F0.7°C 97% Calm Calm -- 29.89 in1012.2 mb 0.02 in0.5 mm 0.00 in/hr0.0 mm/hr 0.21 in5.3 mm
08:08 AM 34.1°F1.2°C 33.3°F0.7°C 97% Calm Calm -- 29.89 in1012.2 mb 0.02 in0.5 mm 0.60 in/hr15.2 mm/hr 0.21 in5.3 mm
08:07 AM 34.1°F1.2°C 33.3°F0.7°C 97% Calm Calm -- 29.89 in1012.2 mb 0.01 in0.3 mm 0.00 in/hr0.0 mm/hr 0.20 in5.1 mm
08:06 AM 34.1°F1.2°C 33.3°F0.7°C 97% Calm Calm -- 29.89 in1012.2 mb 0.01 in0.3 mm 0.00 in/hr0.0 mm/hr 0.20 in5.1 mm
08:05 AM 34.2°F1.2°C 33.4°F0.8°C 97% Calm Calm -- 29.89 in1012.2 mb 0.01 in0.3 mm 0.00 in/hr0.0 mm/hr 0.20 in5.1 mm
08:04 AM 34.1°F1.2°C 33.3°F0.7°C 97% Calm Calm -- 29.89 in1012.2 mb 0.01 in0.3 mm 0.00 in/hr0.0 mm/hr 0.20 in5.1 mm
08:03 AM 34.1°F1.2°C 33.3°F0.7°C 97% Calm Calm -- 29.89 in1012.2 mb 0.01 in0.3 mm 0.00 in/hr0.0 mm/hr 0.20 in5.1 mm
08:02 AM 34.1°F1.2°C 33.3°F0.7°C 97% Calm Calm -- 29.89 in1012.2 mb 0.01 in0.3 mm 0.00 in/hr0.0 mm/hr 0.20 in5.1 mm
08:01 AM 34.1°F1.2°C 33.3°F0.7°C 97% Calm Calm -- 29.89 in1012.2 mb 0.02 in0.5 mm 0.00 in/hr0.0 mm/hr 0.20 in5.1 mm
08:00 AM 34.0°F1.1°C 33.2°F0.7°C 97% Calm Calm -- 29.89 in1012.2 mb 0.02 in0.5 mm 0.00 in/hr0.0 mm/hr 0.20 in5.1 mm
07:59 AM 34.0°F1.1°C 33.2°F0.7°C 97% Calm Calm -- 29.89 in1012.2 mb 0.02 in0.5 mm 0.00 in/hr0.0 mm/hr 0.20 in5.1 mm
07:58 AM 33.9°F1.1°C 33.1°F0.6°C 97% Calm Calm -- 29.89 in1012.2 mb 0.02 in0.5 mm 0.00 in/hr0.0 mm/hr 0.20 in5.1 mm
07:57 AM 34.0°F1.1°C 33.2°F0.7°C 97% Calm Calm -- 29.89 in1012.2 mb 0.02 in0.5 mm 0.00 in/hr0.0 mm/hr 0.20 in5.1 mm
07:56 AM 34.0°F1.1°C 33.2°F0.7°C 97% Calm Calm -- 29.89 in1012.2 mb 0.02 in0.5 mm 0.00 in/hr0.0 mm/hr 0.20 in5.1 mm
07:55 AM 34.0°F1.1°C 33.2°F0.7°C 97% Calm Calm -- 29.88 in1011.9 mb 0.02 in0.5 mm 0.00 in/hr0.0 mm/hr 0.20 in5.1 mm
07:54 AM 34.0°F1.1°C 33.2°F0.7°C 97% Calm Calm -- 29.89 in1012.2 mb 0.02 in0.5 mm 0.00 in/hr0.0 mm/hr 0.20 in5.1 mm
07:53 AM 34.0°F1.1°C 33.2°F0.7°C 97% Calm Calm -- 29.89 in1012.2 mb 0.02 in0.5 mm 0.00 in/hr0.0 mm/hr 0.20 in5.1 mm
07:52 AM 34.1°F1.2°C 33.3°F0.7°C 97% Calm Calm -- 29.89 in1012.2 mb 0.02 in0.5 mm 0.00 in/hr0.0 mm/hr 0.20 in5.1 mm
07:51 AM 34.1°F1.2°C 33.3°F0.7°C 97% Calm Calm -- 29.89 in1012.2 mb 0.02 in0.5 mm 0.00 in/hr0.0 mm/hr 0.20 in5.1 mm
07:50 AM 34.2°F1.2°C 33.4°F0.8°C 97% Calm Calm -- 29.88 in1011.9 mb 0.02 in0.5 mm 0.00 in/hr0.0 mm/hr 0.20 in5.1 mm
07:49 AM 34.2°F1.2°C 33.4°F0.8°C 97% Calm Calm -- 29.88 in1011.9 mb 0.02 in0.5 mm 0.00 in/hr0.0 mm/hr 0.20 in5.1 mm
07:48 AM 34.2°F1.2°C 33.4°F0.8°C 97% Calm Calm -- 29.88 in1011.9 mb 0.02 in0.5 mm 0.00 in/hr0.0 mm/hr 0.20 in5.1 mm
07:47 AM 34.2°F1.2°C 33.4°F0.8°C 97% Calm Calm -- 29.88 in1011.9 mb 0.02 in0.5 mm 0.00 in/hr0.0 mm/hr 0.20 in5.1 mm
07:46 AM 34.1°F1.2°C 33.3°F0.7°C 97% Calm Calm -- 29.88 in1011.9 mb 0.02 in0.5 mm 0.00 in/hr0.0 mm/hr 0.20 in5.1 mm
07:45 AM 34.1°F1.2°C 33.3°F0.7°C 97% Calm Calm -- 29.88 in1011.9 mb 0.02 in0.5 mm 0.00 in/hr0.0 mm/hr 0.20 in5.1 mm
07:44 AM 34.1°F1.2°C 33.3°F0.7°C 97% Calm Calm -- 29.88 in1011.9 mb 0.02 in0.5 mm 0.00 in/hr0.0 mm/hr 0.20 in5.1 mm
07:43 AM 34.0°F1.1°C 33.2°F0.7°C 97% Calm Calm -- 29.88 in1011.9 mb 0.02 in0.5 mm 0.00 in/hr0.0 mm/hr 0.20 in5.1 mm
07:42 AM 34.0°F1.1°C 33.2°F0.7°C 97% Calm Calm -- 29.88 in1011.9 mb 0.02 in0.5 mm 0.00 in/hr0.0 mm/hr 0.20 in5.1 mm
07:41 AM 34.0°F1.1°C 33.2°F0.7°C 97% Calm Calm -- 29.88 in1011.9 mb 0.02 in0.5 mm 0.00 in/hr0.0 mm/hr 0.20 in5.1 mm
07:40 AM 34.0°F1.1°C 33.2°F0.7°C 97% Calm Calm -- 29.88 in1011.9 mb 0.02 in0.5 mm 0.00 in/hr0.0 mm/hr 0.20 in5.1 mm
07:39 AM 34.0°F1.1°C 33.2°F0.7°C 97% Calm Calm -- 29.87 in1011.5 mb 0.02 in0.5 mm 0.00 in/hr0.0 mm/hr 0.20 in5.1 mm
07:38 AM 34.0°F1.1°C 33.2°F0.7°C 97% Calm Calm -- 29.88 in1011.9 mb 0.02 in0.5 mm 0.00 in/hr0.0 mm/hr 0.20 in5.1 mm
07:37 AM 34.0°F1.1°C 33.2°F0.7°C 97% Calm Calm -- 29.89 in1012.2 mb 0.02 in0.5 mm 0.00 in/hr0.0 mm/hr 0.20 in5.1 mm
07:36 AM 34.0°F1.1°C 33.2°F0.7°C 97% Calm Calm -- 29.88 in1011.9 mb 0.02 in0.5 mm 0.00 in/hr0.0 mm/hr 0.20 in5.1 mm
07:35 AM 34.0°F1.1°C 33.2°F0.7°C 97% Calm Calm -- 29.88 in1011.9 mb 0.02 in0.5 mm 0.00 in/hr0.0 mm/hr 0.20 in5.1 mm
07:34 AM 34.0°F1.1°C 33.2°F0.7°C 97% Calm Calm -- 29.88 in1011.9 mb 0.02 in0.5 mm 0.00 in/hr0.0 mm/hr 0.20 in5.1 mm
07:33 AM 34.1°F1.2°C 33.3°F0.7°C 97% Calm Calm -- 29.88 in1011.9 mb 0.02 in0.5 mm 0.00 in/hr0.0 mm/hr 0.20 in5.1 mm
07:31 AM 34.1°F1.2°C 33.3°F0.7°C 97% Calm Calm -- 29.88 in1011.9 mb 0.02 in0.5 mm 0.00 in/hr0.0 mm/hr 0.20 in5.1 mm
07:30 AM 34.2°F1.2°C 33.4°F0.8°C 97% Calm Calm 1.0 mph1.6 kmh 29.88 in1011.9 mb 0.03 in0.8 mm 0.00 in/hr0.0 mm/hr 0.20 in5.1 mm
07:29 AM 34.2°F1.2°C 33.4°F0.8°C 97% Calm Calm 1.0 mph1.6 kmh 29.88 in1011.9 mb 0.03 in0.8 mm 0.00 in/hr0.0 mm/hr 0.20 in5.1 mm
07:28 AM 34.2°F1.2°C 33.4°F0.8°C 97% Calm Calm 1.0 mph1.6 kmh 29.88 in1011.9 mb 0.03 in0.8 mm 0.00 in/hr0.0 mm/hr 0.20 in5.1 mm
07:27 AM 34.2°F1.2°C 33.4°F0.8°C 97% Calm Calm 1.0 mph1.6 kmh 29.88 in1011.9 mb 0.03 in0.8 mm 0.00 in/hr0.0 mm/hr 0.20 in5.1 mm
07:26 AM 34.2°F1.2°C 33.4°F0.8°C 97% Calm Calm 1.0 mph1.6 kmh 29.88 in1011.9 mb 0.03 in0.8 mm 0.00 in/hr0.0 mm/hr 0.20 in5.1 mm
07:25 AM 34.3°F1.3°C 33.5°F0.8°C 97% Calm Calm 1.0 mph1.6 kmh 29.88 in1011.9 mb 0.03 in0.8 mm 0.00 in/hr0.0 mm/hr 0.20 in5.1 mm
07:24 AM 34.3°F1.3°C 33.5°F0.8°C 97% Calm Calm 1.0 mph1.6 kmh 29.89 in1012.2 mb 0.03 in0.8 mm 0.00 in/hr0.0 mm/hr 0.20 in5.1 mm
07:23 AM 34.3°F1.3°C 33.5°F0.8°C 97% Calm Calm 1.0 mph1.6 kmh 29.89 in1012.2 mb 0.03 in0.8 mm 0.00 in/hr0.0 mm/hr 0.20 in5.1 mm
07:22 AM 34.3°F1.3°C 33.5°F0.8°C 97% Calm Calm 1.0 mph1.6 kmh 29.90 in1012.5 mb 0.03 in0.8 mm 0.00 in/hr0.0 mm/hr 0.20 in5.1 mm
07:21 AM 34.4°F1.3°C 33.6°F0.9°C 97% Calm Calm 1.0 mph1.6 kmh 29.90 in1012.5 mb 0.03 in0.8 mm 0.00 in/hr0.0 mm/hr 0.20 in5.1 mm
07:20 AM 34.4°F1.3°C 33.6°F0.9°C 97% Calm Calm 1.0 mph1.6 kmh 29.89 in1012.2 mb 0.03 in0.8 mm 0.00 in/hr0.0 mm/hr 0.20 in5.1 mm
07:19 AM 34.4°F1.3°C 33.6°F0.9°C 97% Calm Calm 1.0 mph1.6 kmh 29.89 in1012.2 mb 0.03 in0.8 mm 0.00 in/hr0.0 mm/hr 0.20 in5.1 mm
07:18 AM 34.4°F1.3°C 33.6°F0.9°C 97% Calm Calm 1.0 mph1.6 kmh 29.88 in1011.9 mb 0.03 in0.8 mm 0.00 in/hr0.0 mm/hr 0.20 in5.1 mm
07:17 AM 34.3°F1.3°C 33.5°F0.8°C 97% Calm Calm 1.0 mph1.6 kmh 29.88 in1011.9 mb 0.03 in0.8 mm 0.00 in/hr0.0 mm/hr 0.20 in5.1 mm
07:16 AM 34.3°F1.3°C 33.5°F0.8°C 97% Calm Calm 1.0 mph1.6 kmh 29.88 in1011.9 mb 0.03 in0.8 mm 0.00 in/hr0.0 mm/hr 0.20 in5.1 mm
07:15 AM 34.3°F1.3°C 33.5°F0.8°C 97% Calm Calm 1.0 mph1.6 kmh 29.88 in1011.9 mb 0.03 in0.8 mm 0.00 in/hr0.0 mm/hr 0.20 in5.1 mm
07:14 AM 34.3°F1.3°C 33.5°F0.8°C 97% Calm Calm 1.0 mph1.6 kmh 29.87 in1011.5 mb 0.03 in0.8 mm 0.00 in/hr0.0 mm/hr 0.20 in5.1 mm
07:13 AM 34.3°F1.3°C 33.5°F0.8°C 97% Calm Calm 1.0 mph1.6 kmh 29.87 in1011.5 mb 0.03 in0.8 mm 0.00 in/hr0.0 mm/hr 0.20 in5.1 mm
07:12 AM 34.3°F1.3°C 33.5°F0.8°C 97% Calm Calm 1.0 mph1.6 kmh 29.88 in1011.9 mb 0.03 in0.8 mm 0.00 in/hr0.0 mm/hr 0.20 in5.1 mm
07:11 AM 34.2°F1.2°C 33.4°F0.8°C 97% Calm Calm 1.0 mph1.6 kmh 29.89 in1012.2 mb 0.03 in0.8 mm 0.00 in/hr0.0 mm/hr 0.20 in5.1 mm
07:10 AM 34.1°F1.2°C 33.3°F0.7°C 97% Calm Calm 1.0 mph1.6 kmh 29.88 in1011.9 mb 0.03 in0.8 mm 0.00 in/hr0.0 mm/hr 0.20 in5.1 mm
07:09 AM 34.1°F1.2°C 33.3°F0.7°C 97% Calm Calm 1.0 mph1.6 kmh 29.88 in1011.9 mb 0.03 in0.8 mm 0.60 in/hr15.2 mm/hr 0.20 in5.1 mm
07:08 AM 34.3°F1.3°C 33.5°F0.8°C 97% Calm Calm 1.0 mph1.6 kmh 29.88 in1011.9 mb 0.02 in0.5 mm 0.00 in/hr0.0 mm/hr 0.19 in4.8 mm
07:07 AM 34.3°F1.3°C 33.5°F0.8°C 97% Calm Calm 1.0 mph1.6 kmh 29.89 in1012.2 mb 0.02 in0.5 mm 0.00 in/hr0.0 mm/hr 0.19 in4.8 mm
07:06 AM 34.4°F1.3°C 33.6°F0.9°C 97% Calm Calm 1.0 mph1.6 kmh 29.88 in1011.9 mb 0.02 in0.5 mm 0.00 in/hr0.0 mm/hr 0.19 in4.8 mm
07:05 AM 34.4°F1.3°C 33.6°F0.9°C 97% Calm Calm 1.0 mph1.6 kmh 29.88 in1011.9 mb 0.02 in0.5 mm 0.00 in/hr0.0 mm/hr 0.19 in4.8 mm
07:04 AM 34.4°F1.3°C 33.6°F0.9°C 97% Calm Calm 1.0 mph1.6 kmh 29.88 in1011.9 mb 0.02 in0.5 mm 0.00 in/hr0.0 mm/hr 0.19 in4.8 mm
07:03 AM 34.4°F1.3°C 33.6°F0.9°C 97% Calm Calm 1.0 mph1.6 kmh 29.88 in1011.9 mb 0.02 in0.5 mm 0.00 in/hr0.0 mm/hr 0.19 in4.8 mm
07:02 AM 34.4°F1.3°C 33.6°F0.9°C 97% Calm Calm 1.0 mph1.6 kmh 29.89 in1012.2 mb 0.02 in0.5 mm 0.00 in/hr0.0 mm/hr 0.19 in4.8 mm
07:01 AM 34.4°F1.3°C 33.6°F0.9°C 97% 1.0 mph SE1.6 kmh SE 4.0 mph6.4 kmh 29.89 in1012.2 mb 0.05 in1.3 mm 0.00 in/hr0.0 mm/hr 0.19 in4.8 mm
07:00 AM 34.3°F1.3°C 33.5°F0.8°C 97% 2.0 mph E3.2 kmh E 4.0 mph6.4 kmh 29.89 in1012.2 mb 0.05 in1.3 mm 0.00 in/hr0.0 mm/hr 0.19 in4.8 mm
06:59 AM 34.3°F1.3°C 33.5°F0.8°C 97% Calm Calm 4.0 mph6.4 kmh 29.88 in1011.9 mb 0.05 in1.3 mm 0.00 in/hr0.0 mm/hr 0.19 in4.8 mm
06:58 AM 34.2°F1.2°C 33.2°F0.7°C 96% 2.0 mph SE3.2 kmh SE 4.0 mph6.4 kmh 29.89 in1012.2 mb 0.05 in1.3 mm 0.00 in/hr0.0 mm/hr 0.19 in4.8 mm
06:57 AM 34.2°F1.2°C 33.2°F0.7°C 96% 2.0 mph ESE3.2 kmh ESE 3.0 mph4.8 kmh 29.88 in1011.9 mb 0.05 in1.3 mm 0.00 in/hr0.0 mm/hr 0.19 in4.8 mm
06:56 AM 34.1°F1.2°C 33.1°F0.6°C 96% 2.0 mph E3.2 kmh E 2.0 mph3.2 kmh 29.88 in1011.9 mb 0.05 in1.3 mm 0.00 in/hr0.0 mm/hr 0.19 in4.8 mm
06:55 AM 34.1°F1.2°C 33.1°F0.6°C 96% Calm Calm 2.0 mph3.2 kmh 29.87 in1011.5 mb 0.05 in1.3 mm 0.00 in/hr0.0 mm/hr 0.19 in4.8 mm
06:54 AM 34.1°F1.2°C 33.1°F0.6°C 96% Calm Calm 2.0 mph3.2 kmh 29.86 in1011.2 mb 0.05 in1.3 mm 0.00 in/hr0.0 mm/hr 0.19 in4.8 mm
06:53 AM 34.2°F1.2°C 33.2°F0.7°C 96% 1.0 mph SE1.6 kmh SE 2.0 mph3.2 kmh 29.87 in1011.5 mb 0.05 in1.3 mm 0.00 in/hr0.0 mm/hr 0.19 in4.8 mm
06:52 AM 34.2°F1.2°C 33.2°F0.7°C 96% Calm Calm 2.0 mph3.2 kmh 29.88 in1011.9 mb 0.05 in1.3 mm 0.00 in/hr0.0 mm/hr 0.19 in4.8 mm
06:51 AM 34.2°F1.2°C 33.2°F0.7°C 96% Calm Calm 2.0 mph3.2 kmh 29.89 in1012.2 mb 0.05 in1.3 mm 0.00 in/hr0.0 mm/hr 0.19 in4.8 mm
06:50 AM 34.2°F1.2°C 33.2°F0.7°C 96% Calm Calm 2.0 mph3.2 kmh 29.89 in1012.2 mb 0.05 in1.3 mm 0.00 in/hr0.0 mm/hr 0.19 in4.8 mm
06:49 AM 34.1°F1.2°C 33.1°F0.6°C 96% 1.0 mph E1.6 kmh E 2.0 mph3.2 kmh 29.89 in1012.2 mb 0.05 in1.3 mm 0.00 in/hr0.0 mm/hr 0.19 in4.8 mm
06:48 AM 34.0°F1.1°C 33.0°F0.6°C 96% Calm Calm 2.0 mph3.2 kmh 29.88 in1011.9 mb 0.05 in1.3 mm 0.00 in/hr0.0 mm/hr 0.19 in4.8 mm
06:47 AM 34.0°F1.1°C 33.0°F0.6°C 96% Calm Calm 2.0 mph3.2 kmh 29.88 in1011.9 mb 0.05 in1.3 mm 0.00 in/hr0.0 mm/hr 0.19 in4.8 mm
06:46 AM 34.0°F1.1°C 33.0°F0.6°C 96% Calm Calm 2.0 mph3.2 kmh 29.88 in1011.9 mb 0.05 in1.3 mm 0.00 in/hr0.0 mm/hr 0.19 in4.8 mm
06:45 AM 34.0°F1.1°C 33.0°F0.6°C 96% Calm Calm 2.0 mph3.2 kmh 29.88 in1011.9 mb 0.05 in1.3 mm 0.00 in/hr0.0 mm/hr 0.19 in4.8 mm
06:44 AM 34.0°F1.1°C 33.0°F0.6°C 96% Calm Calm 2.0 mph3.2 kmh 29.87 in1011.5 mb 0.05 in1.3 mm 0.00 in/hr0.0 mm/hr 0.19 in4.8 mm
06:43 AM 34.1°F1.2°C 33.1°F0.6°C 96% Calm Calm 2.0 mph3.2 kmh 29.86 in1011.2 mb 0.05 in1.3 mm 0.00 in/hr0.0 mm/hr 0.19 in4.8 mm
06:42 AM 34.1°F1.2°C 33.1°F0.6°C 96% 1.0 mph SE1.6 kmh SE 2.0 mph3.2 kmh 29.86 in1011.2 mb 0.05 in1.3 mm 0.60 in/hr15.2 mm/hr 0.19 in4.8 mm
06:41 AM 34.1°F1.2°C 33.1°F0.6°C 96% Calm Calm 2.0 mph3.2 kmh 29.87 in1011.5 mb 0.04 in1.0 mm 0.00 in/hr0.0 mm/hr 0.18 in4.6 mm
06:40 AM 34.2°F1.2°C 33.2°F0.7°C 96% Calm Calm 2.0 mph3.2 kmh 29.88 in1011.9 mb 0.04 in1.0 mm 0.00 in/hr0.0 mm/hr 0.18 in4.6 mm
06:39 AM 34.2°F1.2°C 33.2°F0.7°C 96% Calm Calm 2.0 mph3.2 kmh 29.89 in1012.2 mb 0.04 in1.0 mm 0.00 in/hr0.0 mm/hr 0.18 in4.6 mm
06:38 AM 34.3°F1.3°C 33.3°F0.7°C 96% Calm Calm 2.0 mph3.2 kmh 29.90 in1012.5 mb 0.04 in1.0 mm 0.00 in/hr0.0 mm/hr 0.18 in4.6 mm
06:37 AM 34.3°F1.3°C 33.3°F0.7°C 96% 1.0 mph SE1.6 kmh SE 2.0 mph3.2 kmh 29.90 in1012.5 mb 0.04 in1.0 mm 0.00 in/hr0.0 mm/hr 0.18 in4.6 mm
06:36 AM 34.3°F1.3°C 33.3°F0.7°C 96% 1.0 mph SE1.6 kmh SE 2.0 mph3.2 kmh 29.90 in1012.5 mb 0.04 in1.0 mm 0.00 in/hr0.0 mm/hr 0.18 in4.6 mm
06:35 AM 34.2°F1.2°C 33.2°F0.7°C 96% Calm Calm 2.0 mph3.2 kmh 29.90 in1012.5 mb 0.04 in1.0 mm 0.00 in/hr0.0 mm/hr 0.18 in4.6 mm
06:34 AM 34.2°F1.2°C 33.2°F0.7°C 96% Calm Calm 2.0 mph3.2 kmh 29.90 in1012.5 mb 0.04 in1.0 mm 0.00 in/hr0.0 mm/hr 0.18 in4.6 mm
06:33 AM 34.2°F1.2°C 33.2°F0.7°C 96% Calm Calm 2.0 mph3.2 kmh 29.90 in1012.5 mb 0.04 in1.0 mm 0.00 in/hr0.0 mm/hr 0.18 in4.6 mm
06:32 AM 34.2°F1.2°C 33.2°F0.7°C 96% Calm Calm 1.0 mph1.6 kmh 29.90 in1012.5 mb 0.04 in1.0 mm 0.00 in/hr0.0 mm/hr 0.18 in4.6 mm
06:31 AM 34.2°F1.2°C 33.2°F0.7°C 96% 1.0 mph E1.6 kmh E 5.0 mph8.0 kmh 29.89 in1012.2 mb 0.07 in1.8 mm 0.00 in/hr0.0 mm/hr 0.18 in4.6 mm
06:30 AM 34.1°F1.2°C 33.1°F0.6°C 96% Calm Calm 5.0 mph8.0 kmh 29.89 in1012.2 mb 0.07 in1.8 mm 0.60 in/hr15.2 mm/hr 0.18 in4.6 mm
06:29 AM 34.1°F1.2°C 33.1°F0.6°C 96% Calm Calm 5.0 mph8.0 kmh 29.89 in1012.2 mb 0.06 in1.5 mm 0.00 in/hr0.0 mm/hr 0.17 in4.3 mm
06:28 AM 34.2°F1.2°C 33.2°F0.7°C 96% 1.0 mph SW1.6 kmh SW 5.0 mph8.0 kmh 29.88 in1011.9 mb 0.06 in1.5 mm 0.00 in/hr0.0 mm/hr 0.17 in4.3 mm
06:27 AM 34.2°F1.2°C 33.2°F0.7°C 96% 1.0 mph SW1.6 kmh SW 5.0 mph8.0 kmh 29.88 in1011.9 mb 0.06 in1.5 mm 0.00 in/hr0.0 mm/hr 0.17 in4.3 mm
06:26 AM 34.2°F1.2°C 33.2°F0.7°C 96% 2.0 mph SW3.2 kmh SW 5.0 mph8.0 kmh 29.86 in1011.2 mb 0.06 in1.5 mm 0.00 in/hr0.0 mm/hr 0.17 in4.3 mm
06:25 AM 34.2°F1.2°C 33.2°F0.7°C 96% 2.0 mph SW3.2 kmh SW 5.0 mph8.0 kmh 29.85 in1010.8 mb 0.06 in1.5 mm 0.00 in/hr0.0 mm/hr 0.17 in4.3 mm
06:24 AM 34.2°F1.2°C 33.2°F0.7°C 96% 2.0 mph SW3.2 kmh SW 5.0 mph8.0 kmh 29.85 in1010.8 mb 0.06 in1.5 mm 0.00 in/hr0.0 mm/hr 0.17 in4.3 mm
06:23 AM 34.2°F1.2°C 33.2°F0.7°C 96% 3.0 mph SW4.8 kmh SW 5.0 mph8.0 kmh 29.86 in1011.2 mb 0.06 in1.5 mm 0.00 in/hr0.0 mm/hr 0.17 in4.3 mm
06:22 AM 34.3°F1.3°C 33.3°F0.7°C 96% 1.0 mph WSW1.6 kmh WSW 5.0 mph8.0 kmh 29.86 in1011.2 mb 0.06 in1.5 mm 0.00 in/hr0.0 mm/hr 0.17 in4.3 mm
06:21 AM 34.3°F1.3°C 33.3°F0.7°C 96% Calm Calm 5.0 mph8.0 kmh 29.87 in1011.5 mb 0.06 in1.5 mm 0.00 in/hr0.0 mm/hr 0.17 in4.3 mm
06:20 AM 34.4°F1.3°C 33.4°F0.8°C 96% Calm Calm 5.0 mph8.0 kmh 29.87 in1011.5 mb 0.06 in1.5 mm 0.00 in/hr0.0 mm/hr 0.17 in4.3 mm
06:19 AM 34.5°F1.4°C 33.5°F0.8°C 96% Calm Calm 5.0 mph8.0 kmh 29.87 in1011.5 mb 0.06 in1.5 mm 0.00 in/hr0.0 mm/hr 0.17 in4.3 mm
06:18 AM 34.6°F1.4°C 33.6°F0.9°C 96% Calm Calm 5.0 mph8.0 kmh 29.87 in1011.5 mb 0.06 in1.5 mm 0.00 in/hr0.0 mm/hr 0.17 in4.3 mm
06:17 AM 34.7°F1.5°C 33.7°F0.9°C 96% 1.0 mph WSW1.6 kmh WSW 5.0 mph8.0 kmh 29.88 in1011.9 mb 0.06 in1.5 mm 0.00 in/hr0.0 mm/hr 0.17 in4.3 mm
06:16 AM 34.8°F1.6°C 33.8°F1.0°C 96% 1.0 mph SE1.6 kmh SE 5.0 mph8.0 kmh 29.88 in1011.9 mb 0.06 in1.5 mm 0.00 in/hr0.0 mm/hr 0.17 in4.3 mm
06:15 AM 34.8°F1.6°C 33.8°F1.0°C 96% Calm Calm 5.0 mph8.0 kmh 29.89 in1012.2 mb 0.06 in1.5 mm 0.00 in/hr0.0 mm/hr 0.17 in4.3 mm
06:14 AM 34.8°F1.6°C 33.8°F1.0°C 96% Calm Calm 5.0 mph8.0 kmh 29.90 in1012.5 mb 0.06 in1.5 mm 0.00 in/hr0.0 mm/hr 0.17 in4.3 mm
06:13 AM 34.8°F1.6°C 33.8°F1.0°C 96% 1.0 mph E1.6 kmh E 5.0 mph8.0 kmh 29.90 in1012.5 mb 0.06 in1.5 mm 0.00 in/hr0.0 mm/hr 0.17 in4.3 mm
06:12 AM 34.7°F1.5°C 33.7°F0.9°C 96% 2.0 mph E3.2 kmh E 5.0 mph8.0 kmh 29.90 in1012.5 mb 0.06 in1.5 mm 0.00 in/hr0.0 mm/hr 0.17 in4.3 mm
06:11 AM 34.7°F1.5°C 33.7°F0.9°C 96% 1.0 mph SE1.6 kmh SE 5.0 mph8.0 kmh 29.90 in1012.5 mb 0.06 in1.5 mm 0.00 in/hr0.0 mm/hr 0.17 in4.3 mm
06:10 AM 34.7°F1.5°C 33.7°F0.9°C 96% 5.0 mph E8.0 kmh E 5.0 mph8.0 kmh 29.91 in1012.9 mb 0.06 in1.5 mm 0.00 in/hr0.0 mm/hr 0.17 in4.3 mm
06:09 AM 34.6°F1.4°C 33.6°F0.9°C 96% 2.0 mph ESE3.2 kmh ESE 5.0 mph8.0 kmh 29.90 in1012.5 mb 0.06 in1.5 mm 0.00 in/hr0.0 mm/hr 0.17 in4.3 mm
06:08 AM 34.6°F1.4°C 33.6°F0.9°C 96% 2.0 mph E3.2 kmh E 3.0 mph4.8 kmh 29.89 in1012.2 mb 0.06 in1.5 mm 0.00 in/hr0.0 mm/hr 0.17 in4.3 mm
06:07 AM 34.7°F1.5°C 33.7°F0.9°C 96% 1.0 mph SE1.6 kmh SE 3.0 mph4.8 kmh 29.88 in1011.9 mb 0.06 in1.5 mm 0.00 in/hr0.0 mm/hr 0.17 in4.3 mm
06:06 AM 34.7°F1.5°C 33.7°F0.9°C 96% 1.0 mph ESE1.6 kmh ESE 3.0 mph4.8 kmh 29.88 in1011.9 mb 0.06 in1.5 mm 0.00 in/hr0.0 mm/hr 0.17 in4.3 mm
06:05 AM 34.7°F1.5°C 33.7°F0.9°C 96% 2.0 mph ESE3.2 kmh ESE 3.0 mph4.8 kmh 29.87 in1011.5 mb 0.06 in1.5 mm 0.00 in/hr0.0 mm/hr 0.17 in4.3 mm
06:04 AM 34.8°F1.6°C 33.8°F1.0°C 96% 1.0 mph SSE1.6 kmh SSE 3.0 mph4.8 kmh 29.87 in1011.5 mb 0.06 in1.5 mm 0.00 in/hr0.0 mm/hr 0.17 in4.3 mm
06:03 AM 34.8°F1.6°C 33.8°F1.0°C 96% 1.0 mph SSE1.6 kmh SSE 3.0 mph4.8 kmh 29.87 in1011.5 mb 0.06 in1.5 mm 0.00 in/hr0.0 mm/hr 0.17 in4.3 mm
06:02 AM 34.9°F1.6°C 33.9°F1.1°C 96% 2.0 mph ENE3.2 kmh ENE 3.0 mph4.8 kmh 29.87 in1011.5 mb 0.06 in1.5 mm 0.00 in/hr0.0 mm/hr 0.17 in4.3 mm
06:01 AM 35.0°F1.7°C 34.0°F1.1°C 96% 3.0 mph ESE4.8 kmh ESE 4.0 mph6.4 kmh 29.87 in1011.5 mb 0.08 in2.0 mm 0.00 in/hr0.0 mm/hr 0.17 in4.3 mm
06:00 AM 35.0°F1.7°C 34.0°F1.1°C 96% 2.0 mph SE3.2 kmh SE 2.0 mph3.2 kmh 29.87 in1011.5 mb 0.08 in2.0 mm 0.00 in/hr0.0 mm/hr 0.17 in4.3 mm
05:59 AM 35.0°F1.7°C 34.0°F1.1°C 96% 2.0 mph ESE3.2 kmh ESE 2.0 mph3.2 kmh 29.87 in1011.5 mb 0.08 in2.0 mm 0.00 in/hr0.0 mm/hr 0.17 in4.3 mm
05:58 AM 34.9°F1.6°C 33.9°F1.1°C 96% 1.0 mph NNE1.6 kmh NNE 2.0 mph3.2 kmh 29.87 in1011.5 mb 0.08 in2.0 mm 0.60 in/hr15.2 mm/hr 0.17 in4.3 mm
05:57 AM 34.9°F1.6°C 33.9°F1.1°C 96% 1.0 mph E1.6 kmh E 1.0 mph1.6 kmh 29.86 in1011.2 mb 0.07 in1.8 mm 0.00 in/hr0.0 mm/hr 0.16 in4.1 mm
05:56 AM 34.9°F1.6°C 33.6°F0.9°C 95% Calm Calm 1.0 mph1.6 kmh 29.86 in1011.2 mb 0.07 in1.8 mm 0.00 in/hr0.0 mm/hr 0.16 in4.1 mm
05:55 AM 34.9°F1.6°C 33.6°F0.9°C 95% Calm Calm 1.0 mph1.6 kmh 29.85 in1010.8 mb 0.07 in1.8 mm 0.00 in/hr0.0 mm/hr 0.16 in4.1 mm
05:54 AM 34.9°F1.6°C 33.6°F0.9°C 95% Calm Calm 1.0 mph1.6 kmh 29.84 in1010.5 mb 0.07 in1.8 mm 0.00 in/hr0.0 mm/hr 0.16 in4.1 mm
05:53 AM 35.0°F1.7°C 33.7°F0.9°C 95% Calm Calm 1.0 mph1.6 kmh 29.84 in1010.5 mb 0.07 in1.8 mm 0.00 in/hr0.0 mm/hr 0.16 in4.1 mm
05:52 AM 35.0°F1.7°C 34.0°F1.1°C 96% Calm Calm 1.0 mph1.6 kmh 29.84 in1010.5 mb 0.07 in1.8 mm 0.00 in/hr0.0 mm/hr 0.16 in4.1 mm
05:51 AM 35.1°F1.7°C 34.1°F1.2°C 96% Calm Calm 1.0 mph1.6 kmh 29.84 in1010.5 mb 0.07 in1.8 mm 0.00 in/hr0.0 mm/hr 0.16 in4.1 mm
05:50 AM 35.2°F1.8°C 34.2°F1.2°C 96% Calm Calm 1.0 mph1.6 kmh 29.84 in1010.5 mb 0.07 in1.8 mm 0.00 in/hr0.0 mm/hr 0.16 in4.1 mm
05:49 AM 35.2°F1.8°C 34.2°F1.2°C 96% Calm Calm 1.0 mph1.6 kmh 29.85 in1010.8 mb 0.07 in1.8 mm 0.00 in/hr0.0 mm/hr 0.16 in4.1 mm
05:48 AM 35.2°F1.8°C 34.2°F1.2°C 96% Calm Calm 1.0 mph1.6 kmh 29.85 in1010.8 mb 0.07 in1.8 mm 0.00 in/hr0.0 mm/hr 0.16 in4.1 mm
05:47 AM 35.3°F1.8°C 34.3°F1.3°C 96% Calm Calm 1.0 mph1.6 kmh 29.85 in1010.8 mb 0.07 in1.8 mm 0.00 in/hr0.0 mm/hr 0.16 in4.1 mm
05:46 AM 35.3°F1.8°C 34.3°F1.3°C 96% Calm Calm 1.0 mph1.6 kmh 29.86 in1011.2 mb 0.07 in1.8 mm 0.00 in/hr0.0 mm/hr 0.16 in4.1 mm
05:45 AM 35.4°F1.9°C 34.4°F1.3°C 96% Calm Calm 1.0 mph1.6 kmh 29.86 in1011.2 mb 0.07 in1.8 mm 0.00 in/hr0.0 mm/hr 0.16 in4.1 mm
05:44 AM 35.4°F1.9°C 34.4°F1.3°C 96% Calm Calm 1.0 mph1.6 kmh 29.86 in1011.2 mb 0.07 in1.8 mm 0.00 in/hr0.0 mm/hr 0.16 in4.1 mm
05:43 AM 35.4°F1.9°C 34.4°F1.3°C 96% Calm Calm 1.0 mph1.6 kmh 29.87 in1011.5 mb 0.07 in1.8 mm 0.60 in/hr15.2 mm/hr 0.16 in4.1 mm
05:42 AM 35.5°F1.9°C 34.5°F1.4°C 96% Calm Calm 1.0 mph1.6 kmh 29.87 in1011.5 mb 0.06 in1.5 mm 0.00 in/hr0.0 mm/hr 0.15 in3.8 mm
05:41 AM 35.4°F1.9°C 34.4°F1.3°C 96% Calm Calm 1.0 mph1.6 kmh 29.87 in1011.5 mb 0.06 in1.5 mm 0.00 in/hr0.0 mm/hr 0.15 in3.8 mm
05:40 AM 35.5°F1.9°C 34.5°F1.4°C 96% Calm Calm 1.0 mph1.6 kmh 29.87 in1011.5 mb 0.06 in1.5 mm 0.00 in/hr0.0 mm/hr 0.15 in3.8 mm
05:39 AM 35.5°F1.9°C 34.5°F1.4°C 96% Calm Calm 1.0 mph1.6 kmh 29.87 in1011.5 mb 0.06 in1.5 mm 0.00 in/hr0.0 mm/hr 0.15 in3.8 mm
05:38 AM 35.4°F1.9°C 34.4°F1.3°C 96% Calm Calm 1.0 mph1.6 kmh 29.87 in1011.5 mb 0.06 in1.5 mm 0.00 in/hr0.0 mm/hr 0.15 in3.8 mm
05:37 AM 35.3°F1.8°C 34.3°F1.3°C 96% Calm Calm 1.0 mph1.6 kmh 29.87 in1011.5 mb 0.06 in1.5 mm 0.00 in/hr0.0 mm/hr 0.15 in3.8 mm
05:36 AM 35.2°F1.8°C 34.2°F1.2°C 96% Calm Calm 1.0 mph1.6 kmh 29.87 in1011.5 mb 0.06 in1.5 mm 0.00 in/hr0.0 mm/hr 0.15 in3.8 mm
05:35 AM 35.2°F1.8°C 34.2°F1.2°C 96% Calm Calm 1.0 mph1.6 kmh 29.87 in1011.5 mb 0.06 in1.5 mm 0.60 in/hr15.2 mm/hr 0.15 in3.8 mm
05:34 AM 35.2°F1.8°C 34.2°F1.2°C 96% Calm Calm 1.0 mph1.6 kmh 29.87 in1011.5 mb 0.05 in1.3 mm 0.00 in/hr0.0 mm/hr 0.14 in3.6 mm
05:33 AM 35.3°F1.8°C 34.3°F1.3°C 96% Calm Calm -- 29.86 in1011.2 mb 0.05 in1.3 mm 0.00 in/hr0.0 mm/hr 0.14 in3.6 mm
05:32 AM 35.3°F1.8°C 34.3°F1.3°C 96% Calm Calm -- 29.86 in1011.2 mb 0.05 in1.3 mm 0.00 in/hr0.0 mm/hr 0.14 in3.6 mm
05:31 AM 35.3°F1.8°C 34.3°F1.3°C 96% Calm Calm 1.0 mph1.6 kmh 29.86 in1011.2 mb 0.07 in1.8 mm 0.00 in/hr0.0 mm/hr 0.14 in3.6 mm
05:30 AM 35.3°F1.8°C 34.3°F1.3°C 96% Calm Calm 1.0 mph1.6 kmh 29.86 in1011.2 mb 0.07 in1.8 mm 0.00 in/hr0.0 mm/hr 0.14 in3.6 mm
05:29 AM 35.4°F1.9°C 34.4°F1.3°C 96% Calm Calm 1.0 mph1.6 kmh 29.86 in1011.2 mb 0.07 in1.8 mm 0.00 in/hr0.0 mm/hr 0.14 in3.6 mm
05:28 AM 35.4°F1.9°C 34.4°F1.3°C 96% Calm Calm 1.0 mph1.6 kmh 29.86 in1011.2 mb 0.07 in1.8 mm 0.00 in/hr0.0 mm/hr 0.14 in3.6 mm
05:27 AM 35.3°F1.8°C 34.3°F1.3°C 96% Calm Calm 1.0 mph1.6 kmh 29.86 in1011.2 mb 0.07 in1.8 mm 0.00 in/hr0.0 mm/hr 0.14 in3.6 mm
05:26 AM 35.3°F1.8°C 34.3°F1.3°C 96% Calm Calm 1.0 mph1.6 kmh 29.86 in1011.2 mb 0.07 in1.8 mm 0.00 in/hr0.0 mm/hr 0.14 in3.6 mm
05:25 AM 35.3°F1.8°C 34.3°F1.3°C 96% Calm Calm 1.0 mph1.6 kmh 29.86 in1011.2 mb 0.07 in1.8 mm 0.00 in/hr0.0 mm/hr 0.14 in3.6 mm
05:24 AM 35.3°F1.8°C 34.0°F1.1°C 95% Calm Calm 1.0 mph1.6 kmh 29.86 in1011.2 mb 0.07 in1.8 mm 0.00 in/hr0.0 mm/hr 0.14 in3.6 mm
05:23 AM 35.3°F1.8°C 34.0°F1.1°C 95% Calm Calm 1.0 mph1.6 kmh 29.86 in1011.2 mb 0.07 in1.8 mm 0.60 in/hr15.2 mm/hr 0.14 in3.6 mm
05:22 AM 35.3°F1.8°C 34.0°F1.1°C 95% Calm Calm 1.0 mph1.6 kmh 29.86 in1011.2 mb 0.06 in1.5 mm 0.00 in/hr0.0 mm/hr 0.13 in3.3 mm
05:21 AM 35.3°F1.8°C 34.0°F1.1°C 95% Calm Calm 1.0 mph1.6 kmh 29.86 in1011.2 mb 0.06 in1.5 mm 0.00 in/hr0.0 mm/hr 0.13 in3.3 mm
05:20 AM 35.3°F1.8°C 34.0°F1.1°C 95% Calm Calm 1.0 mph1.6 kmh 29.86 in1011.2 mb 0.06 in1.5 mm 0.00 in/hr0.0 mm/hr 0.13 in3.3 mm
05:19 AM 35.3°F1.8°C 34.0°F1.1°C 95% Calm Calm 1.0 mph1.6 kmh 29.86 in1011.2 mb 0.06 in1.5 mm 0.00 in/hr0.0 mm/hr 0.13 in3.3 mm
05:18 AM 35.3°F1.8°C 34.0°F1.1°C 95% Calm Calm 1.0 mph1.6 kmh 29.87 in1011.5 mb 0.06 in1.5 mm 0.00 in/hr0.0 mm/hr 0.13 in3.3 mm
05:17 AM 35.3°F1.8°C 34.0°F1.1°C 95% Calm Calm 1.0 mph1.6 kmh 29.86 in1011.2 mb 0.06 in1.5 mm 0.00 in/hr0.0 mm/hr 0.13 in3.3 mm
05:16 AM 35.3°F1.8°C 34.0°F1.1°C 95% Calm Calm 1.0 mph1.6 kmh 29.86 in1011.2 mb 0.06 in1.5 mm 0.00 in/hr0.0 mm/hr 0.13 in3.3 mm
05:15 AM 35.3°F1.8°C 34.0°F1.1°C 95% Calm Calm 1.0 mph1.6 kmh 29.86 in1011.2 mb 0.06 in1.5 mm 0.00 in/hr0.0 mm/hr 0.13 in3.3 mm
05:14 AM 35.3°F1.8°C 34.0°F1.1°C 95% Calm Calm 1.0 mph1.6 kmh 29.86 in1011.2 mb 0.06 in1.5 mm 0.60 in/hr15.2 mm/hr 0.13 in3.3 mm
05:13 AM 35.4°F1.9°C 34.1°F1.2°C 95% Calm Calm 1.0 mph1.6 kmh 29.86 in1011.2 mb 0.05 in1.3 mm 0.00 in/hr0.0 mm/hr 0.12 in3.0 mm
05:12 AM 35.4°F1.9°C 34.1°F1.2°C 95% Calm Calm 1.0 mph1.6 kmh 29.86 in1011.2 mb 0.05 in1.3 mm 0.00 in/hr0.0 mm/hr 0.12 in3.0 mm
05:11 AM 35.4°F1.9°C 34.1°F1.2°C 95% Calm Calm 1.0 mph1.6 kmh 29.86 in1011.2 mb 0.05 in1.3 mm 0.00 in/hr0.0 mm/hr 0.12 in3.0 mm
05:10 AM 35.4°F1.9°C 34.1°F1.2°C 95% Calm Calm 1.0 mph1.6 kmh 29.86 in1011.2 mb 0.05 in1.3 mm 0.00 in/hr0.0 mm/hr 0.12 in3.0 mm
05:09 AM 35.4°F1.9°C 34.1°F1.2°C 95% Calm Calm 1.0 mph1.6 kmh 29.86 in1011.2 mb 0.05 in1.3 mm 0.00 in/hr0.0 mm/hr 0.12 in3.0 mm
05:08 AM 35.5°F1.9°C 34.2°F1.2°C 95% Calm Calm 1.0 mph1.6 kmh 29.86 in1011.2 mb 0.05 in1.3 mm 0.00 in/hr0.0 mm/hr 0.12 in3.0 mm
05:07 AM 35.5°F1.9°C 34.2°F1.2°C 95% Calm Calm 1.0 mph1.6 kmh 29.86 in1011.2 mb 0.05 in1.3 mm 0.00 in/hr0.0 mm/hr 0.12 in3.0 mm
05:06 AM 35.5°F1.9°C 34.2°F1.2°C 95% Calm Calm 1.0 mph1.6 kmh 29.86 in1011.2 mb 0.05 in1.3 mm 0.00 in/hr0.0 mm/hr 0.12 in3.0 mm
05:05 AM 35.5°F1.9°C 34.2°F1.2°C 95% Calm Calm 1.0 mph1.6 kmh 29.86 in1011.2 mb 0.05 in1.3 mm 0.00 in/hr0.0 mm/hr 0.12 in3.0 mm
05:04 AM 35.5°F1.9°C 34.2°F1.2°C 95% Calm Calm -- 29.87 in1011.5 mb 0.05 in1.3 mm 0.00 in/hr0.0 mm/hr 0.12 in3.0 mm
05:03 AM 35.5°F1.9°C 34.2°F1.2°C 95% Calm Calm -- 29.87 in1011.5 mb 0.05 in1.3 mm 0.60 in/hr15.2 mm/hr 0.12 in3.0 mm
05:02 AM 35.6°F2.0°C 34.3°F1.3°C 95% Calm Calm -- 29.87 in1011.5 mb 0.04 in1.0 mm 0.00 in/hr0.0 mm/hr 0.11 in2.8 mm
05:01 AM 35.5°F1.9°C 34.2°F1.2°C 95% Calm Calm 2.0 mph3.2 kmh 29.86 in1011.2 mb 0.08 in2.0 mm 0.00 in/hr0.0 mm/hr 0.11 in2.8 mm
05:00 AM 35.6°F2.0°C 34.3°F1.3°C 95% Calm Calm 2.0 mph3.2 kmh 29.87 in1011.5 mb 0.08 in2.0 mm 0.00 in/hr0.0 mm/hr 0.11 in2.8 mm
04:59 AM 35.5°F1.9°C 34.2°F1.2°C 95% 1.0 mph SE1.6 kmh SE 2.0 mph3.2 kmh 29.87 in1011.5 mb 0.08 in2.0 mm 0.00 in/hr0.0 mm/hr 0.11 in2.8 mm
04:58 AM 35.5°F1.9°C 34.2°F1.2°C 95% 1.0 mph ESE1.6 kmh ESE 1.0 mph1.6 kmh 29.87 in1011.5 mb 0.08 in2.0 mm 0.00 in/hr0.0 mm/hr 0.11 in2.8 mm
04:57 AM 35.5°F1.9°C 34.2°F1.2°C 95% Calm Calm 1.0 mph1.6 kmh 29.87 in1011.5 mb 0.08 in2.0 mm 0.00 in/hr0.0 mm/hr 0.11 in2.8 mm
04:56 AM 35.5°F1.9°C 34.2°F1.2°C 95% Calm Calm 1.0 mph1.6 kmh 29.86 in1011.2 mb 0.08 in2.0 mm 0.00 in/hr0.0 mm/hr 0.11 in2.8 mm
04:55 AM 35.5°F1.9°C 34.2°F1.2°C 95% Calm Calm 1.0 mph1.6 kmh 29.86 in1011.2 mb 0.08 in2.0 mm 0.00 in/hr0.0 mm/hr 0.11 in2.8 mm
04:54 AM 35.5°F1.9°C 34.2°F1.2°C 95% Calm Calm 1.0 mph1.6 kmh 29.86 in1011.2 mb 0.08 in2.0 mm 0.00 in/hr0.0 mm/hr 0.11 in2.8 mm
04:53 AM 35.4°F1.9°C 34.1°F1.2°C 95% Calm Calm 1.0 mph1.6 kmh 29.86 in1011.2 mb 0.08 in2.0 mm 0.60 in/hr15.2 mm/hr 0.11 in2.8 mm
04:52 AM 35.4°F1.9°C 34.1°F1.2°C 95% Calm Calm 1.0 mph1.6 kmh 29.86 in1011.2 mb 0.07 in1.8 mm 0.00 in/hr0.0 mm/hr 0.10 in2.5 mm
04:51 AM 35.4°F1.9°C 34.1°F1.2°C 95% Calm Calm 1.0 mph1.6 kmh 29.86 in1011.2 mb 0.07 in1.8 mm 0.00 in/hr0.0 mm/hr 0.10 in2.5 mm
04:50 AM 35.4°F1.9°C 34.1°F1.2°C 95% Calm Calm 1.0 mph1.6 kmh 29.85 in1010.8 mb 0.07 in1.8 mm 0.00 in/hr0.0 mm/hr 0.10 in2.5 mm
04:49 AM 35.4°F1.9°C 34.1°F1.2°C 95% Calm Calm 1.0 mph1.6 kmh 29.85 in1010.8 mb 0.07 in1.8 mm 0.00 in/hr0.0 mm/hr 0.10 in2.5 mm
04:48 AM 35.4°F1.9°C 34.1°F1.2°C 95% Calm Calm 1.0 mph1.6 kmh 29.85 in1010.8 mb 0.07 in1.8 mm 0.00 in/hr0.0 mm/hr 0.10 in2.5 mm
04:47 AM 35.5°F1.9°C 34.2°F1.2°C 95% Calm Calm 1.0 mph1.6 kmh 29.85 in1010.8 mb 0.07 in1.8 mm 0.00 in/hr0.0 mm/hr 0.10 in2.5 mm
04:46 AM 35.5°F1.9°C 34.2°F1.2°C 95% Calm Calm 1.0 mph1.6 kmh 29.85 in1010.8 mb 0.07 in1.8 mm 0.00 in/hr0.0 mm/hr 0.10 in2.5 mm
04:45 AM 35.5°F1.9°C 34.2°F1.2°C 95% Calm Calm 1.0 mph1.6 kmh 29.85 in1010.8 mb 0.07 in1.8 mm 0.00 in/hr0.0 mm/hr 0.10 in2.5 mm
04:44 AM 35.5°F1.9°C 34.2°F1.2°C 95% Calm Calm 1.0 mph1.6 kmh 29.85 in1010.8 mb 0.07 in1.8 mm 0.00 in/hr0.0 mm/hr 0.10 in2.5 mm
04:43 AM 35.5°F1.9°C 34.2°F1.2°C 95% Calm Calm 1.0 mph1.6 kmh 29.85 in1010.8 mb 0.07 in1.8 mm 0.00 in/hr0.0 mm/hr 0.10 in2.5 mm
04:42 AM 35.5°F1.9°C 34.2°F1.2°C 95% Calm Calm 1.0 mph1.6 kmh 29.86 in1011.2 mb 0.07 in1.8 mm 0.00 in/hr0.0 mm/hr 0.10 in2.5 mm
04:41 AM 35.5°F1.9°C 34.2°F1.2°C 95% Calm Calm 1.0 mph1.6 kmh 29.86 in1011.2 mb 0.07 in1.8 mm 0.60 in/hr15.2 mm/hr 0.10 in2.5 mm
04:40 AM 35.5°F1.9°C 34.2°F1.2°C 95% Calm Calm 1.0 mph1.6 kmh 29.86 in1011.2 mb 0.06 in1.5 mm 0.00 in/hr0.0 mm/hr 0.09 in2.3 mm
04:39 AM 35.5°F1.9°C 34.2°F1.2°C 95% Calm Calm 1.0 mph1.6 kmh 29.85 in1010.8 mb 0.06 in1.5 mm 0.00 in/hr0.0 mm/hr 0.09 in2.3 mm
04:38 AM 35.5°F1.9°C 34.2°F1.2°C 95% Calm Calm 1.0 mph1.6 kmh 29.85 in1010.8 mb 0.06 in1.5 mm 0.00 in/hr0.0 mm/hr 0.09 in2.3 mm
04:37 AM 35.5°F1.9°C 34.2°F1.2°C 95% Calm Calm 1.0 mph1.6 kmh 29.85 in1010.8 mb 0.06 in1.5 mm 0.00 in/hr0.0 mm/hr 0.09 in2.3 mm
04:36 AM 35.5°F1.9°C 34.2°F1.2°C 95% Calm Calm 1.0 mph1.6 kmh 29.85 in1010.8 mb 0.06 in1.5 mm 0.00 in/hr0.0 mm/hr 0.09 in2.3 mm
04:35 AM 35.5°F1.9°C 34.2°F1.2°C 95% Calm Calm 1.0 mph1.6 kmh 29.85 in1010.8 mb 0.06 in1.5 mm 0.00 in/hr0.0 mm/hr 0.09 in2.3 mm
04:34 AM 35.5°F1.9°C 34.2°F1.2°C 95% Calm Calm 1.0 mph1.6 kmh 29.86 in1011.2 mb 0.06 in1.5 mm 0.00 in/hr0.0 mm/hr 0.09 in2.3 mm
04:33 AM 35.5°F1.9°C 34.2°F1.2°C 95% Calm Calm -- 29.86 in1011.2 mb 0.06 in1.5 mm 0.00 in/hr0.0 mm/hr 0.09 in2.3 mm
04:32 AM 35.5°F1.9°C 34.2°F1.2°C 95% Calm Calm -- 29.87 in1011.5 mb 0.06 in1.5 mm 0.00 in/hr0.0 mm/hr 0.09 in2.3 mm
04:31 AM 35.5°F1.9°C 34.2°F1.2°C 95% Calm Calm 1.0 mph1.6 kmh 29.86 in1011.2 mb 0.07 in1.8 mm 0.00 in/hr0.0 mm/hr 0.09 in2.3 mm
04:30 AM 35.5°F1.9°C 34.2°F1.2°C 95% Calm Calm 1.0 mph1.6 kmh 29.86 in1011.2 mb 0.07 in1.8 mm 0.00 in/hr0.0 mm/hr 0.09 in2.3 mm
04:29 AM 35.5°F1.9°C 34.2°F1.2°C 95% Calm Calm 1.0 mph1.6 kmh 29.85 in1010.8 mb 0.07 in1.8 mm 0.00 in/hr0.0 mm/hr 0.09 in2.3 mm
04:28 AM 35.5°F1.9°C 34.2°F1.2°C 95% Calm Calm 1.0 mph1.6 kmh 29.84 in1010.5 mb 0.07 in1.8 mm 0.00 in/hr0.0 mm/hr 0.09 in2.3 mm
04:27 AM 35.5°F1.9°C 34.2°F1.2°C 95% Calm Calm 1.0 mph1.6 kmh 29.84 in1010.5 mb 0.07 in1.8 mm 0.00 in/hr0.0 mm/hr 0.09 in2.3 mm
04:26 AM 35.5°F1.9°C 34.2°F1.2°C 95% Calm Calm 1.0 mph1.6 kmh 29.84 in1010.5 mb 0.07 in1.8 mm 0.60 in/hr15.2 mm/hr 0.09 in2.3 mm
04:25 AM 35.5°F1.9°C 34.2°F1.2°C 95% Calm Calm 1.0 mph1.6 kmh 29.84 in1010.5 mb 0.06 in1.5 mm 0.00 in/hr0.0 mm/hr 0.08 in2.0 mm
04:24 AM 35.5°F1.9°C 34.2°F1.2°C 95% Calm Calm 1.0 mph1.6 kmh 29.84 in1010.5 mb 0.06 in1.5 mm 0.00 in/hr0.0 mm/hr 0.08 in2.0 mm
04:23 AM 35.5°F1.9°C 34.2°F1.2°C 95% Calm Calm 1.0 mph1.6 kmh 29.84 in1010.5 mb 0.06 in1.5 mm 0.00 in/hr0.0 mm/hr 0.08 in2.0 mm
04:22 AM 35.5°F1.9°C 34.2°F1.2°C 95% Calm Calm 1.0 mph1.6 kmh 29.84 in1010.5 mb 0.06 in1.5 mm 0.00 in/hr0.0 mm/hr 0.08 in2.0 mm
04:21 AM 35.6°F2.0°C 34.3°F1.3°C 95% Calm Calm 1.0 mph1.6 kmh 29.85 in1010.8 mb 0.06 in1.5 mm 0.00 in/hr0.0 mm/hr 0.08 in2.0 mm
04:20 AM 35.6°F2.0°C 34.3°F1.3°C 95% Calm Calm 1.0 mph1.6 kmh 29.85 in1010.8 mb 0.06 in1.5 mm 0.00 in/hr0.0 mm/hr 0.08 in2.0 mm
04:19 AM 35.6°F2.0°C 34.3°F1.3°C 95% 1.0 mph ESE1.6 kmh ESE 1.0 mph1.6 kmh 29.85 in1010.8 mb 0.06 in1.5 mm 0.00 in/hr0.0 mm/hr 0.08 in2.0 mm
04:18 AM 35.6°F2.0°C 34.3°F1.3°C 95% Calm Calm 1.0 mph1.6 kmh 29.85 in1010.8 mb 0.06 in1.5 mm 0.00 in/hr0.0 mm/hr 0.08 in2.0 mm
04:17 AM 35.6°F2.0°C 34.3°F1.3°C 95% Calm Calm 1.0 mph1.6 kmh 29.85 in1010.8 mb 0.06 in1.5 mm 0.00 in/hr0.0 mm/hr 0.08 in2.0 mm
04:16 AM 35.6°F2.0°C 34.3°F1.3°C 95% Calm Calm 1.0 mph1.6 kmh 29.85 in1010.8 mb 0.06 in1.5 mm 0.00 in/hr0.0 mm/hr 0.08 in2.0 mm
04:15 AM 35.5°F1.9°C 34.2°F1.2°C 95% Calm Calm 1.0 mph1.6 kmh 29.86 in1011.2 mb 0.06 in1.5 mm 0.00 in/hr0.0 mm/hr 0.08 in2.0 mm
04:14 AM 35.5°F1.9°C 34.2°F1.2°C 95% Calm Calm 1.0 mph1.6 kmh 29.86 in1011.2 mb 0.06 in1.5 mm 0.00 in/hr0.0 mm/hr 0.08 in2.0 mm
04:13 AM 35.4°F1.9°C 34.1°F1.2°C 95% Calm Calm 1.0 mph1.6 kmh 29.86 in1011.2 mb 0.06 in1.5 mm 0.00 in/hr0.0 mm/hr 0.08 in2.0 mm
04:12 AM 35.4°F1.9°C 34.1°F1.2°C 95% Calm Calm 1.0 mph1.6 kmh 29.85 in1010.8 mb 0.06 in1.5 mm 0.00 in/hr0.0 mm/hr 0.08 in2.0 mm
04:11 AM 35.4°F1.9°C 34.1°F1.2°C 95% Calm Calm 1.0 mph1.6 kmh 29.85 in1010.8 mb 0.06 in1.5 mm 0.00 in/hr0.0 mm/hr 0.08 in2.0 mm
04:10 AM 35.4°F1.9°C 34.1°F1.2°C 95% 1.0 mph ESE1.6 kmh ESE 1.0 mph1.6 kmh 29.85 in1010.8 mb 0.06 in1.5 mm 0.00 in/hr0.0 mm/hr 0.08 in2.0 mm
04:09 AM 35.4°F1.9°C 34.1°F1.2°C 95% Calm Calm 1.0 mph1.6 kmh 29.85 in1010.8 mb 0.06 in1.5 mm 0.60 in/hr15.2 mm/hr 0.08 in2.0 mm
04:08 AM 35.4°F1.9°C 34.1°F1.2°C 95% Calm Calm 1.0 mph1.6 kmh 29.85 in1010.8 mb 0.05 in1.3 mm 0.00 in/hr0.0 mm/hr 0.07 in1.8 mm
04:07 AM 35.4°F1.9°C 34.1°F1.2°C 95% Calm Calm 1.0 mph1.6 kmh 29.85 in1010.8 mb 0.05 in1.3 mm 0.00 in/hr0.0 mm/hr 0.07 in1.8 mm
04:06 AM 35.4°F1.9°C 34.1°F1.2°C 95% Calm Calm 1.0 mph1.6 kmh 29.85 in1010.8 mb 0.05 in1.3 mm 0.00 in/hr0.0 mm/hr 0.07 in1.8 mm
04:05 AM 35.4°F1.9°C 34.1°F1.2°C 95% Calm Calm 1.0 mph1.6 kmh 29.85 in1010.8 mb 0.05 in1.3 mm 0.00 in/hr0.0 mm/hr 0.07 in1.8 mm
04:04 AM 35.4°F1.9°C 34.1°F1.2°C 95% Calm Calm 1.0 mph1.6 kmh 29.85 in1010.8 mb 0.05 in1.3 mm 0.00 in/hr0.0 mm/hr 0.07 in1.8 mm
04:03 AM 35.5°F1.9°C 34.2°F1.2°C 95% Calm Calm 1.0 mph1.6 kmh 29.85 in1010.8 mb 0.05 in1.3 mm 0.00 in/hr0.0 mm/hr 0.07 in1.8 mm
04:02 AM 35.5°F1.9°C 34.2°F1.2°C 95% 1.0 mph ESE1.6 kmh ESE 1.0 mph1.6 kmh 29.85 in1010.8 mb 0.05 in1.3 mm 0.00 in/hr0.0 mm/hr 0.07 in1.8 mm
04:01 AM 35.6°F2.0°C 34.3°F1.3°C 95% 1.0 mph ESE1.6 kmh ESE 3.0 mph4.8 kmh 29.85 in1010.8 mb 0.07 in1.8 mm 0.00 in/hr0.0 mm/hr 0.07 in1.8 mm
04:00 AM 35.6°F2.0°C 34.3°F1.3°C 95% 1.0 mph ESE1.6 kmh ESE 3.0 mph4.8 kmh 29.85 in1010.8 mb 0.07 in1.8 mm 0.00 in/hr0.0 mm/hr 0.07 in1.8 mm
03:59 AM 35.6°F2.0°C 34.3°F1.3°C 95% 1.0 mph ESE1.6 kmh ESE 3.0 mph4.8 kmh 29.85 in1010.8 mb 0.07 in1.8 mm 0.00 in/hr0.0 mm/hr 0.07 in1.8 mm
03:58 AM 35.7°F2.1°C 34.4°F1.3°C 95% 1.0 mph ESE1.6 kmh ESE 3.0 mph4.8 kmh 29.85 in1010.8 mb 0.07 in1.8 mm 0.60 in/hr15.2 mm/hr 0.07 in1.8 mm
03:57 AM 35.7°F2.1°C 34.4°F1.3°C 95% 1.0 mph ESE1.6 kmh ESE 3.0 mph4.8 kmh 29.86 in1011.2 mb 0.06 in1.5 mm 0.00 in/hr0.0 mm/hr 0.06 in1.5 mm
03:56 AM 35.8°F2.1°C 34.5°F1.4°C 95% 1.0 mph ESE1.6 kmh ESE 3.0 mph4.8 kmh 29.86 in1011.2 mb 0.06 in1.5 mm 0.00 in/hr0.0 mm/hr 0.06 in1.5 mm
03:55 AM 35.8°F2.1°C 34.5°F1.4°C 95% 1.0 mph ESE1.6 kmh ESE 3.0 mph4.8 kmh 29.86 in1011.2 mb 0.06 in1.5 mm 0.00 in/hr0.0 mm/hr 0.06 in1.5 mm
03:54 AM 35.7°F2.1°C 34.2°F1.2°C 94% 2.0 mph SE3.2 kmh SE 3.0 mph4.8 kmh 29.86 in1011.2 mb 0.06 in1.5 mm 0.00 in/hr0.0 mm/hr 0.06 in1.5 mm
03:53 AM 35.7°F2.1°C 34.2°F1.2°C 94% 2.0 mph E3.2 kmh E 3.0 mph4.8 kmh 29.86 in1011.2 mb 0.06 in1.5 mm 0.00 in/hr0.0 mm/hr 0.06 in1.5 mm
03:52 AM 35.6°F2.0°C 34.1°F1.2°C 94% 1.0 mph ESE1.6 kmh ESE 3.0 mph4.8 kmh 29.86 in1011.2 mb 0.06 in1.5 mm 0.00 in/hr0.0 mm/hr 0.06 in1.5 mm
03:51 AM 35.6°F2.0°C 34.1°F1.2°C 94% 1.0 mph SE1.6 kmh SE 3.0 mph4.8 kmh 29.85 in1010.8 mb 0.06 in1.5 mm 0.00 in/hr0.0 mm/hr 0.06 in1.5 mm
03:50 AM 35.6°F2.0°C 34.1°F1.2°C 94% 1.0 mph SE1.6 kmh SE 3.0 mph4.8 kmh 29.85 in1010.8 mb 0.06 in1.5 mm 0.60 in/hr15.2 mm/hr 0.06 in1.5 mm
03:49 AM 35.7°F2.1°C 34.2°F1.2°C 94% 1.0 mph SE1.6 kmh SE 3.0 mph4.8 kmh 29.85 in1010.8 mb 0.05 in1.3 mm 0.00 in/hr0.0 mm/hr 0.05 in1.3 mm
03:48 AM 35.7°F2.1°C 34.2°F1.2°C 94% 1.0 mph E1.6 kmh E 3.0 mph4.8 kmh 29.85 in1010.8 mb 0.05 in1.3 mm 0.00 in/hr0.0 mm/hr 0.05 in1.3 mm
03:47 AM 35.7°F2.1°C 34.2°F1.2°C 94% Calm Calm 3.0 mph4.8 kmh 29.85 in1010.8 mb 0.05 in1.3 mm 0.00 in/hr0.0 mm/hr 0.05 in1.3 mm
03:46 AM 35.7°F2.1°C 34.2°F1.2°C 94% 1.0 mph E1.6 kmh E 3.0 mph4.8 kmh 29.85 in1010.8 mb 0.05 in1.3 mm 0.00 in/hr0.0 mm/hr 0.05 in1.3 mm
03:45 AM 35.7°F2.1°C 34.2°F1.2°C 94% Calm Calm 3.0 mph4.8 kmh 29.86 in1011.2 mb 0.05 in1.3 mm 0.00 in/hr0.0 mm/hr 0.05 in1.3 mm
03:44 AM 35.7°F2.1°C 34.2°F1.2°C 94% Calm Calm 3.0 mph4.8 kmh 29.86 in1011.2 mb 0.05 in1.3 mm 0.00 in/hr0.0 mm/hr 0.05 in1.3 mm
03:43 AM 35.8°F2.1°C 34.3°F1.3°C 94% 1.0 mph E1.6 kmh E 3.0 mph4.8 kmh 29.86 in1011.2 mb 0.05 in1.3 mm 0.60 in/hr15.2 mm/hr 0.05 in1.3 mm
03:42 AM 35.9°F2.2°C 34.4°F1.3°C 94% Calm Calm 3.0 mph4.8 kmh 29.86 in1011.2 mb 0.04 in1.0 mm 0.00 in/hr0.0 mm/hr 0.04 in1.0 mm
03:41 AM 35.9°F2.2°C 34.4°F1.3°C 94% Calm Calm 3.0 mph4.8 kmh 29.86 in1011.2 mb 0.04 in1.0 mm 0.00 in/hr0.0 mm/hr 0.04 in1.0 mm
03:40 AM 36.0°F2.2°C 34.4°F1.3°C 94% Calm Calm 3.0 mph4.8 kmh 29.86 in1011.2 mb 0.04 in1.0 mm 0.00 in/hr0.0 mm/hr 0.04 in1.0 mm
03:39 AM 36.0°F2.2°C 34.4°F1.3°C 94% 2.0 mph E3.2 kmh E 3.0 mph4.8 kmh 29.86 in1011.2 mb 0.04 in1.0 mm 0.00 in/hr0.0 mm/hr 0.04 in1.0 mm
03:38 AM 35.9°F2.2°C 34.4°F1.3°C 94% 2.0 mph E3.2 kmh E 3.0 mph4.8 kmh 29.86 in1011.2 mb 0.04 in1.0 mm 0.00 in/hr0.0 mm/hr 0.04 in1.0 mm
03:37 AM 35.9°F2.2°C 34.4°F1.3°C 94% 2.0 mph E3.2 kmh E 3.0 mph4.8 kmh 29.87 in1011.5 mb 0.04 in1.0 mm 0.00 in/hr0.0 mm/hr 0.04 in1.0 mm
03:36 AM 35.9°F2.2°C 34.4°F1.3°C 94% 2.0 mph E3.2 kmh E 3.0 mph4.8 kmh 29.86 in1011.2 mb 0.04 in1.0 mm 0.00 in/hr0.0 mm/hr 0.04 in1.0 mm
03:35 AM 35.9°F2.2°C 34.4°F1.3°C 94% 2.0 mph E3.2 kmh E 2.0 mph3.2 kmh 29.86 in1011.2 mb 0.04 in1.0 mm 0.00 in/hr0.0 mm/hr 0.04 in1.0 mm
03:34 AM 35.9°F2.2°C 34.1°F1.2°C 93% 2.0 mph E3.2 kmh E 2.0 mph3.2 kmh 29.86 in1011.2 mb 0.04 in1.0 mm 0.00 in/hr0.0 mm/hr 0.04 in1.0 mm
03:33 AM 35.9°F2.2°C 34.4°F1.3°C 94% 1.0 mph SE1.6 kmh SE 2.0 mph3.2 kmh 29.85 in1010.8 mb 0.04 in1.0 mm 0.00 in/hr0.0 mm/hr 0.04 in1.0 mm
03:32 AM 36.0°F2.2°C 34.4°F1.3°C 94% 1.0 mph SE1.6 kmh SE 1.0 mph1.6 kmh 29.85 in1010.8 mb 0.04 in1.0 mm 0.00 in/hr0.0 mm/hr 0.04 in1.0 mm
03:31 AM 36.0°F2.2°C 34.4°F1.3°C 94% 1.0 mph E1.6 kmh E 3.0 mph4.8 kmh 29.86 in1011.2 mb 0.04 in1.0 mm 0.00 in/hr0.0 mm/hr 0.04 in1.0 mm
03:30 AM 36.0°F2.2°C 34.2°F1.2°C 93% 2.0 mph E3.2 kmh E 3.0 mph4.8 kmh 29.87 in1011.5 mb 0.04 in1.0 mm 0.00 in/hr0.0 mm/hr 0.04 in1.0 mm
03:29 AM 36.0°F2.2°C 34.2°F1.2°C 93% 2.0 mph E3.2 kmh E 3.0 mph4.8 kmh 29.87 in1011.5 mb 0.04 in1.0 mm 0.00 in/hr0.0 mm/hr 0.04 in1.0 mm
03:28 AM 35.9°F2.2°C 34.1°F1.2°C 93% 2.0 mph E3.2 kmh E 3.0 mph4.8 kmh 29.87 in1011.5 mb 0.04 in1.0 mm 0.00 in/hr0.0 mm/hr 0.04 in1.0 mm
03:27 AM 35.8°F2.1°C 33.7°F0.9°C 92% 3.0 mph E4.8 kmh E 3.0 mph4.8 kmh 29.87 in1011.5 mb 0.04 in1.0 mm 0.00 in/hr0.0 mm/hr 0.04 in1.0 mm
03:26 AM 35.7°F2.1°C 33.6°F0.9°C 92% 2.0 mph ESE3.2 kmh ESE 2.0 mph3.2 kmh 29.87 in1011.5 mb 0.04 in1.0 mm 0.00 in/hr0.0 mm/hr 0.04 in1.0 mm
03:25 AM 35.7°F2.1°C 33.6°F0.9°C 92% Calm Calm 2.0 mph3.2 kmh 29.87 in1011.5 mb 0.04 in1.0 mm 0.00 in/hr0.0 mm/hr 0.04 in1.0 mm
03:24 AM 35.7°F2.1°C 33.6°F0.9°C 92% Calm Calm 2.0 mph3.2 kmh 29.86 in1011.2 mb 0.04 in1.0 mm 0.00 in/hr0.0 mm/hr 0.04 in1.0 mm
03:23 AM 35.7°F2.1°C 33.6°F0.9°C 92% Calm Calm 2.0 mph3.2 kmh 29.86 in1011.2 mb 0.04 in1.0 mm 0.00 in/hr0.0 mm/hr 0.04 in1.0 mm
03:22 AM 35.7°F2.1°C 33.6°F0.9°C 92% Calm Calm 2.0 mph3.2 kmh 29.86 in1011.2 mb 0.04 in1.0 mm 0.00 in/hr0.0 mm/hr 0.04 in1.0 mm
03:21 AM 35.7°F2.1°C 33.3°F0.7°C 91% Calm Calm 2.0 mph3.2 kmh 29.86 in1011.2 mb 0.04 in1.0 mm 0.00 in/hr0.0 mm/hr 0.04 in1.0 mm
03:20 AM 35.7°F2.1°C 33.3°F0.7°C 91% Calm Calm 2.0 mph3.2 kmh 29.86 in1011.2 mb 0.04 in1.0 mm 0.00 in/hr0.0 mm/hr 0.04 in1.0 mm
03:19 AM 35.7°F2.1°C 33.3°F0.7°C 91% Calm Calm 2.0 mph3.2 kmh 29.86 in1011.2 mb 0.04 in1.0 mm 0.60 in/hr15.2 mm/hr 0.04 in1.0 mm
03:18 AM 35.8°F2.1°C 33.4°F0.8°C 91% Calm Calm 2.0 mph3.2 kmh 29.87 in1011.5 mb 0.03 in0.8 mm 0.00 in/hr0.0 mm/hr 0.03 in0.8 mm
03:17 AM 35.8°F2.1°C 33.4°F0.8°C 91% Calm Calm 2.0 mph3.2 kmh 29.87 in1011.5 mb 0.03 in0.8 mm 0.00 in/hr0.0 mm/hr 0.03 in0.8 mm
03:16 AM 35.9°F2.2°C 33.5°F0.8°C 91% Calm Calm 2.0 mph3.2 kmh 29.87 in1011.5 mb 0.03 in0.8 mm 0.00 in/hr0.0 mm/hr 0.03 in0.8 mm
03:15 AM 36.0°F2.2°C 33.6°F0.9°C 91% Calm Calm 2.0 mph3.2 kmh 29.87 in1011.5 mb 0.03 in0.8 mm 0.00 in/hr0.0 mm/hr 0.03 in0.8 mm
03:14 AM 36.0°F2.2°C 33.6°F0.9°C 91% Calm Calm 2.0 mph3.2 kmh 29.87 in1011.5 mb 0.03 in0.8 mm 0.00 in/hr0.0 mm/hr 0.03 in0.8 mm
03:13 AM 36.1°F2.3°C 33.5°F0.8°C 90% Calm Calm 2.0 mph3.2 kmh 29.87 in1011.5 mb 0.03 in0.8 mm 0.00 in/hr0.0 mm/hr 0.03 in0.8 mm
03:12 AM 36.2°F2.3°C 33.6°F0.9°C 90% Calm Calm 2.0 mph3.2 kmh 29.87 in1011.5 mb 0.03 in0.8 mm 0.00 in/hr0.0 mm/hr 0.03 in0.8 mm
03:11 AM 36.3°F2.4°C 33.7°F0.9°C 90% Calm Calm 2.0 mph3.2 kmh 29.87 in1011.5 mb 0.03 in0.8 mm 0.00 in/hr0.0 mm/hr 0.03 in0.8 mm
03:10 AM 36.3°F2.4°C 33.7°F0.9°C 90% Calm Calm 2.0 mph3.2 kmh 29.87 in1011.5 mb 0.03 in0.8 mm 0.00 in/hr0.0 mm/hr 0.03 in0.8 mm
03:09 AM 36.4°F2.4°C 33.8°F1.0°C 90% Calm Calm 2.0 mph3.2 kmh 29.87 in1011.5 mb 0.03 in0.8 mm 0.00 in/hr0.0 mm/hr 0.03 in0.8 mm
03:08 AM 36.5°F2.5°C 33.9°F1.1°C 90% Calm Calm 2.0 mph3.2 kmh 29.87 in1011.5 mb 0.03 in0.8 mm 0.00 in/hr0.0 mm/hr 0.03 in0.8 mm
03:07 AM 36.6°F2.6°C 34.0°F1.1°C 90% Calm Calm 2.0 mph3.2 kmh 29.88 in1011.9 mb 0.03 in0.8 mm 0.00 in/hr0.0 mm/hr 0.03 in0.8 mm
03:06 AM 36.6°F2.6°C 34.0°F1.1°C 90% Calm Calm 2.0 mph3.2 kmh 29.88 in1011.9 mb 0.03 in0.8 mm 0.00 in/hr0.0 mm/hr 0.03 in0.8 mm
03:05 AM 36.6°F2.6°C 34.0°F1.1°C 90% Calm Calm 2.0 mph3.2 kmh 29.89 in1012.2 mb 0.03 in0.8 mm 0.00 in/hr0.0 mm/hr 0.03 in0.8 mm
03:04 AM 36.6°F2.6°C 34.0°F1.1°C 90% 1.0 mph E1.6 kmh E 2.0 mph3.2 kmh 29.89 in1012.2 mb 0.03 in0.8 mm 0.00 in/hr0.0 mm/hr 0.03 in0.8 mm
03:03 AM 36.7°F2.6°C 34.1°F1.2°C 90% 2.0 mph E3.2 kmh E 2.0 mph3.2 kmh 29.90 in1012.5 mb 0.03 in0.8 mm 0.00 in/hr0.0 mm/hr 0.03 in0.8 mm
03:02 AM 36.6°F2.6°C 33.7°F0.9°C 89% 2.0 mph E3.2 kmh E 2.0 mph3.2 kmh 29.89 in1012.2 mb 0.03 in0.8 mm 0.00 in/hr0.0 mm/hr 0.03 in0.8 mm
03:01 AM 36.7°F2.6°C 33.8°F1.0°C 89% 1.0 mph SE1.6 kmh SE 6.0 mph9.7 kmh 29.89 in1012.2 mb 0.03 in0.8 mm 0.60 in/hr15.2 mm/hr 0.03 in0.8 mm
03:00 AM 36.7°F2.6°C 33.8°F1.0°C 89% 2.0 mph E3.2 kmh E 6.0 mph9.7 kmh 29.89 in1012.2 mb 0.02 in0.5 mm 0.00 in/hr0.0 mm/hr 0.02 in0.5 mm
02:59 AM 36.8°F2.7°C 33.9°F1.1°C 89% Calm Calm 6.0 mph9.7 kmh 29.89 in1012.2 mb 0.02 in0.5 mm 0.00 in/hr0.0 mm/hr 0.02 in0.5 mm
02:58 AM 36.8°F2.7°C 33.9°F1.1°C 89% Calm Calm 6.0 mph9.7 kmh 29.89 in1012.2 mb 0.02 in0.5 mm 0.00 in/hr0.0 mm/hr 0.02 in0.5 mm
02:57 AM 36.9°F2.7°C 33.7°F0.9°C 88% Calm Calm 6.0 mph9.7 kmh 29.89 in1012.2 mb 0.02 in0.5 mm 0.00 in/hr0.0 mm/hr 0.02 in0.5 mm
02:56 AM 36.9°F2.7°C 33.7°F0.9°C 88% Calm Calm 6.0 mph9.7 kmh 29.89 in1012.2 mb 0.02 in0.5 mm 0.00 in/hr0.0 mm/hr 0.02 in0.5 mm
02:55 AM 37.0°F2.8°C 33.8°F1.0°C 88% 1.0 mph ESE1.6 kmh ESE 6.0 mph9.7 kmh 29.89 in1012.2 mb 0.02 in0.5 mm 0.00 in/hr0.0 mm/hr 0.02 in0.5 mm
02:54 AM 37.1°F2.8°C 33.9°F1.1°C 88% Calm Calm 6.0 mph9.7 kmh 29.89 in1012.2 mb 0.02 in0.5 mm 0.00 in/hr0.0 mm/hr 0.02 in0.5 mm
02:53 AM 37.2°F2.9°C 34.0°F1.1°C 88% Calm Calm 6.0 mph9.7 kmh 29.89 in1012.2 mb 0.02 in0.5 mm 0.00 in/hr0.0 mm/hr 0.02 in0.5 mm
02:51 AM 37.3°F2.9°C 34.1°F1.2°C 88% Calm Calm 6.0 mph9.7 kmh 29.90 in1012.5 mb 0.02 in0.5 mm 0.00 in/hr0.0 mm/hr 0.02 in0.5 mm
02:50 AM 37.4°F3.0°C 34.2°F1.2°C 88% Calm Calm 6.0 mph9.7 kmh 29.90 in1012.5 mb 0.02 in0.5 mm 0.00 in/hr0.0 mm/hr 0.02 in0.5 mm
02:49 AM 37.5°F3.1°C 34.3°F1.3°C 88% Calm Calm 6.0 mph9.7 kmh 29.90 in1012.5 mb 0.02 in0.5 mm 0.00 in/hr0.0 mm/hr 0.02 in0.5 mm
02:48 AM 37.6°F3.1°C 34.4°F1.3°C 88% Calm Calm 6.0 mph9.7 kmh 29.90 in1012.5 mb 0.02 in0.5 mm 0.00 in/hr0.0 mm/hr 0.02 in0.5 mm
02:47 AM 37.7°F3.2°C 34.5°F1.4°C 88% Calm Calm 6.0 mph9.7 kmh 29.90 in1012.5 mb 0.02 in0.5 mm 0.60 in/hr15.2 mm/hr 0.02 in0.5 mm
02:46 AM 37.7°F3.2°C 34.5°F1.4°C 88% Calm Calm 6.0 mph9.7 kmh 29.90 in1012.5 mb 0.01 in0.3 mm 0.00 in/hr0.0 mm/hr 0.01 in0.3 mm
02:45 AM 37.8°F3.2°C 34.3°F1.3°C 87% 1.0 mph ESE1.6 kmh ESE 6.0 mph9.7 kmh 29.91 in1012.9 mb 0.01 in0.3 mm 0.00 in/hr0.0 mm/hr 0.01 in0.3 mm
02:44 AM 37.9°F3.3°C 34.4°F1.3°C 87% Calm Calm 6.0 mph9.7 kmh 29.92 in1013.2 mb 0.01 in0.3 mm 0.00 in/hr0.0 mm/hr 0.01 in0.3 mm
02:43 AM 37.9°F3.3°C 34.4°F1.3°C 87% 1.0 mph ESE1.6 kmh ESE 6.0 mph9.7 kmh 29.92 in1013.2 mb 0.01 in0.3 mm 0.00 in/hr0.0 mm/hr 0.01 in0.3 mm
02:42 AM 38.0°F3.3°C 34.2°F1.2°C 86% 1.0 mph ESE1.6 kmh ESE 6.0 mph9.7 kmh 29.92 in1013.2 mb 0.01 in0.3 mm 0.00 in/hr0.0 mm/hr 0.01 in0.3 mm
02:41 AM 38.0°F3.3°C 34.5°F1.4°C 87% 2.0 mph ESE3.2 kmh ESE 6.0 mph9.7 kmh 29.92 in1013.2 mb 0.01 in0.3 mm 0.00 in/hr0.0 mm/hr 0.01 in0.3 mm
02:40 AM 38.1°F3.4°C 34.3°F1.3°C 86% 2.0 mph ESE3.2 kmh ESE 6.0 mph9.7 kmh 29.92 in1013.2 mb 0.01 in0.3 mm 0.00 in/hr0.0 mm/hr 0.01 in0.3 mm
02:39 AM 38.2°F3.4°C 34.7°F1.5°C 87% 3.0 mph E4.8 kmh E 6.0 mph9.7 kmh 29.92 in1013.2 mb 0.01 in0.3 mm 0.00 in/hr0.0 mm/hr 0.01 in0.3 mm
02:38 AM 38.3°F3.5°C 34.8°F1.6°C 87% 3.0 mph E4.8 kmh E 6.0 mph9.7 kmh 29.92 in1013.2 mb 0.01 in0.3 mm 0.00 in/hr0.0 mm/hr 0.01 in0.3 mm
02:37 AM 38.4°F3.6°C 35.2°F1.8°C 88% 3.0 mph SE4.8 kmh SE 6.0 mph9.7 kmh 29.92 in1013.2 mb 0.01 in0.3 mm 0.00 in/hr0.0 mm/hr 0.01 in0.3 mm
02:36 AM 38.5°F3.6°C 35.3°F1.8°C 88% 2.0 mph E3.2 kmh E 3.0 mph4.8 kmh 29.92 in1013.2 mb 0.01 in0.3 mm 0.00 in/hr0.0 mm/hr 0.01 in0.3 mm
02:35 AM 38.5°F3.6°C 35.3°F1.8°C 88% 1.0 mph ESE1.6 kmh ESE 2.0 mph3.2 kmh 29.92 in1013.2 mb 0.01 in0.3 mm 0.00 in/hr0.0 mm/hr 0.01 in0.3 mm
02:34 AM 38.5°F3.6°C 34.7°F1.5°C 86% Calm Calm 2.0 mph3.2 kmh 29.92 in1013.2 mb 0.01 in0.3 mm 0.00 in/hr0.0 mm/hr 0.01 in0.3 mm
02:33 AM 38.5°F3.6°C 34.7°F1.5°C 86% Calm Calm 1.0 mph1.6 kmh 29.92 in1013.2 mb 0.01 in0.3 mm 0.00 in/hr0.0 mm/hr 0.01 in0.3 mm
02:32 AM 38.6°F3.7°C 34.8°F1.6°C 86% 1.0 mph E1.6 kmh E 1.0 mph1.6 kmh 29.92 in1013.2 mb 0.01 in0.3 mm 0.60 in/hr15.2 mm/hr 0.01 in0.3 mm
02:31 AM 38.6°F3.7°C 34.8°F1.6°C 86% 2.0 mph E3.2 kmh E 3.0 mph4.8 kmh 29.92 in1013.2 mb 0.00 in0.0 mm 0.00 in/hr0.0 mm/hr 0.00 in0.0 mm
02:30 AM 38.7°F3.7°C 34.9°F1.6°C 86% 3.0 mph E4.8 kmh E 3.0 mph4.8 kmh 29.92 in1013.2 mb 0.00 in0.0 mm 0.00 in/hr0.0 mm/hr 0.00 in0.0 mm
02:29 AM 38.7°F3.7°C 34.6°F1.4°C 85% 3.0 mph E4.8 kmh E 3.0 mph4.8 kmh 29.93 in1013.5 mb 0.00 in0.0 mm 0.00 in/hr0.0 mm/hr 0.00 in0.0 mm
02:28 AM 38.7°F3.7°C 34.0°F1.1°C 83% 2.0 mph ENE3.2 kmh ENE 3.0 mph4.8 kmh 29.93 in1013.5 mb 0.00 in0.0 mm 0.00 in/hr0.0 mm/hr 0.00 in0.0 mm
02:27 AM 38.6°F3.7°C 33.9°F1.1°C 83% 1.0 mph ESE1.6 kmh ESE 3.0 mph4.8 kmh 29.93 in1013.5 mb 0.00 in0.0 mm 0.00 in/hr0.0 mm/hr 0.00 in0.0 mm
02:26 AM 38.7°F3.7°C 34.0°F1.1°C 83% 2.0 mph ESE3.2 kmh ESE 3.0 mph4.8 kmh 29.93 in1013.5 mb 0.00 in0.0 mm 0.00 in/hr0.0 mm/hr 0.00 in0.0 mm
02:25 AM 38.7°F3.7°C 33.7°F0.9°C 82% 2.0 mph ESE3.2 kmh ESE 3.0 mph4.8 kmh 29.92 in1013.2 mb 0.00 in0.0 mm 0.00 in/hr0.0 mm/hr 0.00 in0.0 mm
02:24 AM 38.7°F3.7°C 33.7°F0.9°C 82% 2.0 mph ESE3.2 kmh ESE 3.0 mph4.8 kmh 29.92 in1013.2 mb 0.00 in0.0 mm 0.00 in/hr0.0 mm/hr 0.00 in0.0 mm
02:23 AM 38.7°F3.7°C 33.7°F0.9°C 82% 2.0 mph ESE3.2 kmh ESE 3.0 mph4.8 kmh 29.92 in1013.2 mb 0.00 in0.0 mm 0.00 in/hr0.0 mm/hr 0.00 in0.0 mm
02:22 AM 38.7°F3.7°C 33.7°F0.9°C 82% 1.0 mph E1.6 kmh E 3.0 mph4.8 kmh 29.92 in1013.2 mb 0.00 in0.0 mm 0.00 in/hr0.0 mm/hr 0.00 in0.0 mm
02:21 AM 38.7°F3.7°C 33.7°F0.9°C 82% 3.0 mph E4.8 kmh E 3.0 mph4.8 kmh 29.92 in1013.2 mb 0.00 in0.0 mm 0.00 in/hr0.0 mm/hr 0.00 in0.0 mm
02:20 AM 38.7°F3.7°C 33.4°F0.8°C 81% 1.0 mph NE1.6 kmh NE 2.0 mph3.2 kmh 29.92 in1013.2 mb 0.00 in0.0 mm 0.00 in/hr0.0 mm/hr 0.00 in0.0 mm
02:19 AM 38.8°F3.8°C 33.5°F0.8°C 81% Calm Calm 2.0 mph3.2 kmh 29.92 in1013.2 mb 0.00 in0.0 mm 0.00 in/hr0.0 mm/hr 0.00 in0.0 mm
02:18 AM 38.8°F3.8°C 33.5°F0.8°C 81% 1.0 mph NE1.6 kmh NE 2.0 mph3.2 kmh 29.92 in1013.2 mb 0.00 in0.0 mm 0.00 in/hr0.0 mm/hr 0.00 in0.0 mm
02:17 AM 38.8°F3.8°C 33.2°F0.7°C 80% 1.0 mph NE1.6 kmh NE 2.0 mph3.2 kmh 29.92 in1013.2 mb 0.00 in0.0 mm 0.00 in/hr0.0 mm/hr 0.00 in0.0 mm
02:16 AM 38.9°F3.8°C 33.0°F0.6°C 79% Calm Calm 2.0 mph3.2 kmh 29.91 in1012.9 mb 0.00 in0.0 mm 0.00 in/hr0.0 mm/hr 0.00 in0.0 mm
02:15 AM 38.9°F3.8°C 33.3°F0.7°C 80% Calm Calm 2.0 mph3.2 kmh 29.91 in1012.9 mb 0.00 in0.0 mm 0.00 in/hr0.0 mm/hr 0.00 in0.0 mm
02:14 AM 38.9°F3.8°C 33.3°F0.7°C 80% Calm Calm 2.0 mph3.2 kmh 29.92 in1013.2 mb 0.00 in0.0 mm 0.00 in/hr0.0 mm/hr 0.00 in0.0 mm
02:13 AM 39.0°F3.9°C 33.4°F0.8°C 80% Calm Calm 2.0 mph3.2 kmh 29.92 in1013.2 mb 0.00 in0.0 mm 0.00 in/hr0.0 mm/hr 0.00 in0.0 mm
02:12 AM 39.0°F3.9°C 33.4°F0.8°C 80% Calm Calm 2.0 mph3.2 kmh 29.91 in1012.9 mb 0.00 in0.0 mm 0.00 in/hr0.0 mm/hr 0.00 in0.0 mm
02:11 AM 39.1°F3.9°C 33.5°F0.8°C 80% Calm Calm 2.0 mph3.2 kmh 29.91 in1012.9 mb 0.00 in0.0 mm 0.00 in/hr0.0 mm/hr 0.00 in0.0 mm
02:10 AM 39.1°F3.9°C 33.8°F1.0°C 81% Calm Calm 2.0 mph3.2 kmh 29.91 in1012.9 mb 0.00 in0.0 mm 0.00 in/hr0.0 mm/hr 0.00 in0.0 mm
02:09 AM 39.2°F4.0°C 33.6°F0.9°C 80% Calm Calm 2.0 mph3.2 kmh 29.92 in1013.2 mb 0.00 in0.0 mm 0.00 in/hr0.0 mm/hr 0.00 in0.0 mm
02:08 AM 39.2°F4.0°C 33.6°F0.9°C 80% Calm Calm 2.0 mph3.2 kmh 29.92 in1013.2 mb 0.00 in0.0 mm 0.00 in/hr0.0 mm/hr 0.00 in0.0 mm
02:07 AM 39.2°F4.0°C 33.3°F0.7°C 79% Calm Calm 2.0 mph3.2 kmh 29.92 in1013.2 mb 0.00 in0.0 mm 0.00 in/hr0.0 mm/hr 0.00 in0.0 mm
02:06 AM 39.3°F4.1°C 33.3°F0.7°C 79% Calm Calm 2.0 mph3.2 kmh 29.91 in1012.9 mb 0.00 in0.0 mm 0.00 in/hr0.0 mm/hr 0.00 in0.0 mm
02:05 AM 39.3°F4.1°C 33.3°F0.7°C 79% Calm Calm 2.0 mph3.2 kmh 29.91 in1012.9 mb 0.00 in0.0 mm 0.00 in/hr0.0 mm/hr 0.00 in0.0 mm
02:04 AM 39.4°F4.1°C 33.4°F0.8°C 79% Calm Calm 2.0 mph3.2 kmh 29.91 in1012.9 mb 0.00 in0.0 mm 0.00 in/hr0.0 mm/hr 0.00 in0.0 mm
02:03 AM 39.4°F4.1°C 33.4°F0.8°C 79% Calm Calm 2.0 mph3.2 kmh 29.91 in1012.9 mb 0.00 in0.0 mm 0.00 in/hr0.0 mm/hr 0.00 in0.0 mm
02:02 AM 39.5°F4.2°C 33.5°F0.8°C 79% 1.0 mph ENE1.6 kmh ENE 2.0 mph3.2 kmh 29.91 in1012.9 mb 0.00 in0.0 mm 0.00 in/hr0.0 mm/hr 0.00 in0.0 mm
02:01 AM 39.6°F4.2°C 33.6°F0.9°C 79% 2.0 mph ENE3.2 kmh ENE 4.0 mph6.4 kmh 29.92 in1013.2 mb 0.00 in0.0 mm 0.00 in/hr0.0 mm/hr 0.00 in0.0 mm
02:00 AM 39.6°F4.2°C 33.6°F0.9°C 79% Calm Calm 4.0 mph6.4 kmh 29.92 in1013.2 mb 0.00 in0.0 mm 0.00 in/hr0.0 mm/hr 0.00 in0.0 mm
01:59 AM 39.7°F4.3°C 33.7°F0.9°C 79% Calm Calm 4.0 mph6.4 kmh 29.92 in1013.2 mb 0.00 in0.0 mm 0.00 in/hr0.0 mm/hr 0.00 in0.0 mm
01:58 AM 39.7°F4.3°C 33.7°F0.9°C 79% 1.0 mph E1.6 kmh E 4.0 mph6.4 kmh 29.92 in1013.2 mb 0.00 in0.0 mm 0.00 in/hr0.0 mm/hr 0.00 in0.0 mm
01:57 AM 39.7°F4.3°C 34.1°F1.2°C 80% 1.0 mph E1.6 kmh E 4.0 mph6.4 kmh 29.92 in1013.2 mb 0.00 in0.0 mm 0.00 in/hr0.0 mm/hr 0.00 in0.0 mm
01:56 AM 39.7°F4.3°C 34.1°F1.2°C 80% 2.0 mph E3.2 kmh E 4.0 mph6.4 kmh 29.92 in1013.2 mb 0.00 in0.0 mm 0.00 in/hr0.0 mm/hr 0.00 in0.0 mm
01:55 AM 39.7°F4.3°C 34.1°F1.2°C 80% 2.0 mph E3.2 kmh E 4.0 mph6.4 kmh 29.92 in1013.2 mb 0.00 in0.0 mm 0.00 in/hr0.0 mm/hr 0.00 in0.0 mm
01:54 AM 39.8°F4.3°C 33.8°F1.0°C 79% 1.0 mph ENE1.6 kmh ENE 4.0 mph6.4 kmh 29.92 in1013.2 mb 0.00 in0.0 mm 0.00 in/hr0.0 mm/hr 0.00 in0.0 mm
01:53 AM 39.8°F4.3°C 33.2°F0.7°C 77% 1.0 mph NW1.6 kmh NW 4.0 mph6.4 kmh 29.92 in1013.2 mb 0.00 in0.0 mm 0.00 in/hr0.0 mm/hr 0.00 in0.0 mm
01:52 AM 39.9°F4.4°C 33.3°F0.7°C 77% 1.0 mph NW1.6 kmh NW 4.0 mph6.4 kmh 29.92 in1013.2 mb 0.00 in0.0 mm 0.00 in/hr0.0 mm/hr 0.00 in0.0 mm
01:51 AM 40.0°F4.4°C 33.4°F0.8°C 77% 1.0 mph ENE1.6 kmh ENE 4.0 mph6.4 kmh 29.93 in1013.5 mb 0.00 in0.0 mm 0.00 in/hr0.0 mm/hr 0.00 in0.0 mm
01:50 AM 40.0°F4.4°C 33.7°F0.9°C 78% Calm Calm 4.0 mph6.4 kmh 29.93 in1013.5 mb 0.00 in0.0 mm 0.00 in/hr0.0 mm/hr 0.00 in0.0 mm
01:49 AM 40.1°F4.5°C 33.5°F0.8°C 77% 1.0 mph ENE1.6 kmh ENE 4.0 mph6.4 kmh 29.93 in1013.5 mb 0.00 in0.0 mm 0.00 in/hr0.0 mm/hr 0.00 in0.0 mm
01:48 AM 40.1°F4.5°C 33.8°F1.0°C 78% 2.0 mph E3.2 kmh E 4.0 mph6.4 kmh 29.93 in1013.5 mb 0.00 in0.0 mm 0.00 in/hr0.0 mm/hr 0.00 in0.0 mm
01:47 AM 40.1°F4.5°C 33.8°F1.0°C 78% 1.0 mph E1.6 kmh E 4.0 mph6.4 kmh 29.93 in1013.5 mb 0.00 in0.0 mm 0.00 in/hr0.0 mm/hr 0.00 in0.0 mm
01:46 AM 40.2°F4.6°C 33.9°F1.1°C 78% 1.0 mph E1.6 kmh E 4.0 mph6.4 kmh 29.92 in1013.2 mb 0.00 in0.0 mm 0.00 in/hr0.0 mm/hr 0.00 in0.0 mm
01:45 AM 40.2°F4.6°C 33.9°F1.1°C 78% 1.0 mph E1.6 kmh E 4.0 mph6.4 kmh 29.92 in1013.2 mb 0.00 in0.0 mm 0.00 in/hr0.0 mm/hr 0.00 in0.0 mm
01:44 AM 40.3°F4.6°C 34.0°F1.1°C 78% Calm Calm 4.0 mph6.4 kmh 29.92 in1013.2 mb 0.00 in0.0 mm 0.00 in/hr0.0 mm/hr 0.00 in0.0 mm
01:43 AM 40.3°F4.6°C 33.7°F0.9°C 77% 1.0 mph E1.6 kmh E 4.0 mph6.4 kmh 29.92 in1013.2 mb 0.00 in0.0 mm 0.00 in/hr0.0 mm/hr 0.00 in0.0 mm
01:42 AM 40.4°F4.7°C 33.8°F1.0°C 77% Calm Calm 4.0 mph6.4 kmh 29.92 in1013.2 mb 0.00 in0.0 mm 0.00 in/hr0.0 mm/hr 0.00 in0.0 mm
01:41 AM 40.5°F4.7°C 33.9°F1.1°C 77% 1.0 mph E1.6 kmh E 4.0 mph6.4 kmh 29.91 in1012.9 mb 0.00 in0.0 mm 0.00 in/hr0.0 mm/hr 0.00 in0.0 mm
01:40 AM 40.5°F4.7°C 33.5°F0.8°C 76% 1.0 mph WNW1.6 kmh WNW 3.0 mph4.8 kmh 29.91 in1012.9 mb 0.00 in0.0 mm 0.00 in/hr0.0 mm/hr 0.00 in0.0 mm
01:39 AM 40.6°F4.8°C 33.6°F0.9°C 76% Calm Calm 3.0 mph4.8 kmh 29.91 in1012.9 mb 0.00 in0.0 mm 0.00 in/hr0.0 mm/hr 0.00 in0.0 mm
01:38 AM 40.7°F4.8°C 33.1°F0.6°C 74% 1.0 mph N1.6 kmh N 3.0 mph4.8 kmh 29.91 in1012.9 mb 0.00 in0.0 mm 0.00 in/hr0.0 mm/hr 0.00 in0.0 mm
01:36 AM 40.7°F4.8°C 33.1°F0.6°C 74% 1.0 mph N1.6 kmh N 3.0 mph4.8 kmh 29.91 in1012.9 mb 0.00 in0.0 mm 0.00 in/hr0.0 mm/hr 0.00 in0.0 mm
01:35 AM 40.8°F4.9°C 33.2°F0.7°C 74% Calm Calm 3.0 mph4.8 kmh 29.91 in1012.9 mb 0.00 in0.0 mm 0.00 in/hr0.0 mm/hr 0.00 in0.0 mm
01:34 AM 40.9°F4.9°C 32.6°F0.3°C 72% 2.0 mph NNW3.2 kmh NNW 3.0 mph4.8 kmh 29.91 in1012.9 mb 0.00 in0.0 mm 0.00 in/hr0.0 mm/hr 0.00 in0.0 mm
01:33 AM 41.0°F5.0°C 32.7°F0.4°C 72% 1.0 mph SW1.6 kmh SW 1.0 mph1.6 kmh 29.91 in1012.9 mb 0.00 in0.0 mm 0.00 in/hr0.0 mm/hr 0.00 in0.0 mm
01:32 AM 41.0°F5.0°C 32.7°F0.4°C 72% Calm Calm -- 29.90 in1012.5 mb 0.00 in0.0 mm 0.00 in/hr0.0 mm/hr 0.00 in0.0 mm
01:31 AM 41.1°F5.1°C 32.8°F0.4°C 72% 3.0 mph SW4.8 kmh SW 4.0 mph6.4 kmh 29.91 in1012.9 mb 0.00 in0.0 mm 0.00 in/hr0.0 mm/hr 0.00 in0.